<?xml version="1.0" encoding="UTF-8" standalone="no" ?>
<gpx xmlns="http://www.topografix.com/GPX/1/1" xmlns:xsi="http://www.w3.org/2001/XMLSchema-instance" xsi:schemaLocation="http://www.topografix.com/GPX/1/1 http://www.topografix.com/GPX/1/1/gpx.xsd" version="1.1" creator="VisuGPX - https://www.visugpx.com">
  <metadata>
    <name>Vous suivez Autour_de_Salives</name>
    <desc><![CDATA[
]]></desc>
  </metadata>
  <trk>
    <name><![CDATA[Vous suivez Autour_de_Salives]]></name>
    <trkseg>
      <trkpt lat="47.61683" lon="5.01521">
        <ele>102.1</ele>
        <time>2020-03-08T09:24:51Z</time>
      </trkpt>
      <trkpt lat="47.61682" lon="5.01522">
        <ele>102.1</ele>
        <time>2020-03-08T09:25:04Z</time>
      </trkpt>
      <trkpt lat="47.61963" lon="5.01449">
        <ele>317.5</ele>
        <time>2020-03-08T09:25:09Z</time>
      </trkpt>
      <trkpt lat="47.61963" lon="5.01449">
        <ele>317.5</ele>
        <time>2020-03-08T09:25:31Z</time>
      </trkpt>
      <trkpt lat="47.61956" lon="5.01447">
        <ele>318.5</ele>
        <time>2020-03-08T09:25:38Z</time>
      </trkpt>
      <trkpt lat="47.61953" lon="5.01445">
        <ele>318.1</ele>
        <time>2020-03-08T09:26:26Z</time>
      </trkpt>
      <trkpt lat="47.61963" lon="5.01455">
        <ele>319.4</ele>
        <time>2020-03-08T09:26:29Z</time>
      </trkpt>
      <trkpt lat="47.61971" lon="5.0146">
        <ele>319.3</ele>
        <time>2020-03-08T09:26:49Z</time>
      </trkpt>
      <trkpt lat="47.61979" lon="5.01462">
        <ele>319.3</ele>
        <time>2020-03-08T09:26:55Z</time>
      </trkpt>
      <trkpt lat="47.61987" lon="5.01467">
        <ele>320.3</ele>
        <time>2020-03-08T09:27:04Z</time>
      </trkpt>
      <trkpt lat="47.61994" lon="5.01475">
        <ele>321.1</ele>
        <time>2020-03-08T09:27:14Z</time>
      </trkpt>
      <trkpt lat="47.62" lon="5.01482">
        <ele>321.7</ele>
        <time>2020-03-08T09:27:21Z</time>
      </trkpt>
      <trkpt lat="47.62008" lon="5.01483">
        <ele>321.9</ele>
        <time>2020-03-08T09:27:35Z</time>
      </trkpt>
      <trkpt lat="47.62015" lon="5.01477">
        <ele>322.1</ele>
        <time>2020-03-08T09:27:49Z</time>
      </trkpt>
      <trkpt lat="47.62015" lon="5.01465">
        <ele>322.4</ele>
        <time>2020-03-08T09:27:59Z</time>
      </trkpt>
      <trkpt lat="47.62014" lon="5.01452">
        <ele>322.8</ele>
        <time>2020-03-08T09:28:07Z</time>
      </trkpt>
      <trkpt lat="47.62015" lon="5.0144">
        <ele>323.3</ele>
        <time>2020-03-08T09:28:15Z</time>
      </trkpt>
      <trkpt lat="47.62016" lon="5.01427">
        <ele>323.6</ele>
        <time>2020-03-08T09:28:23Z</time>
      </trkpt>
      <trkpt lat="47.62016" lon="5.01416">
        <ele>324.2</ele>
        <time>2020-03-08T09:28:29Z</time>
      </trkpt>
      <trkpt lat="47.62014" lon="5.01406">
        <ele>325.6</ele>
        <time>2020-03-08T09:28:35Z</time>
      </trkpt>
      <trkpt lat="47.62011" lon="5.01394">
        <ele>326.6</ele>
        <time>2020-03-08T09:28:43Z</time>
      </trkpt>
      <trkpt lat="47.62008" lon="5.01384">
        <ele>327.2</ele>
        <time>2020-03-08T09:28:49Z</time>
      </trkpt>
      <trkpt lat="47.62004" lon="5.01372">
        <ele>328.5</ele>
        <time>2020-03-08T09:28:56Z</time>
      </trkpt>
      <trkpt lat="47.62" lon="5.01364">
        <ele>330</ele>
        <time>2020-03-08T09:29:01Z</time>
      </trkpt>
      <trkpt lat="47.61995" lon="5.01352">
        <ele>331.6</ele>
        <time>2020-03-08T09:29:07Z</time>
      </trkpt>
      <trkpt lat="47.61991" lon="5.01342">
        <ele>332.6</ele>
        <time>2020-03-08T09:29:13Z</time>
      </trkpt>
      <trkpt lat="47.61988" lon="5.0133">
        <ele>334.3</ele>
        <time>2020-03-08T09:29:21Z</time>
      </trkpt>
      <trkpt lat="47.61986" lon="5.01323">
        <ele>334.9</ele>
        <time>2020-03-08T09:29:27Z</time>
      </trkpt>
      <trkpt lat="47.61982" lon="5.01311">
        <ele>335.2</ele>
        <time>2020-03-08T09:29:35Z</time>
      </trkpt>
      <trkpt lat="47.61979" lon="5.01301">
        <ele>335.7</ele>
        <time>2020-03-08T09:29:41Z</time>
      </trkpt>
      <trkpt lat="47.61976" lon="5.0129">
        <ele>335.7</ele>
        <time>2020-03-08T09:29:47Z</time>
      </trkpt>
      <trkpt lat="47.61973" lon="5.01277">
        <ele>337.1</ele>
        <time>2020-03-08T09:29:55Z</time>
      </trkpt>
      <trkpt lat="47.6197" lon="5.01266">
        <ele>338</ele>
        <time>2020-03-08T09:30:01Z</time>
      </trkpt>
      <trkpt lat="47.61968" lon="5.01255">
        <ele>338.6</ele>
        <time>2020-03-08T09:30:07Z</time>
      </trkpt>
      <trkpt lat="47.61967" lon="5.01243">
        <ele>339.6</ele>
        <time>2020-03-08T09:30:13Z</time>
      </trkpt>
      <trkpt lat="47.61966" lon="5.0123">
        <ele>340.7</ele>
        <time>2020-03-08T09:30:19Z</time>
      </trkpt>
      <trkpt lat="47.61966" lon="5.01219">
        <ele>341.3</ele>
        <time>2020-03-08T09:30:25Z</time>
      </trkpt>
      <trkpt lat="47.61966" lon="5.01207">
        <ele>340.1</ele>
        <time>2020-03-08T09:30:33Z</time>
      </trkpt>
      <trkpt lat="47.61967" lon="5.01194">
        <ele>338.6</ele>
        <time>2020-03-08T09:30:40Z</time>
      </trkpt>
      <trkpt lat="47.61969" lon="5.01182">
        <ele>337.1</ele>
        <time>2020-03-08T09:30:47Z</time>
      </trkpt>
      <trkpt lat="47.61971" lon="5.0117">
        <ele>336.1</ele>
        <time>2020-03-08T09:30:53Z</time>
      </trkpt>
      <trkpt lat="47.61971" lon="5.01159">
        <ele>335</ele>
        <time>2020-03-08T09:30:59Z</time>
      </trkpt>
      <trkpt lat="47.61973" lon="5.01148">
        <ele>334</ele>
        <time>2020-03-08T09:31:05Z</time>
      </trkpt>
      <trkpt lat="47.61973" lon="5.01135">
        <ele>332.8</ele>
        <time>2020-03-08T09:31:13Z</time>
      </trkpt>
      <trkpt lat="47.61974" lon="5.01124">
        <ele>332</ele>
        <time>2020-03-08T09:31:19Z</time>
      </trkpt>
      <trkpt lat="47.61973" lon="5.01112">
        <ele>331.1</ele>
        <time>2020-03-08T09:31:25Z</time>
      </trkpt>
      <trkpt lat="47.61972" lon="5.01101">
        <ele>329.6</ele>
        <time>2020-03-08T09:31:31Z</time>
      </trkpt>
      <trkpt lat="47.6197" lon="5.0109">
        <ele>329</ele>
        <time>2020-03-08T09:31:37Z</time>
      </trkpt>
      <trkpt lat="47.61968" lon="5.01078">
        <ele>328.3</ele>
        <time>2020-03-08T09:31:44Z</time>
      </trkpt>
      <trkpt lat="47.61965" lon="5.01067">
        <ele>327.4</ele>
        <time>2020-03-08T09:31:51Z</time>
      </trkpt>
      <trkpt lat="47.61961" lon="5.01058">
        <ele>327</ele>
        <time>2020-03-08T09:31:57Z</time>
      </trkpt>
      <trkpt lat="47.61957" lon="5.01049">
        <ele>327</ele>
        <time>2020-03-08T09:32:03Z</time>
      </trkpt>
      <trkpt lat="47.61953" lon="5.01039">
        <ele>327.1</ele>
        <time>2020-03-08T09:32:09Z</time>
      </trkpt>
      <trkpt lat="47.61949" lon="5.01027">
        <ele>326</ele>
        <time>2020-03-08T09:32:16Z</time>
      </trkpt>
      <trkpt lat="47.61944" lon="5.01016">
        <ele>325.5</ele>
        <time>2020-03-08T09:32:23Z</time>
      </trkpt>
      <trkpt lat="47.6194" lon="5.01008">
        <ele>324.7</ele>
        <time>2020-03-08T09:32:29Z</time>
      </trkpt>
      <trkpt lat="47.61937" lon="5.00999">
        <ele>324.5</ele>
        <time>2020-03-08T09:32:35Z</time>
      </trkpt>
      <trkpt lat="47.61933" lon="5.0099">
        <ele>324.4</ele>
        <time>2020-03-08T09:32:41Z</time>
      </trkpt>
      <trkpt lat="47.61929" lon="5.00981">
        <ele>324.2</ele>
        <time>2020-03-08T09:32:47Z</time>
      </trkpt>
      <trkpt lat="47.61924" lon="5.0097">
        <ele>323.9</ele>
        <time>2020-03-08T09:32:53Z</time>
      </trkpt>
      <trkpt lat="47.61918" lon="5.00961">
        <ele>324</ele>
        <time>2020-03-08T09:32:59Z</time>
      </trkpt>
      <trkpt lat="47.61914" lon="5.0095">
        <ele>324.5</ele>
        <time>2020-03-08T09:33:07Z</time>
      </trkpt>
      <trkpt lat="47.61911" lon="5.00941">
        <ele>324.9</ele>
        <time>2020-03-08T09:33:13Z</time>
      </trkpt>
      <trkpt lat="47.61907" lon="5.00931">
        <ele>325.1</ele>
        <time>2020-03-08T09:33:19Z</time>
      </trkpt>
      <trkpt lat="47.61904" lon="5.00921">
        <ele>325.4</ele>
        <time>2020-03-08T09:33:25Z</time>
      </trkpt>
      <trkpt lat="47.61899" lon="5.00912">
        <ele>325.2</ele>
        <time>2020-03-08T09:33:31Z</time>
      </trkpt>
      <trkpt lat="47.61895" lon="5.009">
        <ele>325.5</ele>
        <time>2020-03-08T09:33:37Z</time>
      </trkpt>
      <trkpt lat="47.61892" lon="5.00891">
        <ele>325.7</ele>
        <time>2020-03-08T09:33:43Z</time>
      </trkpt>
      <trkpt lat="47.61887" lon="5.00882">
        <ele>325.4</ele>
        <time>2020-03-08T09:33:49Z</time>
      </trkpt>
      <trkpt lat="47.61884" lon="5.00874">
        <ele>325.5</ele>
        <time>2020-03-08T09:33:54Z</time>
      </trkpt>
      <trkpt lat="47.6188" lon="5.00866">
        <ele>325</ele>
        <time>2020-03-08T09:34:00Z</time>
      </trkpt>
      <trkpt lat="47.61876" lon="5.00855">
        <ele>324.2</ele>
        <time>2020-03-08T09:34:05Z</time>
      </trkpt>
      <trkpt lat="47.61871" lon="5.00844">
        <ele>324.5</ele>
        <time>2020-03-08T09:34:12Z</time>
      </trkpt>
      <trkpt lat="47.61867" lon="5.00834">
        <ele>324.4</ele>
        <time>2020-03-08T09:34:20Z</time>
      </trkpt>
      <trkpt lat="47.61863" lon="5.00825">
        <ele>323.7</ele>
        <time>2020-03-08T09:34:32Z</time>
      </trkpt>
      <trkpt lat="47.61856" lon="5.00806">
        <ele>322.8</ele>
        <time>2020-03-08T09:34:36Z</time>
      </trkpt>
      <trkpt lat="47.61852" lon="5.00796">
        <ele>322.5</ele>
        <time>2020-03-08T09:34:41Z</time>
      </trkpt>
      <trkpt lat="47.61851" lon="5.00793">
        <ele>322.2</ele>
        <time>2020-03-08T09:34:43Z</time>
      </trkpt>
      <trkpt lat="47.6184" lon="5.00769">
        <ele>321.4</ele>
        <time>2020-03-08T09:34:59Z</time>
      </trkpt>
      <trkpt lat="47.61837" lon="5.00761">
        <ele>320.2</ele>
        <time>2020-03-08T09:35:04Z</time>
      </trkpt>
      <trkpt lat="47.61835" lon="5.00755">
        <ele>319.7</ele>
        <time>2020-03-08T09:35:06Z</time>
      </trkpt>
      <trkpt lat="47.61823" lon="5.00733">
        <ele>319.3</ele>
        <time>2020-03-08T09:35:49Z</time>
      </trkpt>
      <trkpt lat="47.6179" lon="5.00679">
        <ele>315.2</ele>
        <time>2020-03-08T09:36:00Z</time>
      </trkpt>
      <trkpt lat="47.61784" lon="5.00671">
        <ele>315.6</ele>
        <time>2020-03-08T09:36:08Z</time>
      </trkpt>
      <trkpt lat="47.6178" lon="5.00667">
        <ele>315.2</ele>
        <time>2020-03-08T09:36:13Z</time>
      </trkpt>
      <trkpt lat="47.61775" lon="5.0066">
        <ele>315.5</ele>
        <time>2020-03-08T09:36:18Z</time>
      </trkpt>
      <trkpt lat="47.6177" lon="5.00649">
        <ele>317.6</ele>
        <time>2020-03-08T09:36:26Z</time>
      </trkpt>
      <trkpt lat="47.61765" lon="5.00638">
        <ele>319.5</ele>
        <time>2020-03-08T09:36:38Z</time>
      </trkpt>
      <trkpt lat="47.61761" lon="5.00627">
        <ele>320.8</ele>
        <time>2020-03-08T09:36:42Z</time>
      </trkpt>
      <trkpt lat="47.61757" lon="5.00615">
        <ele>321.6</ele>
        <time>2020-03-08T09:36:51Z</time>
      </trkpt>
      <trkpt lat="47.61755" lon="5.00608">
        <ele>322.4</ele>
        <time>2020-03-08T09:36:53Z</time>
      </trkpt>
      <trkpt lat="47.61745" lon="5.00573">
        <ele>326.2</ele>
        <time>2020-03-08T09:37:24Z</time>
      </trkpt>
      <trkpt lat="47.61738" lon="5.00553">
        <ele>327.4</ele>
        <time>2020-03-08T09:37:27Z</time>
      </trkpt>
      <trkpt lat="47.61736" lon="5.00549">
        <ele>327.6</ele>
        <time>2020-03-08T09:37:55Z</time>
      </trkpt>
      <trkpt lat="47.6172" lon="5.00501">
        <ele>332.2</ele>
        <time>2020-03-08T09:37:59Z</time>
      </trkpt>
      <trkpt lat="47.61718" lon="5.00496">
        <ele>332.9</ele>
        <time>2020-03-08T09:38:09Z</time>
      </trkpt>
      <trkpt lat="47.61693" lon="5.00394">
        <ele>337.9</ele>
        <time>2020-03-08T09:39:00Z</time>
      </trkpt>
      <trkpt lat="47.61691" lon="5.00386">
        <ele>337.1</ele>
        <time>2020-03-08T09:39:06Z</time>
      </trkpt>
      <trkpt lat="47.61688" lon="5.00375">
        <ele>336.8</ele>
        <time>2020-03-08T09:39:10Z</time>
      </trkpt>
      <trkpt lat="47.61685" lon="5.00366">
        <ele>336.2</ele>
        <time>2020-03-08T09:39:16Z</time>
      </trkpt>
      <trkpt lat="47.61681" lon="5.00353">
        <ele>335.1</ele>
        <time>2020-03-08T09:39:22Z</time>
      </trkpt>
      <trkpt lat="47.61678" lon="5.00343">
        <ele>334.1</ele>
        <time>2020-03-08T09:39:27Z</time>
      </trkpt>
      <trkpt lat="47.61675" lon="5.00333">
        <ele>333.1</ele>
        <time>2020-03-08T09:39:34Z</time>
      </trkpt>
      <trkpt lat="47.61662" lon="5.0029">
        <ele>330.9</ele>
        <time>2020-03-08T09:39:55Z</time>
      </trkpt>
      <trkpt lat="47.61659" lon="5.00279">
        <ele>330.6</ele>
        <time>2020-03-08T09:39:59Z</time>
      </trkpt>
      <trkpt lat="47.61656" lon="5.0027">
        <ele>330.2</ele>
        <time>2020-03-08T09:40:04Z</time>
      </trkpt>
      <trkpt lat="47.61652" lon="5.00261">
        <ele>329.2</ele>
        <time>2020-03-08T09:40:12Z</time>
      </trkpt>
      <trkpt lat="47.61649" lon="5.00252">
        <ele>329.6</ele>
        <time>2020-03-08T09:40:17Z</time>
      </trkpt>
      <trkpt lat="47.61646" lon="5.00241">
        <ele>330.4</ele>
        <time>2020-03-08T09:40:24Z</time>
      </trkpt>
      <trkpt lat="47.61642" lon="5.00229">
        <ele>330.8</ele>
        <time>2020-03-08T09:40:30Z</time>
      </trkpt>
      <trkpt lat="47.61639" lon="5.0022">
        <ele>331.1</ele>
        <time>2020-03-08T09:40:35Z</time>
      </trkpt>
      <trkpt lat="47.61633" lon="5.00206">
        <ele>331.1</ele>
        <time>2020-03-08T09:40:40Z</time>
      </trkpt>
      <trkpt lat="47.6163" lon="5.00197">
        <ele>331.2</ele>
        <time>2020-03-08T09:40:45Z</time>
      </trkpt>
      <trkpt lat="47.61625" lon="5.00175">
        <ele>330.4</ele>
        <time>2020-03-08T09:40:50Z</time>
      </trkpt>
      <trkpt lat="47.61623" lon="5.00165">
        <ele>330.6</ele>
        <time>2020-03-08T09:41:16Z</time>
      </trkpt>
      <trkpt lat="47.61612" lon="5.00109">
        <ele>328.9</ele>
        <time>2020-03-08T09:41:48Z</time>
      </trkpt>
      <trkpt lat="47.61611" lon="5.00099">
        <ele>329.4</ele>
        <time>2020-03-08T09:41:56Z</time>
      </trkpt>
      <trkpt lat="47.6161" lon="5.0009">
        <ele>329.6</ele>
        <time>2020-03-08T09:42:00Z</time>
      </trkpt>
      <trkpt lat="47.61609" lon="5.00082">
        <ele>329.4</ele>
        <time>2020-03-08T09:42:03Z</time>
      </trkpt>
      <trkpt lat="47.61609" lon="5.0007">
        <ele>329.5</ele>
        <time>2020-03-08T09:42:14Z</time>
      </trkpt>
      <trkpt lat="47.61609" lon="5.00064">
        <ele>329.6</ele>
        <time>2020-03-08T09:42:19Z</time>
      </trkpt>
      <trkpt lat="47.61612" lon="5.0002">
        <ele>326.7</ele>
        <time>2020-03-08T09:43:00Z</time>
      </trkpt>
      <trkpt lat="47.61616" lon="4.99975">
        <ele>328.3</ele>
        <time>2020-03-08T09:43:04Z</time>
      </trkpt>
      <trkpt lat="47.61617" lon="4.99963">
        <ele>328.9</ele>
        <time>2020-03-08T09:43:11Z</time>
      </trkpt>
      <trkpt lat="47.61617" lon="4.99953">
        <ele>329.6</ele>
        <time>2020-03-08T09:43:17Z</time>
      </trkpt>
      <trkpt lat="47.61617" lon="4.99949">
        <ele>329.7</ele>
        <time>2020-03-08T09:43:20Z</time>
      </trkpt>
      <trkpt lat="47.61618" lon="4.99868">
        <ele>328.8</ele>
        <time>2020-03-08T09:44:00Z</time>
      </trkpt>
      <trkpt lat="47.61616" lon="4.99858">
        <ele>330.1</ele>
        <time>2020-03-08T09:44:07Z</time>
      </trkpt>
      <trkpt lat="47.61614" lon="4.99849">
        <ele>331.2</ele>
        <time>2020-03-08T09:44:14Z</time>
      </trkpt>
      <trkpt lat="47.61613" lon="4.99842">
        <ele>331.8</ele>
        <time>2020-03-08T09:44:16Z</time>
      </trkpt>
      <trkpt lat="47.61601" lon="4.99801">
        <ele>337.7</ele>
        <time>2020-03-08T09:44:44Z</time>
      </trkpt>
      <trkpt lat="47.61598" lon="4.9979">
        <ele>340.1</ele>
        <time>2020-03-08T09:44:50Z</time>
      </trkpt>
      <trkpt lat="47.61595" lon="4.99781">
        <ele>340.9</ele>
        <time>2020-03-08T09:44:57Z</time>
      </trkpt>
      <trkpt lat="47.61592" lon="4.99768">
        <ele>341.3</ele>
        <time>2020-03-08T09:45:02Z</time>
      </trkpt>
      <trkpt lat="47.61591" lon="4.99762">
        <ele>341</ele>
        <time>2020-03-08T09:45:53Z</time>
      </trkpt>
      <trkpt lat="47.61579" lon="4.99665">
        <ele>338.8</ele>
        <time>2020-03-08T09:46:23Z</time>
      </trkpt>
      <trkpt lat="47.61565" lon="4.99566">
        <ele>346.6</ele>
        <time>2020-03-08T09:47:00Z</time>
      </trkpt>
      <trkpt lat="47.61563" lon="4.99557">
        <ele>348.2</ele>
        <time>2020-03-08T09:47:06Z</time>
      </trkpt>
      <trkpt lat="47.61527" lon="4.99225">
        <ele>366.6</ele>
        <time>2020-03-08T09:50:45Z</time>
      </trkpt>
      <trkpt lat="47.61524" lon="4.99198">
        <ele>367.2</ele>
        <time>2020-03-08T09:51:00Z</time>
      </trkpt>
      <trkpt lat="47.61523" lon="4.99192">
        <ele>367.2</ele>
        <time>2020-03-08T09:51:47Z</time>
      </trkpt>
      <trkpt lat="47.61507" lon="4.99123">
        <ele>372.2</ele>
        <time>2020-03-08T09:52:00Z</time>
      </trkpt>
      <trkpt lat="47.61506" lon="4.99113">
        <ele>374.4</ele>
        <time>2020-03-08T09:52:07Z</time>
      </trkpt>
      <trkpt lat="47.61503" lon="4.99101">
        <ele>378.3</ele>
        <time>2020-03-08T09:52:20Z</time>
      </trkpt>
      <trkpt lat="47.615" lon="4.99091">
        <ele>379.8</ele>
        <time>2020-03-08T09:52:24Z</time>
      </trkpt>
      <trkpt lat="47.61499" lon="4.99086">
        <ele>380.9</ele>
        <time>2020-03-08T09:52:26Z</time>
      </trkpt>
      <trkpt lat="47.61479" lon="4.99036">
        <ele>392.5</ele>
        <time>2020-03-08T09:53:00Z</time>
      </trkpt>
      <trkpt lat="47.61476" lon="4.99024">
        <ele>392.1</ele>
        <time>2020-03-08T09:53:06Z</time>
      </trkpt>
      <trkpt lat="47.61476" lon="4.99022">
        <ele>391.9</ele>
        <time>2020-03-08T09:53:07Z</time>
      </trkpt>
      <trkpt lat="47.61474" lon="4.99002">
        <ele>390.8</ele>
        <time>2020-03-08T09:53:52Z</time>
      </trkpt>
      <trkpt lat="47.61458" lon="4.98935">
        <ele>392.8</ele>
        <time>2020-03-08T09:53:57Z</time>
      </trkpt>
      <trkpt lat="47.61456" lon="4.98923">
        <ele>391.9</ele>
        <time>2020-03-08T09:54:03Z</time>
      </trkpt>
      <trkpt lat="47.61453" lon="4.98912">
        <ele>392.7</ele>
        <time>2020-03-08T09:54:12Z</time>
      </trkpt>
      <trkpt lat="47.61449" lon="4.989">
        <ele>392.2</ele>
        <time>2020-03-08T09:54:22Z</time>
      </trkpt>
      <trkpt lat="47.6145" lon="4.98899">
        <ele>392.1</ele>
        <time>2020-03-08T09:57:46Z</time>
      </trkpt>
      <trkpt lat="47.61444" lon="4.98887">
        <ele>378.9</ele>
        <time>2020-03-08T09:58:01Z</time>
      </trkpt>
      <trkpt lat="47.61442" lon="4.98879">
        <ele>378.9</ele>
        <time>2020-03-08T09:58:07Z</time>
      </trkpt>
      <trkpt lat="47.61437" lon="4.98867">
        <ele>379.3</ele>
        <time>2020-03-08T09:58:21Z</time>
      </trkpt>
      <trkpt lat="47.61414" lon="4.98807">
        <ele>389.9</ele>
        <time>2020-03-08T09:59:05Z</time>
      </trkpt>
      <trkpt lat="47.6141" lon="4.98793">
        <ele>393.3</ele>
        <time>2020-03-08T09:59:08Z</time>
      </trkpt>
      <trkpt lat="47.61407" lon="4.98785">
        <ele>394.1</ele>
        <time>2020-03-08T09:59:14Z</time>
      </trkpt>
      <trkpt lat="47.61404" lon="4.98777">
        <ele>394.8</ele>
        <time>2020-03-08T09:59:20Z</time>
      </trkpt>
      <trkpt lat="47.61399" lon="4.98768">
        <ele>395.5</ele>
        <time>2020-03-08T09:59:24Z</time>
      </trkpt>
      <trkpt lat="47.61394" lon="4.98757">
        <ele>396.2</ele>
        <time>2020-03-08T09:59:32Z</time>
      </trkpt>
      <trkpt lat="47.61391" lon="4.98749">
        <ele>396.6</ele>
        <time>2020-03-08T09:59:36Z</time>
      </trkpt>
      <trkpt lat="47.61386" lon="4.98737">
        <ele>396.7</ele>
        <time>2020-03-08T09:59:42Z</time>
      </trkpt>
      <trkpt lat="47.61385" lon="4.98733">
        <ele>396.7</ele>
        <time>2020-03-08T09:59:45Z</time>
      </trkpt>
      <trkpt lat="47.61381" lon="4.98722">
        <ele>396.9</ele>
        <time>2020-03-08T09:59:51Z</time>
      </trkpt>
      <trkpt lat="47.61378" lon="4.9871">
        <ele>397.5</ele>
        <time>2020-03-08T09:59:59Z</time>
      </trkpt>
      <trkpt lat="47.61376" lon="4.987">
        <ele>398.2</ele>
        <time>2020-03-08T10:00:05Z</time>
      </trkpt>
      <trkpt lat="47.61372" lon="4.98688">
        <ele>398.6</ele>
        <time>2020-03-08T10:00:12Z</time>
      </trkpt>
      <trkpt lat="47.61369" lon="4.98681">
        <ele>398.2</ele>
        <time>2020-03-08T10:00:18Z</time>
      </trkpt>
      <trkpt lat="47.61365" lon="4.98671">
        <ele>397.6</ele>
        <time>2020-03-08T10:00:23Z</time>
      </trkpt>
      <trkpt lat="47.61361" lon="4.9866">
        <ele>396.9</ele>
        <time>2020-03-08T10:00:30Z</time>
      </trkpt>
      <trkpt lat="47.61359" lon="4.9865">
        <ele>396.4</ele>
        <time>2020-03-08T10:00:37Z</time>
      </trkpt>
      <trkpt lat="47.61356" lon="4.98639">
        <ele>396.5</ele>
        <time>2020-03-08T10:00:44Z</time>
      </trkpt>
      <trkpt lat="47.61355" lon="4.98628">
        <ele>396.8</ele>
        <time>2020-03-08T10:00:48Z</time>
      </trkpt>
      <trkpt lat="47.61352" lon="4.98616">
        <ele>396.5</ele>
        <time>2020-03-08T10:00:55Z</time>
      </trkpt>
      <trkpt lat="47.61351" lon="4.98606">
        <ele>396.5</ele>
        <time>2020-03-08T10:01:03Z</time>
      </trkpt>
      <trkpt lat="47.61351" lon="4.986">
        <ele>396.3</ele>
        <time>2020-03-08T10:01:08Z</time>
      </trkpt>
      <trkpt lat="47.61351" lon="4.98591">
        <ele>396.3</ele>
        <time>2020-03-08T10:01:15Z</time>
      </trkpt>
      <trkpt lat="47.61353" lon="4.98581">
        <ele>396</ele>
        <time>2020-03-08T10:01:16Z</time>
      </trkpt>
      <trkpt lat="47.61354" lon="4.98577">
        <ele>396</ele>
        <time>2020-03-08T10:01:40Z</time>
      </trkpt>
      <trkpt lat="47.6136" lon="4.98532">
        <ele>394.9</ele>
        <time>2020-03-08T10:01:44Z</time>
      </trkpt>
      <trkpt lat="47.6136" lon="4.9852">
        <ele>395.4</ele>
        <time>2020-03-08T10:01:49Z</time>
      </trkpt>
      <trkpt lat="47.61361" lon="4.98507">
        <ele>396.8</ele>
        <time>2020-03-08T10:01:58Z</time>
      </trkpt>
      <trkpt lat="47.6136" lon="4.98498">
        <ele>397.4</ele>
        <time>2020-03-08T10:02:07Z</time>
      </trkpt>
      <trkpt lat="47.61359" lon="4.98489">
        <ele>397.8</ele>
        <time>2020-03-08T10:02:12Z</time>
      </trkpt>
      <trkpt lat="47.61359" lon="4.98482">
        <ele>398.2</ele>
        <time>2020-03-08T10:02:52Z</time>
      </trkpt>
      <trkpt lat="47.61362" lon="4.98404">
        <ele>399</ele>
        <time>2020-03-08T10:02:56Z</time>
      </trkpt>
      <trkpt lat="47.61361" lon="4.98394">
        <ele>399.6</ele>
        <time>2020-03-08T10:03:02Z</time>
      </trkpt>
      <trkpt lat="47.6136" lon="4.98389">
        <ele>399.9</ele>
        <time>2020-03-08T10:03:09Z</time>
      </trkpt>
      <trkpt lat="47.61361" lon="4.98377">
        <ele>400.4</ele>
        <time>2020-03-08T10:03:12Z</time>
      </trkpt>
      <trkpt lat="47.61362" lon="4.98366">
        <ele>400.9</ele>
        <time>2020-03-08T10:03:18Z</time>
      </trkpt>
      <trkpt lat="47.61362" lon="4.98355">
        <ele>401.4</ele>
        <time>2020-03-08T10:03:25Z</time>
      </trkpt>
      <trkpt lat="47.61362" lon="4.98343">
        <ele>401.8</ele>
        <time>2020-03-08T10:03:30Z</time>
      </trkpt>
      <trkpt lat="47.61363" lon="4.98333">
        <ele>402.2</ele>
        <time>2020-03-08T10:03:35Z</time>
      </trkpt>
      <trkpt lat="47.61363" lon="4.98325">
        <ele>402.3</ele>
        <time>2020-03-08T10:03:38Z</time>
      </trkpt>
      <trkpt lat="47.61366" lon="4.98281">
        <ele>402</ele>
        <time>2020-03-08T10:04:00Z</time>
      </trkpt>
      <trkpt lat="47.61367" lon="4.98269">
        <ele>401.8</ele>
        <time>2020-03-08T10:04:06Z</time>
      </trkpt>
      <trkpt lat="47.61368" lon="4.98257">
        <ele>401</ele>
        <time>2020-03-08T10:04:14Z</time>
      </trkpt>
      <trkpt lat="47.6137" lon="4.98253">
        <ele>400.9</ele>
        <time>2020-03-08T10:04:21Z</time>
      </trkpt>
      <trkpt lat="47.61386" lon="4.9818">
        <ele>400.1</ele>
        <time>2020-03-08T10:05:01Z</time>
      </trkpt>
      <trkpt lat="47.61398" lon="4.98142">
        <ele>401.9</ele>
        <time>2020-03-08T10:05:26Z</time>
      </trkpt>
      <trkpt lat="47.61401" lon="4.98136">
        <ele>402</ele>
        <time>2020-03-08T10:05:33Z</time>
      </trkpt>
      <trkpt lat="47.61404" lon="4.98128">
        <ele>402.2</ele>
        <time>2020-03-08T10:05:38Z</time>
      </trkpt>
      <trkpt lat="47.61418" lon="4.98102">
        <ele>404.8</ele>
        <time>2020-03-08T10:06:00Z</time>
      </trkpt>
      <trkpt lat="47.61422" lon="4.98097">
        <ele>405.6</ele>
        <time>2020-03-08T10:06:06Z</time>
      </trkpt>
      <trkpt lat="47.61429" lon="4.9809">
        <ele>406.7</ele>
        <time>2020-03-08T10:06:13Z</time>
      </trkpt>
      <trkpt lat="47.61434" lon="4.98085">
        <ele>407</ele>
        <time>2020-03-08T10:06:20Z</time>
      </trkpt>
      <trkpt lat="47.61438" lon="4.98079">
        <ele>407.4</ele>
        <time>2020-03-08T10:06:28Z</time>
      </trkpt>
      <trkpt lat="47.61445" lon="4.98069">
        <ele>408.5</ele>
        <time>2020-03-08T10:06:30Z</time>
      </trkpt>
      <trkpt lat="47.61451" lon="4.98061">
        <ele>409.6</ele>
        <time>2020-03-08T10:06:43Z</time>
      </trkpt>
      <trkpt lat="47.61454" lon="4.98054">
        <ele>410.2</ele>
        <time>2020-03-08T10:07:00Z</time>
      </trkpt>
      <trkpt lat="47.61461" lon="4.98031">
        <ele>412.7</ele>
        <time>2020-03-08T10:07:04Z</time>
      </trkpt>
      <trkpt lat="47.61462" lon="4.98025">
        <ele>413.4</ele>
        <time>2020-03-08T10:07:09Z</time>
      </trkpt>
      <trkpt lat="47.61472" lon="4.98005">
        <ele>413.7</ele>
        <time>2020-03-08T10:07:49Z</time>
      </trkpt>
      <trkpt lat="47.61474" lon="4.97998">
        <ele>407.8</ele>
        <time>2020-03-08T10:09:43Z</time>
      </trkpt>
      <trkpt lat="47.61479" lon="4.9795">
        <ele>401.9</ele>
        <time>2020-03-08T10:10:00Z</time>
      </trkpt>
      <trkpt lat="47.61479" lon="4.97944">
        <ele>402.1</ele>
        <time>2020-03-08T10:10:07Z</time>
      </trkpt>
      <trkpt lat="47.61477" lon="4.97936">
        <ele>402</ele>
        <time>2020-03-08T10:10:13Z</time>
      </trkpt>
      <trkpt lat="47.61476" lon="4.97925">
        <ele>402.3</ele>
        <time>2020-03-08T10:10:19Z</time>
      </trkpt>
      <trkpt lat="47.61474" lon="4.97919">
        <ele>403.3</ele>
        <time>2020-03-08T10:10:22Z</time>
      </trkpt>
      <trkpt lat="47.61472" lon="4.97905">
        <ele>404</ele>
        <time>2020-03-08T10:10:31Z</time>
      </trkpt>
      <trkpt lat="47.61466" lon="4.97866">
        <ele>406.5</ele>
        <time>2020-03-08T10:11:00Z</time>
      </trkpt>
      <trkpt lat="47.61464" lon="4.97854">
        <ele>407.6</ele>
        <time>2020-03-08T10:11:10Z</time>
      </trkpt>
      <trkpt lat="47.61455" lon="4.97784">
        <ele>411</ele>
        <time>2020-03-08T10:11:52Z</time>
      </trkpt>
      <trkpt lat="47.61455" lon="4.97781">
        <ele>411.1</ele>
        <time>2020-03-08T10:11:54Z</time>
      </trkpt>
      <trkpt lat="47.61455" lon="4.97768">
        <ele>411.3</ele>
        <time>2020-03-08T10:12:02Z</time>
      </trkpt>
      <trkpt lat="47.61453" lon="4.97756">
        <ele>411.3</ele>
        <time>2020-03-08T10:12:08Z</time>
      </trkpt>
      <trkpt lat="47.61451" lon="4.97748">
        <ele>412.2</ele>
        <time>2020-03-08T10:12:15Z</time>
      </trkpt>
      <trkpt lat="47.61446" lon="4.97723">
        <ele>418.3</ele>
        <time>2020-03-08T10:12:49Z</time>
      </trkpt>
      <trkpt lat="47.6144" lon="4.97706">
        <ele>422.8</ele>
        <time>2020-03-08T10:12:53Z</time>
      </trkpt>
      <trkpt lat="47.61437" lon="4.97697">
        <ele>422</ele>
        <time>2020-03-08T10:13:48Z</time>
      </trkpt>
      <trkpt lat="47.61396" lon="4.97631">
        <ele>425.9</ele>
        <time>2020-03-08T10:14:00Z</time>
      </trkpt>
      <trkpt lat="47.61393" lon="4.97623">
        <ele>427.1</ele>
        <time>2020-03-08T10:14:05Z</time>
      </trkpt>
      <trkpt lat="47.61391" lon="4.97618">
        <ele>427.6</ele>
        <time>2020-03-08T10:14:38Z</time>
      </trkpt>
      <trkpt lat="47.61389" lon="4.97559">
        <ele>432.6</ele>
        <time>2020-03-08T10:14:41Z</time>
      </trkpt>
      <trkpt lat="47.61391" lon="4.97547">
        <ele>432.9</ele>
        <time>2020-03-08T10:14:50Z</time>
      </trkpt>
      <trkpt lat="47.61392" lon="4.97536">
        <ele>434</ele>
        <time>2020-03-08T10:14:56Z</time>
      </trkpt>
      <trkpt lat="47.61393" lon="4.97522">
        <ele>434.8</ele>
        <time>2020-03-08T10:15:00Z</time>
      </trkpt>
      <trkpt lat="47.61394" lon="4.97512">
        <ele>435.5</ele>
        <time>2020-03-08T10:15:07Z</time>
      </trkpt>
      <trkpt lat="47.61399" lon="4.97475">
        <ele>437.9</ele>
        <time>2020-03-08T10:15:38Z</time>
      </trkpt>
      <trkpt lat="47.61406" lon="4.97443">
        <ele>438.9</ele>
        <time>2020-03-08T10:15:43Z</time>
      </trkpt>
      <trkpt lat="47.61406" lon="4.97442">
        <ele>439.1</ele>
        <time>2020-03-08T10:15:46Z</time>
      </trkpt>
      <trkpt lat="47.61412" lon="4.97419">
        <ele>439.8</ele>
        <time>2020-03-08T10:16:00Z</time>
      </trkpt>
      <trkpt lat="47.61417" lon="4.97409">
        <ele>441</ele>
        <time>2020-03-08T10:16:07Z</time>
      </trkpt>
      <trkpt lat="47.61421" lon="4.97403">
        <ele>440.4</ele>
        <time>2020-03-08T10:16:10Z</time>
      </trkpt>
      <trkpt lat="47.6147" lon="4.97335">
        <ele>438.1</ele>
        <time>2020-03-08T10:17:00Z</time>
      </trkpt>
      <trkpt lat="47.61478" lon="4.97328">
        <ele>437.4</ele>
        <time>2020-03-08T10:17:07Z</time>
      </trkpt>
      <trkpt lat="47.61481" lon="4.97326">
        <ele>436.7</ele>
        <time>2020-03-08T10:17:09Z</time>
      </trkpt>
      <trkpt lat="47.6149" lon="4.97321">
        <ele>436</ele>
        <time>2020-03-08T10:17:16Z</time>
      </trkpt>
      <trkpt lat="47.61497" lon="4.97317">
        <ele>435.3</ele>
        <time>2020-03-08T10:17:24Z</time>
      </trkpt>
      <trkpt lat="47.61502" lon="4.97315">
        <ele>435</ele>
        <time>2020-03-08T10:17:30Z</time>
      </trkpt>
      <trkpt lat="47.61508" lon="4.97311">
        <ele>435</ele>
        <time>2020-03-08T10:17:33Z</time>
      </trkpt>
      <trkpt lat="47.61511" lon="4.9731">
        <ele>434.6</ele>
        <time>2020-03-08T10:17:39Z</time>
      </trkpt>
      <trkpt lat="47.61534" lon="4.973">
        <ele>434.9</ele>
        <time>2020-03-08T10:18:00Z</time>
      </trkpt>
      <trkpt lat="47.61537" lon="4.97299">
        <ele>435</ele>
        <time>2020-03-08T10:18:05Z</time>
      </trkpt>
      <trkpt lat="47.61574" lon="4.97293">
        <ele>431.6</ele>
        <time>2020-03-08T10:18:28Z</time>
      </trkpt>
      <trkpt lat="47.61575" lon="4.97292">
        <ele>431.4</ele>
        <time>2020-03-08T10:18:30Z</time>
      </trkpt>
      <trkpt lat="47.61584" lon="4.97294">
        <ele>426.4</ele>
        <time>2020-03-08T10:18:37Z</time>
      </trkpt>
      <trkpt lat="47.61604" lon="4.97295">
        <ele>421.5</ele>
        <time>2020-03-08T10:19:00Z</time>
      </trkpt>
      <trkpt lat="47.61615" lon="4.973">
        <ele>419</ele>
        <time>2020-03-08T10:19:05Z</time>
      </trkpt>
      <trkpt lat="47.61615" lon="4.973">
        <ele>419</ele>
        <time>2020-03-08T10:20:00Z</time>
      </trkpt>
      <trkpt lat="47.61679" lon="4.97316">
        <ele>420.7</ele>
        <time>2020-03-08T10:20:31Z</time>
      </trkpt>
      <trkpt lat="47.61702" lon="4.97298">
        <ele>405.3</ele>
        <time>2020-03-08T10:21:00Z</time>
      </trkpt>
      <trkpt lat="47.61707" lon="4.97289">
        <ele>404.8</ele>
        <time>2020-03-08T10:21:07Z</time>
      </trkpt>
      <trkpt lat="47.6171" lon="4.97277">
        <ele>404.6</ele>
        <time>2020-03-08T10:21:18Z</time>
      </trkpt>
      <trkpt lat="47.61713" lon="4.97267">
        <ele>404.4</ele>
        <time>2020-03-08T10:21:26Z</time>
      </trkpt>
      <trkpt lat="47.61715" lon="4.97263">
        <ele>404.4</ele>
        <time>2020-03-08T10:21:31Z</time>
      </trkpt>
      <trkpt lat="47.61718" lon="4.97253">
        <ele>404.2</ele>
        <time>2020-03-08T10:21:35Z</time>
      </trkpt>
      <trkpt lat="47.61721" lon="4.97244">
        <ele>403.8</ele>
        <time>2020-03-08T10:21:41Z</time>
      </trkpt>
      <trkpt lat="47.61725" lon="4.97235">
        <ele>403.4</ele>
        <time>2020-03-08T10:21:47Z</time>
      </trkpt>
      <trkpt lat="47.61727" lon="4.97223">
        <ele>402.8</ele>
        <time>2020-03-08T10:21:53Z</time>
      </trkpt>
      <trkpt lat="47.61727" lon="4.97211">
        <ele>402.7</ele>
        <time>2020-03-08T10:22:03Z</time>
      </trkpt>
      <trkpt lat="47.61725" lon="4.97198">
        <ele>402.6</ele>
        <time>2020-03-08T10:22:08Z</time>
      </trkpt>
      <trkpt lat="47.61725" lon="4.97185">
        <ele>402</ele>
        <time>2020-03-08T10:22:18Z</time>
      </trkpt>
      <trkpt lat="47.61726" lon="4.97179">
        <ele>402.1</ele>
        <time>2020-03-08T10:22:27Z</time>
      </trkpt>
      <trkpt lat="47.61728" lon="4.97167">
        <ele>401.4</ele>
        <time>2020-03-08T10:22:29Z</time>
      </trkpt>
      <trkpt lat="47.61729" lon="4.97157">
        <ele>401</ele>
        <time>2020-03-08T10:22:58Z</time>
      </trkpt>
      <trkpt lat="47.61727" lon="4.97111">
        <ele>400</ele>
        <time>2020-03-08T10:23:03Z</time>
      </trkpt>
      <trkpt lat="47.61725" lon="4.971">
        <ele>400</ele>
        <time>2020-03-08T10:23:11Z</time>
      </trkpt>
      <trkpt lat="47.61723" lon="4.97088">
        <ele>400.3</ele>
        <time>2020-03-08T10:23:20Z</time>
      </trkpt>
      <trkpt lat="47.61723" lon="4.97085">
        <ele>400.2</ele>
        <time>2020-03-08T10:23:26Z</time>
      </trkpt>
      <trkpt lat="47.61744" lon="4.97031">
        <ele>398.9</ele>
        <time>2020-03-08T10:24:00Z</time>
      </trkpt>
      <trkpt lat="47.61751" lon="4.97023">
        <ele>399.1</ele>
        <time>2020-03-08T10:24:08Z</time>
      </trkpt>
      <trkpt lat="47.61756" lon="4.97015">
        <ele>399</ele>
        <time>2020-03-08T10:24:12Z</time>
      </trkpt>
      <trkpt lat="47.61761" lon="4.97008">
        <ele>399.1</ele>
        <time>2020-03-08T10:24:19Z</time>
      </trkpt>
      <trkpt lat="47.61767" lon="4.97002">
        <ele>399.5</ele>
        <time>2020-03-08T10:24:25Z</time>
      </trkpt>
      <trkpt lat="47.61772" lon="4.96997">
        <ele>399.8</ele>
        <time>2020-03-08T10:24:30Z</time>
      </trkpt>
      <trkpt lat="47.61777" lon="4.96987">
        <ele>400.8</ele>
        <time>2020-03-08T10:24:38Z</time>
      </trkpt>
      <trkpt lat="47.61783" lon="4.9698">
        <ele>401.7</ele>
        <time>2020-03-08T10:24:46Z</time>
      </trkpt>
      <trkpt lat="47.61784" lon="4.96978">
        <ele>402</ele>
        <time>2020-03-08T10:24:52Z</time>
      </trkpt>
      <trkpt lat="47.61791" lon="4.96964">
        <ele>403.5</ele>
        <time>2020-03-08T10:25:13Z</time>
      </trkpt>
      <trkpt lat="47.61793" lon="4.9696">
        <ele>404</ele>
        <time>2020-03-08T10:25:31Z</time>
      </trkpt>
      <trkpt lat="47.61802" lon="4.96954">
        <ele>402.2</ele>
        <time>2020-03-08T10:25:38Z</time>
      </trkpt>
      <trkpt lat="47.61806" lon="4.96944">
        <ele>400.2</ele>
        <time>2020-03-08T10:26:55Z</time>
      </trkpt>
      <trkpt lat="47.61807" lon="4.96943">
        <ele>400.3</ele>
        <time>2020-03-08T10:26:59Z</time>
      </trkpt>
      <trkpt lat="47.61816" lon="4.96918">
        <ele>399.8</ele>
        <time>2020-03-08T10:27:19Z</time>
      </trkpt>
      <trkpt lat="47.61849" lon="4.96865">
        <ele>399.1</ele>
        <time>2020-03-08T10:28:00Z</time>
      </trkpt>
      <trkpt lat="47.61854" lon="4.96862">
        <ele>399.7</ele>
        <time>2020-03-08T10:28:05Z</time>
      </trkpt>
      <trkpt lat="47.61861" lon="4.96856">
        <ele>399.4</ele>
        <time>2020-03-08T10:28:12Z</time>
      </trkpt>
      <trkpt lat="47.61867" lon="4.96852">
        <ele>398.8</ele>
        <time>2020-03-08T10:28:17Z</time>
      </trkpt>
      <trkpt lat="47.61874" lon="4.96846">
        <ele>397.7</ele>
        <time>2020-03-08T10:28:25Z</time>
      </trkpt>
      <trkpt lat="47.61883" lon="4.96842">
        <ele>395.9</ele>
        <time>2020-03-08T10:28:30Z</time>
      </trkpt>
      <trkpt lat="47.6189" lon="4.96838">
        <ele>394.9</ele>
        <time>2020-03-08T10:28:37Z</time>
      </trkpt>
      <trkpt lat="47.61897" lon="4.96833">
        <ele>394.4</ele>
        <time>2020-03-08T10:28:44Z</time>
      </trkpt>
      <trkpt lat="47.61901" lon="4.96831">
        <ele>394.1</ele>
        <time>2020-03-08T10:28:49Z</time>
      </trkpt>
      <trkpt lat="47.61907" lon="4.96826">
        <ele>393.4</ele>
        <time>2020-03-08T10:28:54Z</time>
      </trkpt>
      <trkpt lat="47.61914" lon="4.96819">
        <ele>392.6</ele>
        <time>2020-03-08T10:29:02Z</time>
      </trkpt>
      <trkpt lat="47.61917" lon="4.96817">
        <ele>392</ele>
        <time>2020-03-08T10:29:08Z</time>
      </trkpt>
      <trkpt lat="47.61923" lon="4.96811">
        <ele>390.6</ele>
        <time>2020-03-08T10:29:10Z</time>
      </trkpt>
      <trkpt lat="47.61925" lon="4.9681">
        <ele>390.5</ele>
        <time>2020-03-08T10:29:37Z</time>
      </trkpt>
      <trkpt lat="47.6194" lon="4.96777">
        <ele>389.1</ele>
        <time>2020-03-08T10:29:42Z</time>
      </trkpt>
      <trkpt lat="47.61939" lon="4.96755">
        <ele>385.1</ele>
        <time>2020-03-08T10:30:01Z</time>
      </trkpt>
      <trkpt lat="47.61911" lon="4.96727">
        <ele>382.4</ele>
        <time>2020-03-08T10:30:39Z</time>
      </trkpt>
      <trkpt lat="47.61903" lon="4.96726">
        <ele>382.6</ele>
        <time>2020-03-08T10:30:44Z</time>
      </trkpt>
      <trkpt lat="47.61898" lon="4.96727">
        <ele>382.8</ele>
        <time>2020-03-08T10:30:53Z</time>
      </trkpt>
      <trkpt lat="47.61882" lon="4.96723">
        <ele>386.8</ele>
        <time>2020-03-08T10:31:00Z</time>
      </trkpt>
      <trkpt lat="47.61877" lon="4.96722">
        <ele>387.8</ele>
        <time>2020-03-08T10:31:06Z</time>
      </trkpt>
      <trkpt lat="47.61868" lon="4.96719">
        <ele>388.8</ele>
        <time>2020-03-08T10:31:14Z</time>
      </trkpt>
      <trkpt lat="47.61861" lon="4.96717">
        <ele>388.9</ele>
        <time>2020-03-08T10:32:00Z</time>
      </trkpt>
      <trkpt lat="47.61832" lon="4.96712">
        <ele>384.6</ele>
        <time>2020-03-08T10:32:03Z</time>
      </trkpt>
      <trkpt lat="47.61825" lon="4.96715">
        <ele>386.8</ele>
        <time>2020-03-08T10:32:11Z</time>
      </trkpt>
      <trkpt lat="47.61817" lon="4.96719">
        <ele>388.1</ele>
        <time>2020-03-08T10:32:20Z</time>
      </trkpt>
      <trkpt lat="47.61813" lon="4.96723">
        <ele>389.3</ele>
        <time>2020-03-08T10:33:00Z</time>
      </trkpt>
      <trkpt lat="47.61789" lon="4.96753">
        <ele>394.6</ele>
        <time>2020-03-08T10:33:02Z</time>
      </trkpt>
      <trkpt lat="47.61786" lon="4.9676">
        <ele>395.1</ele>
        <time>2020-03-08T10:33:09Z</time>
      </trkpt>
      <trkpt lat="47.61779" lon="4.96766">
        <ele>396.2</ele>
        <time>2020-03-08T10:33:16Z</time>
      </trkpt>
      <trkpt lat="47.61735" lon="4.96806">
        <ele>401.4</ele>
        <time>2020-03-08T10:34:00Z</time>
      </trkpt>
      <trkpt lat="47.61729" lon="4.9681">
        <ele>401.8</ele>
        <time>2020-03-08T10:34:06Z</time>
      </trkpt>
      <trkpt lat="47.61722" lon="4.96813">
        <ele>401.7</ele>
        <time>2020-03-08T10:34:13Z</time>
      </trkpt>
      <trkpt lat="47.61718" lon="4.96816">
        <ele>401.3</ele>
        <time>2020-03-08T10:34:14Z</time>
      </trkpt>
      <trkpt lat="47.61682" lon="4.96832">
        <ele>400.2</ele>
        <time>2020-03-08T10:35:00Z</time>
      </trkpt>
      <trkpt lat="47.61604" lon="4.96831">
        <ele>400.1</ele>
        <time>2020-03-08T10:36:00Z</time>
      </trkpt>
      <trkpt lat="47.61531" lon="4.96794">
        <ele>403.9</ele>
        <time>2020-03-08T10:37:00Z</time>
      </trkpt>
      <trkpt lat="47.61523" lon="4.96792">
        <ele>403.5</ele>
        <time>2020-03-08T10:37:05Z</time>
      </trkpt>
      <trkpt lat="47.61514" lon="4.96789">
        <ele>402.3</ele>
        <time>2020-03-08T10:37:11Z</time>
      </trkpt>
      <trkpt lat="47.61505" lon="4.96786">
        <ele>401.6</ele>
        <time>2020-03-08T10:37:15Z</time>
      </trkpt>
      <trkpt lat="47.61497" lon="4.96786">
        <ele>400.8</ele>
        <time>2020-03-08T10:37:23Z</time>
      </trkpt>
      <trkpt lat="47.61489" lon="4.96785">
        <ele>400.5</ele>
        <time>2020-03-08T10:37:30Z</time>
      </trkpt>
      <trkpt lat="47.61481" lon="4.96784">
        <ele>400.7</ele>
        <time>2020-03-08T10:37:38Z</time>
      </trkpt>
      <trkpt lat="47.61474" lon="4.96783">
        <ele>400.7</ele>
        <time>2020-03-08T10:37:44Z</time>
      </trkpt>
      <trkpt lat="47.61469" lon="4.96782">
        <ele>400.6</ele>
        <time>2020-03-08T10:37:52Z</time>
      </trkpt>
      <trkpt lat="47.61462" lon="4.96781">
        <ele>400.8</ele>
        <time>2020-03-08T10:37:57Z</time>
      </trkpt>
      <trkpt lat="47.61453" lon="4.96779">
        <ele>400.9</ele>
        <time>2020-03-08T10:38:07Z</time>
      </trkpt>
      <trkpt lat="47.61443" lon="4.96775">
        <ele>402.9</ele>
        <time>2020-03-08T10:38:17Z</time>
      </trkpt>
      <trkpt lat="47.61437" lon="4.96772">
        <ele>403.3</ele>
        <time>2020-03-08T10:39:09Z</time>
      </trkpt>
      <trkpt lat="47.61383" lon="4.96755">
        <ele>413.2</ele>
        <time>2020-03-08T10:39:17Z</time>
      </trkpt>
      <trkpt lat="47.61374" lon="4.96749">
        <ele>415.7</ele>
        <time>2020-03-08T10:39:22Z</time>
      </trkpt>
      <trkpt lat="47.61369" lon="4.96746">
        <ele>417</ele>
        <time>2020-03-08T10:39:29Z</time>
      </trkpt>
      <trkpt lat="47.61363" lon="4.96742">
        <ele>418.3</ele>
        <time>2020-03-08T10:39:34Z</time>
      </trkpt>
      <trkpt lat="47.61355" lon="4.96735">
        <ele>419.3</ele>
        <time>2020-03-08T10:39:42Z</time>
      </trkpt>
      <trkpt lat="47.61348" lon="4.96731">
        <ele>420.2</ele>
        <time>2020-03-08T10:39:48Z</time>
      </trkpt>
      <trkpt lat="47.6134" lon="4.96726">
        <ele>421</ele>
        <time>2020-03-08T10:39:56Z</time>
      </trkpt>
      <trkpt lat="47.61334" lon="4.96723">
        <ele>420.7</ele>
        <time>2020-03-08T10:40:00Z</time>
      </trkpt>
      <trkpt lat="47.61327" lon="4.9672">
        <ele>419.8</ele>
        <time>2020-03-08T10:40:07Z</time>
      </trkpt>
      <trkpt lat="47.61317" lon="4.96715">
        <ele>419.8</ele>
        <time>2020-03-08T10:40:10Z</time>
      </trkpt>
      <trkpt lat="47.6131" lon="4.9671">
        <ele>421.5</ele>
        <time>2020-03-08T10:40:20Z</time>
      </trkpt>
      <trkpt lat="47.61305" lon="4.96707">
        <ele>421.9</ele>
        <time>2020-03-08T10:40:25Z</time>
      </trkpt>
      <trkpt lat="47.61297" lon="4.96702">
        <ele>422.2</ele>
        <time>2020-03-08T10:40:30Z</time>
      </trkpt>
      <trkpt lat="47.61287" lon="4.96698">
        <ele>422.5</ele>
        <time>2020-03-08T10:40:38Z</time>
      </trkpt>
      <trkpt lat="47.61265" lon="4.96676">
        <ele>424</ele>
        <time>2020-03-08T10:41:00Z</time>
      </trkpt>
      <trkpt lat="47.61259" lon="4.96669">
        <ele>425</ele>
        <time>2020-03-08T10:41:07Z</time>
      </trkpt>
      <trkpt lat="47.61224" lon="4.96601">
        <ele>429.1</ele>
        <time>2020-03-08T10:42:00Z</time>
      </trkpt>
      <trkpt lat="47.6122" lon="4.96586">
        <ele>429.8</ele>
        <time>2020-03-08T10:42:04Z</time>
      </trkpt>
      <trkpt lat="47.61216" lon="4.96574">
        <ele>431.4</ele>
        <time>2020-03-08T10:42:12Z</time>
      </trkpt>
      <trkpt lat="47.61212" lon="4.96566">
        <ele>432</ele>
        <time>2020-03-08T10:42:19Z</time>
      </trkpt>
      <trkpt lat="47.6121" lon="4.96562">
        <ele>432.3</ele>
        <time>2020-03-08T10:42:21Z</time>
      </trkpt>
      <trkpt lat="47.61195" lon="4.96525">
        <ele>433.5</ele>
        <time>2020-03-08T10:42:46Z</time>
      </trkpt>
      <trkpt lat="47.61191" lon="4.96515">
        <ele>433.6</ele>
        <time>2020-03-08T10:42:52Z</time>
      </trkpt>
      <trkpt lat="47.61169" lon="4.96372">
        <ele>422</ele>
        <time>2020-03-08T10:44:20Z</time>
      </trkpt>
      <trkpt lat="47.61169" lon="4.96372">
        <ele>422</ele>
        <time>2020-03-08T10:45:34Z</time>
      </trkpt>
      <trkpt lat="47.61177" lon="4.9636">
        <ele>413.4</ele>
        <time>2020-03-08T10:45:38Z</time>
      </trkpt>
      <trkpt lat="47.61178" lon="4.96354">
        <ele>413.5</ele>
        <time>2020-03-08T10:47:43Z</time>
      </trkpt>
      <trkpt lat="47.6118" lon="4.9631">
        <ele>410.2</ele>
        <time>2020-03-08T10:48:42Z</time>
      </trkpt>
      <trkpt lat="47.61173" lon="4.96279">
        <ele>415.1</ele>
        <time>2020-03-08T10:48:47Z</time>
      </trkpt>
      <trkpt lat="47.61169" lon="4.9627">
        <ele>416.5</ele>
        <time>2020-03-08T10:48:55Z</time>
      </trkpt>
      <trkpt lat="47.61164" lon="4.9626">
        <ele>417.2</ele>
        <time>2020-03-08T10:49:02Z</time>
      </trkpt>
      <trkpt lat="47.61161" lon="4.9625">
        <ele>417.9</ele>
        <time>2020-03-08T10:49:08Z</time>
      </trkpt>
      <trkpt lat="47.61157" lon="4.96242">
        <ele>418.4</ele>
        <time>2020-03-08T10:49:13Z</time>
      </trkpt>
      <trkpt lat="47.61152" lon="4.96232">
        <ele>419</ele>
        <time>2020-03-08T10:49:20Z</time>
      </trkpt>
      <trkpt lat="47.61149" lon="4.96222">
        <ele>419.4</ele>
        <time>2020-03-08T10:49:26Z</time>
      </trkpt>
      <trkpt lat="47.61144" lon="4.96212">
        <ele>420</ele>
        <time>2020-03-08T10:49:34Z</time>
      </trkpt>
      <trkpt lat="47.6114" lon="4.96201">
        <ele>419</ele>
        <time>2020-03-08T10:49:40Z</time>
      </trkpt>
      <trkpt lat="47.61135" lon="4.9619">
        <ele>419.2</ele>
        <time>2020-03-08T10:49:48Z</time>
      </trkpt>
      <trkpt lat="47.61132" lon="4.9618">
        <ele>420.3</ele>
        <time>2020-03-08T10:49:57Z</time>
      </trkpt>
      <trkpt lat="47.61128" lon="4.96169">
        <ele>422.7</ele>
        <time>2020-03-08T10:50:05Z</time>
      </trkpt>
      <trkpt lat="47.61124" lon="4.9616">
        <ele>423.5</ele>
        <time>2020-03-08T10:50:12Z</time>
      </trkpt>
      <trkpt lat="47.6112" lon="4.96149">
        <ele>423.7</ele>
        <time>2020-03-08T10:50:19Z</time>
      </trkpt>
      <trkpt lat="47.61117" lon="4.96138">
        <ele>423.6</ele>
        <time>2020-03-08T10:50:26Z</time>
      </trkpt>
      <trkpt lat="47.61113" lon="4.96127">
        <ele>423.9</ele>
        <time>2020-03-08T10:50:34Z</time>
      </trkpt>
      <trkpt lat="47.61109" lon="4.96118">
        <ele>423.1</ele>
        <time>2020-03-08T10:50:40Z</time>
      </trkpt>
      <trkpt lat="47.61107" lon="4.96107">
        <ele>422.6</ele>
        <time>2020-03-08T10:50:45Z</time>
      </trkpt>
      <trkpt lat="47.61105" lon="4.96097">
        <ele>422.2</ele>
        <time>2020-03-08T10:50:52Z</time>
      </trkpt>
      <trkpt lat="47.61105" lon="4.9609">
        <ele>422</ele>
        <time>2020-03-08T10:50:57Z</time>
      </trkpt>
      <trkpt lat="47.61103" lon="4.9608">
        <ele>422.2</ele>
        <time>2020-03-08T10:51:01Z</time>
      </trkpt>
      <trkpt lat="47.61103" lon="4.96068">
        <ele>422</ele>
        <time>2020-03-08T10:51:07Z</time>
      </trkpt>
      <trkpt lat="47.61103" lon="4.96063">
        <ele>422</ele>
        <time>2020-03-08T10:51:16Z</time>
      </trkpt>
      <trkpt lat="47.611" lon="4.96045">
        <ele>421.6</ele>
        <time>2020-03-08T10:51:21Z</time>
      </trkpt>
      <trkpt lat="47.61099" lon="4.96041">
        <ele>422</ele>
        <time>2020-03-08T10:51:24Z</time>
      </trkpt>
      <trkpt lat="47.61096" lon="4.9603">
        <ele>422.3</ele>
        <time>2020-03-08T10:51:32Z</time>
      </trkpt>
      <trkpt lat="47.61094" lon="4.96023">
        <ele>422.4</ele>
        <time>2020-03-08T10:51:54Z</time>
      </trkpt>
      <trkpt lat="47.61091" lon="4.95993">
        <ele>424.5</ele>
        <time>2020-03-08T10:51:56Z</time>
      </trkpt>
      <trkpt lat="47.61091" lon="4.95981">
        <ele>423.8</ele>
        <time>2020-03-08T10:52:03Z</time>
      </trkpt>
      <trkpt lat="47.61093" lon="4.95969">
        <ele>423.2</ele>
        <time>2020-03-08T10:52:11Z</time>
      </trkpt>
      <trkpt lat="47.61099" lon="4.9596">
        <ele>422.5</ele>
        <time>2020-03-08T10:52:18Z</time>
      </trkpt>
      <trkpt lat="47.61102" lon="4.95952">
        <ele>421.8</ele>
        <time>2020-03-08T10:52:22Z</time>
      </trkpt>
      <trkpt lat="47.61111" lon="4.95933">
        <ele>417.6</ele>
        <time>2020-03-08T10:52:36Z</time>
      </trkpt>
      <trkpt lat="47.61115" lon="4.95928">
        <ele>415.5</ele>
        <time>2020-03-08T10:52:40Z</time>
      </trkpt>
      <trkpt lat="47.61118" lon="4.95916">
        <ele>412.6</ele>
        <time>2020-03-08T10:52:49Z</time>
      </trkpt>
      <trkpt lat="47.61118" lon="4.95913">
        <ele>411.2</ele>
        <time>2020-03-08T10:53:21Z</time>
      </trkpt>
      <trkpt lat="47.61118" lon="4.95898">
        <ele>404.6</ele>
        <time>2020-03-08T10:53:22Z</time>
      </trkpt>
      <trkpt lat="47.61121" lon="4.95884">
        <ele>401.7</ele>
        <time>2020-03-08T10:53:54Z</time>
      </trkpt>
      <trkpt lat="47.61124" lon="4.95874">
        <ele>400.6</ele>
        <time>2020-03-08T10:54:16Z</time>
      </trkpt>
      <trkpt lat="47.61129" lon="4.95865">
        <ele>400.5</ele>
        <time>2020-03-08T10:54:34Z</time>
      </trkpt>
      <trkpt lat="47.61133" lon="4.95856">
        <ele>400</ele>
        <time>2020-03-08T10:54:40Z</time>
      </trkpt>
      <trkpt lat="47.61137" lon="4.95837">
        <ele>404.8</ele>
        <time>2020-03-08T10:55:00Z</time>
      </trkpt>
      <trkpt lat="47.61135" lon="4.95824">
        <ele>408.8</ele>
        <time>2020-03-08T10:55:12Z</time>
      </trkpt>
      <trkpt lat="47.61132" lon="4.95816">
        <ele>410.2</ele>
        <time>2020-03-08T10:55:23Z</time>
      </trkpt>
      <trkpt lat="47.61126" lon="4.95806">
        <ele>410.1</ele>
        <time>2020-03-08T10:55:35Z</time>
      </trkpt>
      <trkpt lat="47.61122" lon="4.95809">
        <ele>404.7</ele>
        <time>2020-03-08T10:56:08Z</time>
      </trkpt>
      <trkpt lat="47.61114" lon="4.95826">
        <ele>402</ele>
        <time>2020-03-08T10:57:00Z</time>
      </trkpt>
      <trkpt lat="47.61115" lon="4.95813">
        <ele>400.1</ele>
        <time>2020-03-08T10:58:31Z</time>
      </trkpt>
      <trkpt lat="47.6112" lon="4.95803">
        <ele>398.9</ele>
        <time>2020-03-08T10:59:00Z</time>
      </trkpt>
      <trkpt lat="47.61127" lon="4.95802">
        <ele>398.6</ele>
        <time>2020-03-08T10:59:21Z</time>
      </trkpt>
      <trkpt lat="47.61141" lon="4.95788">
        <ele>400.3</ele>
        <time>2020-03-08T10:59:24Z</time>
      </trkpt>
      <trkpt lat="47.61147" lon="4.95787">
        <ele>400.2</ele>
        <time>2020-03-08T10:59:32Z</time>
      </trkpt>
      <trkpt lat="47.61157" lon="4.95775">
        <ele>401.4</ele>
        <time>2020-03-08T10:59:55Z</time>
      </trkpt>
      <trkpt lat="47.61165" lon="4.95772">
        <ele>403.3</ele>
        <time>2020-03-08T11:00:13Z</time>
      </trkpt>
      <trkpt lat="47.61168" lon="4.95771">
        <ele>403.7</ele>
        <time>2020-03-08T11:00:16Z</time>
      </trkpt>
      <trkpt lat="47.61184" lon="4.95766">
        <ele>407.4</ele>
        <time>2020-03-08T11:00:38Z</time>
      </trkpt>
      <trkpt lat="47.61209" lon="4.95761">
        <ele>405</ele>
        <time>2020-03-08T11:01:00Z</time>
      </trkpt>
      <trkpt lat="47.61213" lon="4.95755">
        <ele>406.4</ele>
        <time>2020-03-08T11:01:10Z</time>
      </trkpt>
      <trkpt lat="47.61218" lon="4.95746">
        <ele>409.5</ele>
        <time>2020-03-08T11:01:14Z</time>
      </trkpt>
      <trkpt lat="47.61224" lon="4.95738">
        <ele>411.9</ele>
        <time>2020-03-08T11:01:23Z</time>
      </trkpt>
      <trkpt lat="47.6123" lon="4.9573">
        <ele>414.9</ele>
        <time>2020-03-08T11:01:31Z</time>
      </trkpt>
      <trkpt lat="47.61236" lon="4.95721">
        <ele>416.5</ele>
        <time>2020-03-08T11:01:38Z</time>
      </trkpt>
      <trkpt lat="47.61241" lon="4.95712">
        <ele>415.7</ele>
        <time>2020-03-08T11:01:44Z</time>
      </trkpt>
      <trkpt lat="47.61245" lon="4.95703">
        <ele>415.5</ele>
        <time>2020-03-08T11:01:52Z</time>
      </trkpt>
      <trkpt lat="47.61251" lon="4.95694">
        <ele>416.1</ele>
        <time>2020-03-08T11:01:59Z</time>
      </trkpt>
      <trkpt lat="47.61255" lon="4.95684">
        <ele>415.9</ele>
        <time>2020-03-08T11:02:05Z</time>
      </trkpt>
      <trkpt lat="47.61259" lon="4.95676">
        <ele>415</ele>
        <time>2020-03-08T11:02:10Z</time>
      </trkpt>
      <trkpt lat="47.61263" lon="4.95668">
        <ele>414.8</ele>
        <time>2020-03-08T11:02:15Z</time>
      </trkpt>
      <trkpt lat="47.61266" lon="4.9566">
        <ele>414.7</ele>
        <time>2020-03-08T11:02:20Z</time>
      </trkpt>
      <trkpt lat="47.61269" lon="4.95655">
        <ele>414.6</ele>
        <time>2020-03-08T11:02:24Z</time>
      </trkpt>
      <trkpt lat="47.61295" lon="4.95606">
        <ele>415.6</ele>
        <time>2020-03-08T11:03:00Z</time>
      </trkpt>
      <trkpt lat="47.61299" lon="4.956">
        <ele>416.4</ele>
        <time>2020-03-08T11:03:06Z</time>
      </trkpt>
      <trkpt lat="47.61349" lon="4.95541">
        <ele>417.2</ele>
        <time>2020-03-08T11:04:01Z</time>
      </trkpt>
      <trkpt lat="47.614" lon="4.95499">
        <ele>423.1</ele>
        <time>2020-03-08T11:04:56Z</time>
      </trkpt>
      <trkpt lat="47.61406" lon="4.95492">
        <ele>422.5</ele>
        <time>2020-03-08T11:05:04Z</time>
      </trkpt>
      <trkpt lat="47.61412" lon="4.95484">
        <ele>421.8</ele>
        <time>2020-03-08T11:05:09Z</time>
      </trkpt>
      <trkpt lat="47.61446" lon="4.95435">
        <ele>416.2</ele>
        <time>2020-03-08T11:05:58Z</time>
      </trkpt>
      <trkpt lat="47.61457" lon="4.95421">
        <ele>415.7</ele>
        <time>2020-03-08T11:06:02Z</time>
      </trkpt>
      <trkpt lat="47.61462" lon="4.95414">
        <ele>415.9</ele>
        <time>2020-03-08T11:06:18Z</time>
      </trkpt>
      <trkpt lat="47.61495" lon="4.95386">
        <ele>412.1</ele>
        <time>2020-03-08T11:06:38Z</time>
      </trkpt>
      <trkpt lat="47.61501" lon="4.95382">
        <ele>411.4</ele>
        <time>2020-03-08T11:06:43Z</time>
      </trkpt>
      <trkpt lat="47.6151" lon="4.95377">
        <ele>410.5</ele>
        <time>2020-03-08T11:06:51Z</time>
      </trkpt>
      <trkpt lat="47.61518" lon="4.95373">
        <ele>409.4</ele>
        <time>2020-03-08T11:07:02Z</time>
      </trkpt>
      <trkpt lat="47.61524" lon="4.9537">
        <ele>409</ele>
        <time>2020-03-08T11:07:08Z</time>
      </trkpt>
      <trkpt lat="47.6153" lon="4.95368">
        <ele>408.5</ele>
        <time>2020-03-08T11:07:12Z</time>
      </trkpt>
      <trkpt lat="47.61537" lon="4.95366">
        <ele>407.9</ele>
        <time>2020-03-08T11:07:18Z</time>
      </trkpt>
      <trkpt lat="47.61545" lon="4.95364">
        <ele>407.4</ele>
        <time>2020-03-08T11:07:24Z</time>
      </trkpt>
      <trkpt lat="47.61586" lon="4.95358">
        <ele>405.2</ele>
        <time>2020-03-08T11:08:00Z</time>
      </trkpt>
      <trkpt lat="47.61594" lon="4.95357">
        <ele>404.5</ele>
        <time>2020-03-08T11:08:07Z</time>
      </trkpt>
      <trkpt lat="47.61601" lon="4.95358">
        <ele>404.1</ele>
        <time>2020-03-08T11:08:15Z</time>
      </trkpt>
      <trkpt lat="47.61611" lon="4.95358">
        <ele>403.5</ele>
        <time>2020-03-08T11:08:23Z</time>
      </trkpt>
      <trkpt lat="47.61618" lon="4.95358">
        <ele>403.2</ele>
        <time>2020-03-08T11:08:31Z</time>
      </trkpt>
      <trkpt lat="47.61627" lon="4.95359">
        <ele>403.1</ele>
        <time>2020-03-08T11:08:37Z</time>
      </trkpt>
      <trkpt lat="47.61629" lon="4.95359">
        <ele>403</ele>
        <time>2020-03-08T11:08:38Z</time>
      </trkpt>
      <trkpt lat="47.61655" lon="4.9536">
        <ele>402.8</ele>
        <time>2020-03-08T11:09:00Z</time>
      </trkpt>
      <trkpt lat="47.61661" lon="4.95361">
        <ele>402.7</ele>
        <time>2020-03-08T11:09:04Z</time>
      </trkpt>
      <trkpt lat="47.61669" lon="4.95362">
        <ele>402.7</ele>
        <time>2020-03-08T11:09:13Z</time>
      </trkpt>
      <trkpt lat="47.61672" lon="4.95362">
        <ele>402.9</ele>
        <time>2020-03-08T11:09:16Z</time>
      </trkpt>
      <trkpt lat="47.61723" lon="4.95357">
        <ele>405.1</ele>
        <time>2020-03-08T11:10:00Z</time>
      </trkpt>
      <trkpt lat="47.6173" lon="4.95355">
        <ele>405.1</ele>
        <time>2020-03-08T11:10:06Z</time>
      </trkpt>
      <trkpt lat="47.61735" lon="4.95353">
        <ele>405</ele>
        <time>2020-03-08T11:10:12Z</time>
      </trkpt>
      <trkpt lat="47.61742" lon="4.95352">
        <ele>405.1</ele>
        <time>2020-03-08T11:10:16Z</time>
      </trkpt>
      <trkpt lat="47.61747" lon="4.95351">
        <ele>405</ele>
        <time>2020-03-08T11:10:57Z</time>
      </trkpt>
      <trkpt lat="47.61796" lon="4.95345">
        <ele>405.5</ele>
        <time>2020-03-08T11:11:02Z</time>
      </trkpt>
      <trkpt lat="47.61804" lon="4.95345">
        <ele>405.6</ele>
        <time>2020-03-08T11:11:09Z</time>
      </trkpt>
      <trkpt lat="47.61812" lon="4.95344">
        <ele>405.4</ele>
        <time>2020-03-08T11:11:17Z</time>
      </trkpt>
      <trkpt lat="47.61818" lon="4.95344">
        <ele>405.7</ele>
        <time>2020-03-08T11:11:22Z</time>
      </trkpt>
      <trkpt lat="47.61826" lon="4.95343">
        <ele>405.6</ele>
        <time>2020-03-08T11:11:28Z</time>
      </trkpt>
      <trkpt lat="47.61831" lon="4.95343">
        <ele>405.7</ele>
        <time>2020-03-08T11:11:33Z</time>
      </trkpt>
      <trkpt lat="47.61839" lon="4.95343">
        <ele>405.6</ele>
        <time>2020-03-08T11:11:39Z</time>
      </trkpt>
      <trkpt lat="47.61847" lon="4.95342">
        <ele>405.5</ele>
        <time>2020-03-08T11:11:46Z</time>
      </trkpt>
      <trkpt lat="47.61854" lon="4.95342">
        <ele>405.5</ele>
        <time>2020-03-08T11:11:54Z</time>
      </trkpt>
      <trkpt lat="47.61862" lon="4.95342">
        <ele>405.7</ele>
        <time>2020-03-08T11:12:00Z</time>
      </trkpt>
      <trkpt lat="47.61869" lon="4.95342">
        <ele>405.9</ele>
        <time>2020-03-08T11:12:07Z</time>
      </trkpt>
      <trkpt lat="47.61877" lon="4.95341">
        <ele>405.9</ele>
        <time>2020-03-08T11:12:13Z</time>
      </trkpt>
      <trkpt lat="47.61882" lon="4.95339">
        <ele>406.1</ele>
        <time>2020-03-08T11:12:17Z</time>
      </trkpt>
      <trkpt lat="47.61919" lon="4.95308">
        <ele>405.7</ele>
        <time>2020-03-08T11:12:56Z</time>
      </trkpt>
      <trkpt lat="47.61924" lon="4.953">
        <ele>405.4</ele>
        <time>2020-03-08T11:13:26Z</time>
      </trkpt>
      <trkpt lat="47.61947" lon="4.95271">
        <ele>403</ele>
        <time>2020-03-08T11:14:00Z</time>
      </trkpt>
      <trkpt lat="47.61951" lon="4.95229">
        <ele>403.2</ele>
        <time>2020-03-08T11:14:21Z</time>
      </trkpt>
      <trkpt lat="47.6195" lon="4.95199">
        <ele>412.8</ele>
        <time>2020-03-08T11:14:25Z</time>
      </trkpt>
      <trkpt lat="47.61951" lon="4.95188">
        <ele>415.7</ele>
        <time>2020-03-08T11:14:31Z</time>
      </trkpt>
      <trkpt lat="47.61952" lon="4.95184">
        <ele>416.2</ele>
        <time>2020-03-08T11:14:33Z</time>
      </trkpt>
      <trkpt lat="47.61963" lon="4.95142">
        <ele>417.4</ele>
        <time>2020-03-08T11:15:00Z</time>
      </trkpt>
      <trkpt lat="47.61965" lon="4.95135">
        <ele>416.7</ele>
        <time>2020-03-08T11:15:39Z</time>
      </trkpt>
      <trkpt lat="47.61994" lon="4.95077">
        <ele>412.1</ele>
        <time>2020-03-08T11:15:44Z</time>
      </trkpt>
      <trkpt lat="47.61997" lon="4.95071">
        <ele>412</ele>
        <time>2020-03-08T11:15:50Z</time>
      </trkpt>
      <trkpt lat="47.62001" lon="4.95065">
        <ele>412</ele>
        <time>2020-03-08T11:15:55Z</time>
      </trkpt>
      <trkpt lat="47.62006" lon="4.95057">
        <ele>411.8</ele>
        <time>2020-03-08T11:16:00Z</time>
      </trkpt>
      <trkpt lat="47.62015" lon="4.95046">
        <ele>411.8</ele>
        <time>2020-03-08T11:16:23Z</time>
      </trkpt>
      <trkpt lat="47.62015" lon="4.95046">
        <ele>411.8</ele>
        <time>2020-03-08T11:19:10Z</time>
      </trkpt>
      <trkpt lat="47.62048" lon="4.95005">
        <ele>407.2</ele>
        <time>2020-03-08T11:19:58Z</time>
      </trkpt>
      <trkpt lat="47.6205" lon="4.95004">
        <ele>407.2</ele>
        <time>2020-03-08T11:20:10Z</time>
      </trkpt>
      <trkpt lat="47.62107" lon="4.94986">
        <ele>410.6</ele>
        <time>2020-03-08T11:20:57Z</time>
      </trkpt>
      <trkpt lat="47.62115" lon="4.94982">
        <ele>410</ele>
        <time>2020-03-08T11:21:03Z</time>
      </trkpt>
      <trkpt lat="47.62123" lon="4.94976">
        <ele>410</ele>
        <time>2020-03-08T11:21:11Z</time>
      </trkpt>
      <trkpt lat="47.6213" lon="4.9497">
        <ele>410.2</ele>
        <time>2020-03-08T11:21:18Z</time>
      </trkpt>
      <trkpt lat="47.62136" lon="4.94966">
        <ele>410.1</ele>
        <time>2020-03-08T11:21:25Z</time>
      </trkpt>
      <trkpt lat="47.62145" lon="4.94962">
        <ele>410.1</ele>
        <time>2020-03-08T11:21:32Z</time>
      </trkpt>
      <trkpt lat="47.62152" lon="4.94959">
        <ele>410.3</ele>
        <time>2020-03-08T11:21:40Z</time>
      </trkpt>
      <trkpt lat="47.62158" lon="4.94951">
        <ele>409.7</ele>
        <time>2020-03-08T11:21:47Z</time>
      </trkpt>
      <trkpt lat="47.62165" lon="4.94945">
        <ele>409.3</ele>
        <time>2020-03-08T11:21:54Z</time>
      </trkpt>
      <trkpt lat="47.62172" lon="4.94937">
        <ele>408.9</ele>
        <time>2020-03-08T11:22:02Z</time>
      </trkpt>
      <trkpt lat="47.62178" lon="4.94932">
        <ele>408.7</ele>
        <time>2020-03-08T11:22:07Z</time>
      </trkpt>
      <trkpt lat="47.62185" lon="4.94926">
        <ele>408.9</ele>
        <time>2020-03-08T11:22:17Z</time>
      </trkpt>
      <trkpt lat="47.62192" lon="4.94918">
        <ele>408.5</ele>
        <time>2020-03-08T11:22:25Z</time>
      </trkpt>
      <trkpt lat="47.62198" lon="4.94913">
        <ele>407.9</ele>
        <time>2020-03-08T11:22:32Z</time>
      </trkpt>
      <trkpt lat="47.62204" lon="4.94908">
        <ele>409</ele>
        <time>2020-03-08T11:22:41Z</time>
      </trkpt>
      <trkpt lat="47.62218" lon="4.94892">
        <ele>415.7</ele>
        <time>2020-03-08T11:23:00Z</time>
      </trkpt>
      <trkpt lat="47.62222" lon="4.94886">
        <ele>417.5</ele>
        <time>2020-03-08T11:23:08Z</time>
      </trkpt>
      <trkpt lat="47.62229" lon="4.9488">
        <ele>419.6</ele>
        <time>2020-03-08T11:23:15Z</time>
      </trkpt>
      <trkpt lat="47.62236" lon="4.94873">
        <ele>422.9</ele>
        <time>2020-03-08T11:23:27Z</time>
      </trkpt>
      <trkpt lat="47.62264" lon="4.94843">
        <ele>431.1</ele>
        <time>2020-03-08T11:24:00Z</time>
      </trkpt>
      <trkpt lat="47.62266" lon="4.94825">
        <ele>430.2</ele>
        <time>2020-03-08T11:24:11Z</time>
      </trkpt>
      <trkpt lat="47.62263" lon="4.94816">
        <ele>425</ele>
        <time>2020-03-08T11:24:28Z</time>
      </trkpt>
      <trkpt lat="47.62261" lon="4.94808">
        <ele>424.1</ele>
        <time>2020-03-08T11:24:36Z</time>
      </trkpt>
      <trkpt lat="47.62246" lon="4.94785">
        <ele>418.1</ele>
        <time>2020-03-08T11:25:00Z</time>
      </trkpt>
      <trkpt lat="47.62238" lon="4.94786">
        <ele>415.6</ele>
        <time>2020-03-08T11:25:08Z</time>
      </trkpt>
      <trkpt lat="47.62229" lon="4.94786">
        <ele>412.2</ele>
        <time>2020-03-08T11:25:19Z</time>
      </trkpt>
      <trkpt lat="47.62222" lon="4.94782">
        <ele>408.7</ele>
        <time>2020-03-08T11:26:08Z</time>
      </trkpt>
      <trkpt lat="47.62231" lon="4.94771">
        <ele>409.3</ele>
        <time>2020-03-08T11:26:50Z</time>
      </trkpt>
      <trkpt lat="47.62233" lon="4.94753">
        <ele>407.6</ele>
        <time>2020-03-08T11:26:53Z</time>
      </trkpt>
      <trkpt lat="47.62233" lon="4.94742">
        <ele>406.9</ele>
        <time>2020-03-08T11:27:00Z</time>
      </trkpt>
      <trkpt lat="47.62265" lon="4.94563">
        <ele>402.3</ele>
        <time>2020-03-08T11:29:21Z</time>
      </trkpt>
      <trkpt lat="47.62259" lon="4.94562">
        <ele>405.9</ele>
        <time>2020-03-08T11:32:36Z</time>
      </trkpt>
      <trkpt lat="47.62256" lon="4.9455">
        <ele>407.9</ele>
        <time>2020-03-08T11:33:35Z</time>
      </trkpt>
      <trkpt lat="47.62251" lon="4.94539">
        <ele>411.3</ele>
        <time>2020-03-08T11:34:51Z</time>
      </trkpt>
      <trkpt lat="47.62247" lon="4.94528">
        <ele>411.6</ele>
        <time>2020-03-08T11:35:04Z</time>
      </trkpt>
      <trkpt lat="47.62247" lon="4.94516">
        <ele>412.4</ele>
        <time>2020-03-08T11:35:20Z</time>
      </trkpt>
      <trkpt lat="47.62247" lon="4.94512">
        <ele>412.8</ele>
        <time>2020-03-08T11:36:00Z</time>
      </trkpt>
      <trkpt lat="47.62255" lon="4.9448">
        <ele>415.2</ele>
        <time>2020-03-08T11:36:04Z</time>
      </trkpt>
      <trkpt lat="47.62259" lon="4.94468">
        <ele>415.9</ele>
        <time>2020-03-08T11:36:13Z</time>
      </trkpt>
      <trkpt lat="47.62259" lon="4.94456">
        <ele>416.5</ele>
        <time>2020-03-08T11:36:26Z</time>
      </trkpt>
      <trkpt lat="47.6226" lon="4.94444">
        <ele>416.9</ele>
        <time>2020-03-08T11:36:34Z</time>
      </trkpt>
      <trkpt lat="47.62261" lon="4.94434">
        <ele>417.3</ele>
        <time>2020-03-08T11:36:40Z</time>
      </trkpt>
      <trkpt lat="47.62266" lon="4.9442">
        <ele>419.5</ele>
        <time>2020-03-08T11:37:00Z</time>
      </trkpt>
      <trkpt lat="47.62268" lon="4.9441">
        <ele>420.2</ele>
        <time>2020-03-08T11:37:35Z</time>
      </trkpt>
      <trkpt lat="47.62278" lon="4.94366">
        <ele>423.6</ele>
        <time>2020-03-08T11:37:38Z</time>
      </trkpt>
      <trkpt lat="47.62281" lon="4.94358">
        <ele>423.7</ele>
        <time>2020-03-08T11:37:55Z</time>
      </trkpt>
      <trkpt lat="47.62281" lon="4.94353">
        <ele>422.7</ele>
        <time>2020-03-08T11:38:00Z</time>
      </trkpt>
      <trkpt lat="47.62256" lon="4.94315">
        <ele>419.3</ele>
        <time>2020-03-08T11:39:00Z</time>
      </trkpt>
      <trkpt lat="47.62249" lon="4.94302">
        <ele>421.2</ele>
        <time>2020-03-08T11:40:00Z</time>
      </trkpt>
      <trkpt lat="47.62249" lon="4.94302">
        <ele>421.2</ele>
        <time>2020-03-08T11:40:07Z</time>
      </trkpt>
      <trkpt lat="47.62236" lon="4.94288">
        <ele>407.8</ele>
        <time>2020-03-08T11:40:38Z</time>
      </trkpt>
      <trkpt lat="47.6224" lon="4.94277">
        <ele>407.3</ele>
        <time>2020-03-08T11:40:55Z</time>
      </trkpt>
      <trkpt lat="47.62242" lon="4.94267">
        <ele>408.3</ele>
        <time>2020-03-08T11:42:04Z</time>
      </trkpt>
      <trkpt lat="47.62236" lon="4.94281">
        <ele>404.9</ele>
        <time>2020-03-08T11:42:08Z</time>
      </trkpt>
      <trkpt lat="47.62236" lon="4.94281">
        <ele>404.9</ele>
        <time>2020-03-08T11:42:27Z</time>
      </trkpt>
      <trkpt lat="47.62237" lon="4.94295">
        <ele>405.5</ele>
        <time>2020-03-08T11:42:30Z</time>
      </trkpt>
      <trkpt lat="47.62237" lon="4.94296">
        <ele>405.3</ele>
        <time>2020-03-08T11:43:43Z</time>
      </trkpt>
      <trkpt lat="47.62231" lon="4.94306">
        <ele>399.7</ele>
        <time>2020-03-08T11:44:00Z</time>
      </trkpt>
      <trkpt lat="47.62231" lon="4.94306">
        <ele>399.6</ele>
        <time>2020-03-08T11:45:06Z</time>
      </trkpt>
      <trkpt lat="47.62221" lon="4.94298">
        <ele>398</ele>
        <time>2020-03-08T11:45:27Z</time>
      </trkpt>
      <trkpt lat="47.62221" lon="4.94298">
        <ele>398</ele>
        <time>2020-03-08T11:46:40Z</time>
      </trkpt>
      <trkpt lat="47.62213" lon="4.94288">
        <ele>393.6</ele>
        <time>2020-03-08T11:46:45Z</time>
      </trkpt>
      <trkpt lat="47.62212" lon="4.94276">
        <ele>394.8</ele>
        <time>2020-03-08T11:47:00Z</time>
      </trkpt>
      <trkpt lat="47.62214" lon="4.94264">
        <ele>395.7</ele>
        <time>2020-03-08T11:47:14Z</time>
      </trkpt>
      <trkpt lat="47.62215" lon="4.94254">
        <ele>397.7</ele>
        <time>2020-03-08T11:47:58Z</time>
      </trkpt>
      <trkpt lat="47.62219" lon="4.94244">
        <ele>397.5</ele>
        <time>2020-03-08T11:48:08Z</time>
      </trkpt>
      <trkpt lat="47.62221" lon="4.94237">
        <ele>398.3</ele>
        <time>2020-03-08T11:48:29Z</time>
      </trkpt>
      <trkpt lat="47.62222" lon="4.94222">
        <ele>398.5</ele>
        <time>2020-03-08T11:48:33Z</time>
      </trkpt>
      <trkpt lat="47.62223" lon="4.94214">
        <ele>399.3</ele>
        <time>2020-03-08T11:48:59Z</time>
      </trkpt>
      <trkpt lat="47.62226" lon="4.94197">
        <ele>399</ele>
        <time>2020-03-08T11:49:03Z</time>
      </trkpt>
      <trkpt lat="47.62226" lon="4.94196">
        <ele>399</ele>
        <time>2020-03-08T11:49:13Z</time>
      </trkpt>
      <trkpt lat="47.62229" lon="4.94149">
        <ele>403.1</ele>
        <time>2020-03-08T11:50:00Z</time>
      </trkpt>
      <trkpt lat="47.6223" lon="4.94143">
        <ele>403.7</ele>
        <time>2020-03-08T11:50:07Z</time>
      </trkpt>
      <trkpt lat="47.62233" lon="4.94123">
        <ele>406.1</ele>
        <time>2020-03-08T11:50:31Z</time>
      </trkpt>
      <trkpt lat="47.62234" lon="4.94112">
        <ele>405.6</ele>
        <time>2020-03-08T11:50:47Z</time>
      </trkpt>
      <trkpt lat="47.62234" lon="4.94101">
        <ele>405.9</ele>
        <time>2020-03-08T11:51:16Z</time>
      </trkpt>
      <trkpt lat="47.62234" lon="4.94087">
        <ele>407.1</ele>
        <time>2020-03-08T11:51:18Z</time>
      </trkpt>
      <trkpt lat="47.62234" lon="4.94077">
        <ele>408.3</ele>
        <time>2020-03-08T11:51:28Z</time>
      </trkpt>
      <trkpt lat="47.62239" lon="4.94054">
        <ele>412.1</ele>
        <time>2020-03-08T11:51:48Z</time>
      </trkpt>
      <trkpt lat="47.62241" lon="4.94044">
        <ele>413.9</ele>
        <time>2020-03-08T11:51:56Z</time>
      </trkpt>
      <trkpt lat="47.62244" lon="4.94032">
        <ele>415.3</ele>
        <time>2020-03-08T11:52:07Z</time>
      </trkpt>
      <trkpt lat="47.62244" lon="4.9403">
        <ele>415.7</ele>
        <time>2020-03-08T11:52:24Z</time>
      </trkpt>
      <trkpt lat="47.62246" lon="4.94013">
        <ele>415.5</ele>
        <time>2020-03-08T11:52:29Z</time>
      </trkpt>
      <trkpt lat="47.62247" lon="4.94007">
        <ele>415.4</ele>
        <time>2020-03-08T11:52:42Z</time>
      </trkpt>
      <trkpt lat="47.62249" lon="4.93994">
        <ele>415.4</ele>
        <time>2020-03-08T11:52:46Z</time>
      </trkpt>
      <trkpt lat="47.62251" lon="4.93982">
        <ele>415</ele>
        <time>2020-03-08T11:53:15Z</time>
      </trkpt>
      <trkpt lat="47.62249" lon="4.93972">
        <ele>414.7</ele>
        <time>2020-03-08T11:53:29Z</time>
      </trkpt>
      <trkpt lat="47.62245" lon="4.93962">
        <ele>414.1</ele>
        <time>2020-03-08T11:53:45Z</time>
      </trkpt>
      <trkpt lat="47.62239" lon="4.93954">
        <ele>414.9</ele>
        <time>2020-03-08T11:54:02Z</time>
      </trkpt>
      <trkpt lat="47.62237" lon="4.93952">
        <ele>414.8</ele>
        <time>2020-03-08T11:55:01Z</time>
      </trkpt>
      <trkpt lat="47.62227" lon="4.93949">
        <ele>408.4</ele>
        <time>2020-03-08T11:55:05Z</time>
      </trkpt>
      <trkpt lat="47.6222" lon="4.93946">
        <ele>408.7</ele>
        <time>2020-03-08T11:55:28Z</time>
      </trkpt>
      <trkpt lat="47.62213" lon="4.9394">
        <ele>407.7</ele>
        <time>2020-03-08T11:55:49Z</time>
      </trkpt>
      <trkpt lat="47.62212" lon="4.93927">
        <ele>404.2</ele>
        <time>2020-03-08T11:56:08Z</time>
      </trkpt>
      <trkpt lat="47.62214" lon="4.93917">
        <ele>402.7</ele>
        <time>2020-03-08T11:57:48Z</time>
      </trkpt>
      <trkpt lat="47.6222" lon="4.93906">
        <ele>398.4</ele>
        <time>2020-03-08T11:58:00Z</time>
      </trkpt>
      <trkpt lat="47.62221" lon="4.93894">
        <ele>398.5</ele>
        <time>2020-03-08T11:58:12Z</time>
      </trkpt>
      <trkpt lat="47.62224" lon="4.93881">
        <ele>399.7</ele>
        <time>2020-03-08T11:58:22Z</time>
      </trkpt>
      <trkpt lat="47.62228" lon="4.93865">
        <ele>400.7</ele>
        <time>2020-03-08T11:58:34Z</time>
      </trkpt>
      <trkpt lat="47.62243" lon="4.93827">
        <ele>404.1</ele>
        <time>2020-03-08T11:59:00Z</time>
      </trkpt>
      <trkpt lat="47.62245" lon="4.93822">
        <ele>403.8</ele>
        <time>2020-03-08T11:59:21Z</time>
      </trkpt>
      <trkpt lat="47.62253" lon="4.93794">
        <ele>405.1</ele>
        <time>2020-03-08T11:59:25Z</time>
      </trkpt>
      <trkpt lat="47.62252" lon="4.93782">
        <ele>407.9</ele>
        <time>2020-03-08T11:59:37Z</time>
      </trkpt>
      <trkpt lat="47.6225" lon="4.93771">
        <ele>410.5</ele>
        <time>2020-03-08T11:59:48Z</time>
      </trkpt>
      <trkpt lat="47.62251" lon="4.93751">
        <ele>413.3</ele>
        <time>2020-03-08T12:00:00Z</time>
      </trkpt>
      <trkpt lat="47.62251" lon="4.93748">
        <ele>413.5</ele>
        <time>2020-03-08T12:00:19Z</time>
      </trkpt>
      <trkpt lat="47.62257" lon="4.93728">
        <ele>417</ele>
        <time>2020-03-08T12:00:22Z</time>
      </trkpt>
      <trkpt lat="47.62256" lon="4.93715">
        <ele>418.7</ele>
        <time>2020-03-08T12:00:34Z</time>
      </trkpt>
      <trkpt lat="47.62256" lon="4.93708">
        <ele>419.6</ele>
        <time>2020-03-08T12:00:37Z</time>
      </trkpt>
      <trkpt lat="47.6226" lon="4.93684">
        <ele>422.8</ele>
        <time>2020-03-08T12:01:00Z</time>
      </trkpt>
      <trkpt lat="47.62262" lon="4.93669">
        <ele>424</ele>
        <time>2020-03-08T12:01:17Z</time>
      </trkpt>
      <trkpt lat="47.62262" lon="4.93667">
        <ele>424.5</ele>
        <time>2020-03-08T12:01:32Z</time>
      </trkpt>
      <trkpt lat="47.62265" lon="4.9365">
        <ele>427</ele>
        <time>2020-03-08T12:01:35Z</time>
      </trkpt>
      <trkpt lat="47.62266" lon="4.93637">
        <ele>428</ele>
        <time>2020-03-08T12:01:45Z</time>
      </trkpt>
      <trkpt lat="47.62266" lon="4.93626">
        <ele>428.5</ele>
        <time>2020-03-08T12:01:53Z</time>
      </trkpt>
      <trkpt lat="47.62267" lon="4.93613">
        <ele>429.6</ele>
        <time>2020-03-08T12:02:04Z</time>
      </trkpt>
      <trkpt lat="47.62268" lon="4.93601">
        <ele>430.5</ele>
        <time>2020-03-08T12:02:14Z</time>
      </trkpt>
      <trkpt lat="47.62268" lon="4.93593">
        <ele>430.7</ele>
        <time>2020-03-08T12:02:35Z</time>
      </trkpt>
      <trkpt lat="47.62271" lon="4.93558">
        <ele>433</ele>
        <time>2020-03-08T12:03:00Z</time>
      </trkpt>
      <trkpt lat="47.62272" lon="4.93546">
        <ele>432.9</ele>
        <time>2020-03-08T12:03:17Z</time>
      </trkpt>
      <trkpt lat="47.62273" lon="4.93536">
        <ele>433.6</ele>
        <time>2020-03-08T12:03:23Z</time>
      </trkpt>
      <trkpt lat="47.62276" lon="4.93487">
        <ele>437.6</ele>
        <time>2020-03-08T12:04:00Z</time>
      </trkpt>
      <trkpt lat="47.62277" lon="4.93474">
        <ele>438.5</ele>
        <time>2020-03-08T12:04:09Z</time>
      </trkpt>
      <trkpt lat="47.62277" lon="4.93471">
        <ele>438.8</ele>
        <time>2020-03-08T12:04:14Z</time>
      </trkpt>
      <trkpt lat="47.62278" lon="4.9346">
        <ele>439.7</ele>
        <time>2020-03-08T12:04:21Z</time>
      </trkpt>
      <trkpt lat="47.62278" lon="4.93451">
        <ele>439.9</ele>
        <time>2020-03-08T12:04:26Z</time>
      </trkpt>
      <trkpt lat="47.62278" lon="4.93441">
        <ele>440.2</ele>
        <time>2020-03-08T12:05:00Z</time>
      </trkpt>
      <trkpt lat="47.6228" lon="4.93404">
        <ele>443.6</ele>
        <time>2020-03-08T12:05:06Z</time>
      </trkpt>
      <trkpt lat="47.62284" lon="4.93361">
        <ele>445.6</ele>
        <time>2020-03-08T12:05:37Z</time>
      </trkpt>
      <trkpt lat="47.62285" lon="4.93348">
        <ele>446.5</ele>
        <time>2020-03-08T12:05:46Z</time>
      </trkpt>
      <trkpt lat="47.62286" lon="4.93336">
        <ele>447.1</ele>
        <time>2020-03-08T12:05:55Z</time>
      </trkpt>
      <trkpt lat="47.62286" lon="4.93328">
        <ele>447.2</ele>
        <time>2020-03-08T12:06:01Z</time>
      </trkpt>
      <trkpt lat="47.62288" lon="4.93291">
        <ele>447.8</ele>
        <time>2020-03-08T12:07:00Z</time>
      </trkpt>
      <trkpt lat="47.62295" lon="4.93174">
        <ele>444.8</ele>
        <time>2020-03-08T12:08:00Z</time>
      </trkpt>
      <trkpt lat="47.62296" lon="4.93164">
        <ele>444.6</ele>
        <time>2020-03-08T12:08:08Z</time>
      </trkpt>
      <trkpt lat="47.62296" lon="4.93152">
        <ele>444.5</ele>
        <time>2020-03-08T12:08:18Z</time>
      </trkpt>
      <trkpt lat="47.62297" lon="4.93137">
        <ele>444.6</ele>
        <time>2020-03-08T12:08:29Z</time>
      </trkpt>
      <trkpt lat="47.62298" lon="4.93125">
        <ele>444.5</ele>
        <time>2020-03-08T12:08:38Z</time>
      </trkpt>
      <trkpt lat="47.62299" lon="4.93121">
        <ele>444.3</ele>
        <time>2020-03-08T12:09:00Z</time>
      </trkpt>
      <trkpt lat="47.62301" lon="4.93084">
        <ele>444.1</ele>
        <time>2020-03-08T12:09:11Z</time>
      </trkpt>
      <trkpt lat="47.62299" lon="4.93057">
        <ele>444.2</ele>
        <time>2020-03-08T12:09:46Z</time>
      </trkpt>
      <trkpt lat="47.62299" lon="4.93057">
        <ele>444.2</ele>
        <time>2020-03-08T12:12:00Z</time>
      </trkpt>
      <trkpt lat="47.62305" lon="4.93036">
        <ele>440.4</ele>
        <time>2020-03-08T12:12:07Z</time>
      </trkpt>
      <trkpt lat="47.62308" lon="4.93025">
        <ele>442.1</ele>
        <time>2020-03-08T12:12:15Z</time>
      </trkpt>
      <trkpt lat="47.62311" lon="4.93014">
        <ele>444.7</ele>
        <time>2020-03-08T12:12:22Z</time>
      </trkpt>
      <trkpt lat="47.62321" lon="4.92986">
        <ele>448.9</ele>
        <time>2020-03-08T12:12:39Z</time>
      </trkpt>
      <trkpt lat="47.62324" lon="4.92979">
        <ele>450.4</ele>
        <time>2020-03-08T12:13:00Z</time>
      </trkpt>
      <trkpt lat="47.62344" lon="4.92929">
        <ele>452.5</ele>
        <time>2020-03-08T12:13:34Z</time>
      </trkpt>
      <trkpt lat="47.62348" lon="4.92914">
        <ele>454.1</ele>
        <time>2020-03-08T12:13:39Z</time>
      </trkpt>
      <trkpt lat="47.62348" lon="4.9291">
        <ele>454.8</ele>
        <time>2020-03-08T12:13:48Z</time>
      </trkpt>
      <trkpt lat="47.62355" lon="4.92888">
        <ele>458.1</ele>
        <time>2020-03-08T12:14:00Z</time>
      </trkpt>
      <trkpt lat="47.62351" lon="4.92877">
        <ele>460.2</ele>
        <time>2020-03-08T12:14:09Z</time>
      </trkpt>
      <trkpt lat="47.62344" lon="4.92869">
        <ele>460.8</ele>
        <time>2020-03-08T12:14:18Z</time>
      </trkpt>
      <trkpt lat="47.62337" lon="4.92862">
        <ele>460.4</ele>
        <time>2020-03-08T12:14:26Z</time>
      </trkpt>
      <trkpt lat="47.6233" lon="4.92855">
        <ele>459.6</ele>
        <time>2020-03-08T12:14:32Z</time>
      </trkpt>
      <trkpt lat="47.62329" lon="4.92854">
        <ele>459.5</ele>
        <time>2020-03-08T12:15:00Z</time>
      </trkpt>
      <trkpt lat="47.62304" lon="4.92822">
        <ele>462</ele>
        <time>2020-03-08T12:15:22Z</time>
      </trkpt>
      <trkpt lat="47.62279" lon="4.92794">
        <ele>455.5</ele>
        <time>2020-03-08T12:15:49Z</time>
      </trkpt>
      <trkpt lat="47.62271" lon="4.92792">
        <ele>454.7</ele>
        <time>2020-03-08T12:15:58Z</time>
      </trkpt>
      <trkpt lat="47.62263" lon="4.92788">
        <ele>454.1</ele>
        <time>2020-03-08T12:16:05Z</time>
      </trkpt>
      <trkpt lat="47.62255" lon="4.92783">
        <ele>453.7</ele>
        <time>2020-03-08T12:16:11Z</time>
      </trkpt>
      <trkpt lat="47.62253" lon="4.92782">
        <ele>453.7</ele>
        <time>2020-03-08T12:16:14Z</time>
      </trkpt>
      <trkpt lat="47.62246" lon="4.92776">
        <ele>453</ele>
        <time>2020-03-08T12:16:21Z</time>
      </trkpt>
      <trkpt lat="47.6224" lon="4.92772">
        <ele>451.9</ele>
        <time>2020-03-08T12:16:25Z</time>
      </trkpt>
      <trkpt lat="47.62203" lon="4.92745">
        <ele>446.1</ele>
        <time>2020-03-08T12:17:11Z</time>
      </trkpt>
      <trkpt lat="47.62139" lon="4.92692">
        <ele>436.8</ele>
        <time>2020-03-08T12:18:02Z</time>
      </trkpt>
      <trkpt lat="47.62135" lon="4.92681">
        <ele>435.8</ele>
        <time>2020-03-08T12:18:07Z</time>
      </trkpt>
      <trkpt lat="47.62132" lon="4.9267">
        <ele>434.9</ele>
        <time>2020-03-08T12:18:14Z</time>
      </trkpt>
      <trkpt lat="47.6213" lon="4.92658">
        <ele>433.9</ele>
        <time>2020-03-08T12:18:21Z</time>
      </trkpt>
      <trkpt lat="47.62129" lon="4.92645">
        <ele>432.8</ele>
        <time>2020-03-08T12:18:28Z</time>
      </trkpt>
      <trkpt lat="47.62129" lon="4.92636">
        <ele>431.6</ele>
        <time>2020-03-08T12:18:36Z</time>
      </trkpt>
      <trkpt lat="47.6213" lon="4.92625">
        <ele>430.9</ele>
        <time>2020-03-08T12:18:40Z</time>
      </trkpt>
      <trkpt lat="47.6213" lon="4.92613">
        <ele>430.1</ele>
        <time>2020-03-08T12:18:47Z</time>
      </trkpt>
      <trkpt lat="47.62131" lon="4.92601">
        <ele>430.2</ele>
        <time>2020-03-08T12:18:54Z</time>
      </trkpt>
      <trkpt lat="47.62132" lon="4.9259">
        <ele>430.1</ele>
        <time>2020-03-08T12:19:00Z</time>
      </trkpt>
      <trkpt lat="47.62132" lon="4.9258">
        <ele>430</ele>
        <time>2020-03-08T12:19:07Z</time>
      </trkpt>
      <trkpt lat="47.62132" lon="4.92569">
        <ele>430</ele>
        <time>2020-03-08T12:19:12Z</time>
      </trkpt>
      <trkpt lat="47.6213" lon="4.92558">
        <ele>429.8</ele>
        <time>2020-03-08T12:19:20Z</time>
      </trkpt>
      <trkpt lat="47.62125" lon="4.92548">
        <ele>430.7</ele>
        <time>2020-03-08T12:19:28Z</time>
      </trkpt>
      <trkpt lat="47.62121" lon="4.9254">
        <ele>431</ele>
        <time>2020-03-08T12:19:33Z</time>
      </trkpt>
      <trkpt lat="47.62116" lon="4.9253">
        <ele>430.1</ele>
        <time>2020-03-08T12:19:39Z</time>
      </trkpt>
      <trkpt lat="47.62111" lon="4.92523">
        <ele>429.5</ele>
        <time>2020-03-08T12:19:46Z</time>
      </trkpt>
      <trkpt lat="47.62106" lon="4.92515">
        <ele>428.7</ele>
        <time>2020-03-08T12:19:50Z</time>
      </trkpt>
      <trkpt lat="47.62101" lon="4.92508">
        <ele>427.9</ele>
        <time>2020-03-08T12:19:56Z</time>
      </trkpt>
      <trkpt lat="47.62099" lon="4.92506">
        <ele>427.6</ele>
        <time>2020-03-08T12:19:58Z</time>
      </trkpt>
      <trkpt lat="47.62092" lon="4.92496">
        <ele>425.5</ele>
        <time>2020-03-08T12:20:09Z</time>
      </trkpt>
      <trkpt lat="47.62083" lon="4.92478">
        <ele>422.6</ele>
        <time>2020-03-08T12:20:20Z</time>
      </trkpt>
      <trkpt lat="47.62078" lon="4.9247">
        <ele>422.4</ele>
        <time>2020-03-08T12:20:27Z</time>
      </trkpt>
      <trkpt lat="47.62074" lon="4.92463">
        <ele>422.5</ele>
        <time>2020-03-08T12:20:34Z</time>
      </trkpt>
      <trkpt lat="47.62052" lon="4.92437">
        <ele>422</ele>
        <time>2020-03-08T12:21:00Z</time>
      </trkpt>
      <trkpt lat="47.62045" lon="4.9243">
        <ele>422.6</ele>
        <time>2020-03-08T12:21:08Z</time>
      </trkpt>
      <trkpt lat="47.62039" lon="4.92422">
        <ele>424.3</ele>
        <time>2020-03-08T12:21:17Z</time>
      </trkpt>
      <trkpt lat="47.62032" lon="4.92417">
        <ele>425.7</ele>
        <time>2020-03-08T12:21:23Z</time>
      </trkpt>
      <trkpt lat="47.62026" lon="4.9241">
        <ele>425.7</ele>
        <time>2020-03-08T12:21:29Z</time>
      </trkpt>
      <trkpt lat="47.62024" lon="4.92407">
        <ele>425.7</ele>
        <time>2020-03-08T12:21:30Z</time>
      </trkpt>
      <trkpt lat="47.61997" lon="4.92375">
        <ele>429.5</ele>
        <time>2020-03-08T12:22:07Z</time>
      </trkpt>
      <trkpt lat="47.6199" lon="4.92365">
        <ele>427.7</ele>
        <time>2020-03-08T12:22:12Z</time>
      </trkpt>
      <trkpt lat="47.61988" lon="4.92363">
        <ele>428</ele>
        <time>2020-03-08T12:22:18Z</time>
      </trkpt>
      <trkpt lat="47.61946" lon="4.92321">
        <ele>434.7</ele>
        <time>2020-03-08T12:23:00Z</time>
      </trkpt>
      <trkpt lat="47.61937" lon="4.92317">
        <ele>435.6</ele>
        <time>2020-03-08T12:23:08Z</time>
      </trkpt>
      <trkpt lat="47.6193" lon="4.9231">
        <ele>435.9</ele>
        <time>2020-03-08T12:23:15Z</time>
      </trkpt>
      <trkpt lat="47.61928" lon="4.92307">
        <ele>436.1</ele>
        <time>2020-03-08T12:23:23Z</time>
      </trkpt>
      <trkpt lat="47.61921" lon="4.923">
        <ele>435.7</ele>
        <time>2020-03-08T12:23:25Z</time>
      </trkpt>
      <trkpt lat="47.61913" lon="4.92297">
        <ele>435.1</ele>
        <time>2020-03-08T12:23:32Z</time>
      </trkpt>
      <trkpt lat="47.61905" lon="4.92292">
        <ele>435</ele>
        <time>2020-03-08T12:23:39Z</time>
      </trkpt>
      <trkpt lat="47.61894" lon="4.92288">
        <ele>435.2</ele>
        <time>2020-03-08T12:24:00Z</time>
      </trkpt>
      <trkpt lat="47.61881" lon="4.92281">
        <ele>436.3</ele>
        <time>2020-03-08T12:24:04Z</time>
      </trkpt>
      <trkpt lat="47.61875" lon="4.92279">
        <ele>436.9</ele>
        <time>2020-03-08T12:24:11Z</time>
      </trkpt>
      <trkpt lat="47.61868" lon="4.92277">
        <ele>437.2</ele>
        <time>2020-03-08T12:24:18Z</time>
      </trkpt>
      <trkpt lat="47.6186" lon="4.92273">
        <ele>438.2</ele>
        <time>2020-03-08T12:24:24Z</time>
      </trkpt>
      <trkpt lat="47.61853" lon="4.92271">
        <ele>439</ele>
        <time>2020-03-08T12:24:28Z</time>
      </trkpt>
      <trkpt lat="47.61846" lon="4.92267">
        <ele>439.9</ele>
        <time>2020-03-08T12:24:34Z</time>
      </trkpt>
      <trkpt lat="47.61822" lon="4.92242">
        <ele>441.2</ele>
        <time>2020-03-08T12:25:00Z</time>
      </trkpt>
      <trkpt lat="47.61817" lon="4.92233">
        <ele>439.9</ele>
        <time>2020-03-08T12:25:09Z</time>
      </trkpt>
      <trkpt lat="47.61811" lon="4.92224">
        <ele>437.3</ele>
        <time>2020-03-08T12:25:16Z</time>
      </trkpt>
      <trkpt lat="47.61805" lon="4.92218">
        <ele>434.9</ele>
        <time>2020-03-08T12:25:23Z</time>
      </trkpt>
      <trkpt lat="47.61799" lon="4.9221">
        <ele>432.5</ele>
        <time>2020-03-08T12:25:28Z</time>
      </trkpt>
      <trkpt lat="47.61793" lon="4.92201">
        <ele>433.3</ele>
        <time>2020-03-08T12:25:34Z</time>
      </trkpt>
      <trkpt lat="47.61789" lon="4.92194">
        <ele>434.6</ele>
        <time>2020-03-08T12:25:39Z</time>
      </trkpt>
      <trkpt lat="47.61782" lon="4.92186">
        <ele>434.3</ele>
        <time>2020-03-08T12:25:46Z</time>
      </trkpt>
      <trkpt lat="47.61777" lon="4.92179">
        <ele>434</ele>
        <time>2020-03-08T12:25:52Z</time>
      </trkpt>
      <trkpt lat="47.61772" lon="4.92172">
        <ele>433.7</ele>
        <time>2020-03-08T12:25:58Z</time>
      </trkpt>
      <trkpt lat="47.61765" lon="4.92166">
        <ele>432.7</ele>
        <time>2020-03-08T12:26:05Z</time>
      </trkpt>
      <trkpt lat="47.6176" lon="4.92163">
        <ele>432.1</ele>
        <time>2020-03-08T12:26:12Z</time>
      </trkpt>
      <trkpt lat="47.61754" lon="4.92156">
        <ele>430.2</ele>
        <time>2020-03-08T12:26:50Z</time>
      </trkpt>
      <trkpt lat="47.61743" lon="4.92137">
        <ele>417.7</ele>
        <time>2020-03-08T12:27:07Z</time>
      </trkpt>
      <trkpt lat="47.61741" lon="4.92131">
        <ele>416.2</ele>
        <time>2020-03-08T12:28:04Z</time>
      </trkpt>
      <trkpt lat="47.61738" lon="4.92118">
        <ele>410.7</ele>
        <time>2020-03-08T12:28:20Z</time>
      </trkpt>
      <trkpt lat="47.61729" lon="4.92118">
        <ele>410.2</ele>
        <time>2020-03-08T12:28:33Z</time>
      </trkpt>
      <trkpt lat="47.61721" lon="4.92119">
        <ele>410.3</ele>
        <time>2020-03-08T12:28:43Z</time>
      </trkpt>
      <trkpt lat="47.61712" lon="4.9212">
        <ele>411</ele>
        <time>2020-03-08T12:28:51Z</time>
      </trkpt>
      <trkpt lat="47.61708" lon="4.92121">
        <ele>411.3</ele>
        <time>2020-03-08T12:29:04Z</time>
      </trkpt>
      <trkpt lat="47.61695" lon="4.92122">
        <ele>411.8</ele>
        <time>2020-03-08T12:29:08Z</time>
      </trkpt>
      <trkpt lat="47.61687" lon="4.9212">
        <ele>411</ele>
        <time>2020-03-08T12:29:14Z</time>
      </trkpt>
      <trkpt lat="47.61685" lon="4.9212">
        <ele>410.7</ele>
        <time>2020-03-08T12:29:21Z</time>
      </trkpt>
      <trkpt lat="47.6167" lon="4.92114">
        <ele>409.2</ele>
        <time>2020-03-08T12:29:24Z</time>
      </trkpt>
      <trkpt lat="47.61662" lon="4.9211">
        <ele>407.7</ele>
        <time>2020-03-08T12:29:29Z</time>
      </trkpt>
      <trkpt lat="47.61639" lon="4.92082">
        <ele>402.1</ele>
        <time>2020-03-08T12:30:00Z</time>
      </trkpt>
      <trkpt lat="47.61642" lon="4.92071">
        <ele>400.1</ele>
        <time>2020-03-08T12:30:17Z</time>
      </trkpt>
      <trkpt lat="47.61647" lon="4.92061">
        <ele>399.6</ele>
        <time>2020-03-08T12:30:25Z</time>
      </trkpt>
      <trkpt lat="47.61652" lon="4.92053">
        <ele>399.6</ele>
        <time>2020-03-08T12:30:33Z</time>
      </trkpt>
      <trkpt lat="47.61657" lon="4.92042">
        <ele>400.1</ele>
        <time>2020-03-08T12:30:48Z</time>
      </trkpt>
      <trkpt lat="47.61665" lon="4.92042">
        <ele>399.7</ele>
        <time>2020-03-08T12:31:22Z</time>
      </trkpt>
      <trkpt lat="47.61672" lon="4.92037">
        <ele>400.1</ele>
        <time>2020-03-08T12:31:31Z</time>
      </trkpt>
      <trkpt lat="47.6168" lon="4.92033">
        <ele>400.8</ele>
        <time>2020-03-08T12:31:40Z</time>
      </trkpt>
      <trkpt lat="47.61688" lon="4.92028">
        <ele>401.4</ele>
        <time>2020-03-08T12:31:48Z</time>
      </trkpt>
      <trkpt lat="47.61695" lon="4.9203">
        <ele>405.3</ele>
        <time>2020-03-08T12:32:01Z</time>
      </trkpt>
      <trkpt lat="47.61703" lon="4.92028">
        <ele>408.7</ele>
        <time>2020-03-08T12:32:11Z</time>
      </trkpt>
      <trkpt lat="47.61712" lon="4.92025">
        <ele>409.8</ele>
        <time>2020-03-08T12:32:20Z</time>
      </trkpt>
      <trkpt lat="47.6172" lon="4.92021">
        <ele>409.2</ele>
        <time>2020-03-08T12:32:28Z</time>
      </trkpt>
      <trkpt lat="47.61728" lon="4.92015">
        <ele>409.9</ele>
        <time>2020-03-08T12:32:39Z</time>
      </trkpt>
      <trkpt lat="47.61734" lon="4.92013">
        <ele>409.8</ele>
        <time>2020-03-08T12:32:46Z</time>
      </trkpt>
      <trkpt lat="47.61741" lon="4.92009">
        <ele>411.5</ele>
        <time>2020-03-08T12:32:52Z</time>
      </trkpt>
      <trkpt lat="47.61749" lon="4.92004">
        <ele>414.9</ele>
        <time>2020-03-08T12:33:03Z</time>
      </trkpt>
      <trkpt lat="47.61756" lon="4.92">
        <ele>418.1</ele>
        <time>2020-03-08T12:33:11Z</time>
      </trkpt>
      <trkpt lat="47.61765" lon="4.91996">
        <ele>421.7</ele>
        <time>2020-03-08T12:33:20Z</time>
      </trkpt>
      <trkpt lat="47.61772" lon="4.91993">
        <ele>423.4</ele>
        <time>2020-03-08T12:33:30Z</time>
      </trkpt>
      <trkpt lat="47.61779" lon="4.91986">
        <ele>421.1</ele>
        <time>2020-03-08T12:33:41Z</time>
      </trkpt>
      <trkpt lat="47.61787" lon="4.91979">
        <ele>418.4</ele>
        <time>2020-03-08T12:33:51Z</time>
      </trkpt>
      <trkpt lat="47.61795" lon="4.91974">
        <ele>415.4</ele>
        <time>2020-03-08T12:34:00Z</time>
      </trkpt>
      <trkpt lat="47.61802" lon="4.9197">
        <ele>414.6</ele>
        <time>2020-03-08T12:34:10Z</time>
      </trkpt>
      <trkpt lat="47.61809" lon="4.91965">
        <ele>412.8</ele>
        <time>2020-03-08T12:34:34Z</time>
      </trkpt>
      <trkpt lat="47.61816" lon="4.91959">
        <ele>409</ele>
        <time>2020-03-08T12:34:44Z</time>
      </trkpt>
      <trkpt lat="47.61824" lon="4.91955">
        <ele>407.4</ele>
        <time>2020-03-08T12:35:00Z</time>
      </trkpt>
      <trkpt lat="47.61831" lon="4.91949">
        <ele>406.4</ele>
        <time>2020-03-08T12:35:11Z</time>
      </trkpt>
      <trkpt lat="47.61838" lon="4.91941">
        <ele>406.1</ele>
        <time>2020-03-08T12:35:54Z</time>
      </trkpt>
      <trkpt lat="47.61841" lon="4.91931">
        <ele>405.8</ele>
        <time>2020-03-08T12:36:02Z</time>
      </trkpt>
      <trkpt lat="47.61846" lon="4.9192">
        <ele>405.5</ele>
        <time>2020-03-08T12:36:12Z</time>
      </trkpt>
      <trkpt lat="47.6185" lon="4.91911">
        <ele>405.1</ele>
        <time>2020-03-08T12:36:20Z</time>
      </trkpt>
      <trkpt lat="47.61853" lon="4.919">
        <ele>404.7</ele>
        <time>2020-03-08T12:36:29Z</time>
      </trkpt>
      <trkpt lat="47.61858" lon="4.91889">
        <ele>404.5</ele>
        <time>2020-03-08T12:36:38Z</time>
      </trkpt>
      <trkpt lat="47.61865" lon="4.91881">
        <ele>404.6</ele>
        <time>2020-03-08T12:36:47Z</time>
      </trkpt>
      <trkpt lat="47.61871" lon="4.91874">
        <ele>405.3</ele>
        <time>2020-03-08T12:37:25Z</time>
      </trkpt>
      <trkpt lat="47.61877" lon="4.91866">
        <ele>403.6</ele>
        <time>2020-03-08T12:37:34Z</time>
      </trkpt>
      <trkpt lat="47.61881" lon="4.91855">
        <ele>404</ele>
        <time>2020-03-08T12:37:48Z</time>
      </trkpt>
      <trkpt lat="47.61878" lon="4.91843">
        <ele>403.2</ele>
        <time>2020-03-08T12:38:46Z</time>
      </trkpt>
      <trkpt lat="47.61875" lon="4.91833">
        <ele>402.8</ele>
        <time>2020-03-08T12:38:56Z</time>
      </trkpt>
      <trkpt lat="47.61872" lon="4.91822">
        <ele>402.8</ele>
        <time>2020-03-08T12:39:06Z</time>
      </trkpt>
      <trkpt lat="47.61874" lon="4.91809">
        <ele>403.3</ele>
        <time>2020-03-08T12:39:17Z</time>
      </trkpt>
      <trkpt lat="47.61877" lon="4.91797">
        <ele>404.6</ele>
        <time>2020-03-08T12:39:27Z</time>
      </trkpt>
      <trkpt lat="47.61881" lon="4.91786">
        <ele>405.3</ele>
        <time>2020-03-08T12:39:38Z</time>
      </trkpt>
      <trkpt lat="47.61885" lon="4.91775">
        <ele>405.5</ele>
        <time>2020-03-08T12:39:53Z</time>
      </trkpt>
      <trkpt lat="47.61892" lon="4.91768">
        <ele>406.9</ele>
        <time>2020-03-08T12:40:11Z</time>
      </trkpt>
      <trkpt lat="47.61894" lon="4.91766">
        <ele>407.1</ele>
        <time>2020-03-08T12:41:30Z</time>
      </trkpt>
      <trkpt lat="47.61894" lon="4.91766">
        <ele>407.1</ele>
        <time>2020-03-08T12:41:31Z</time>
      </trkpt>
      <trkpt lat="47.61894" lon="4.91766">
        <ele>407.1</ele>
        <time>2020-03-08T13:10:32Z</time>
      </trkpt>
      <trkpt lat="47.61888" lon="4.9177">
        <ele>400.8</ele>
        <time>2020-03-08T13:15:24Z</time>
      </trkpt>
      <trkpt lat="47.61885" lon="4.91772">
        <ele>401.2</ele>
        <time>2020-03-08T13:16:08Z</time>
      </trkpt>
      <trkpt lat="47.61871" lon="4.91735">
        <ele>408.9</ele>
        <time>2020-03-08T13:17:00Z</time>
      </trkpt>
      <trkpt lat="47.61869" lon="4.91722">
        <ele>410.3</ele>
        <time>2020-03-08T13:17:09Z</time>
      </trkpt>
      <trkpt lat="47.6187" lon="4.9171">
        <ele>410.1</ele>
        <time>2020-03-08T13:17:14Z</time>
      </trkpt>
      <trkpt lat="47.61872" lon="4.91698">
        <ele>411.7</ele>
        <time>2020-03-08T13:17:22Z</time>
      </trkpt>
      <trkpt lat="47.61874" lon="4.9169">
        <ele>412.1</ele>
        <time>2020-03-08T13:17:26Z</time>
      </trkpt>
      <trkpt lat="47.61877" lon="4.91678">
        <ele>411.6</ele>
        <time>2020-03-08T13:17:32Z</time>
      </trkpt>
      <trkpt lat="47.61875" lon="4.91676">
        <ele>411.4</ele>
        <time>2020-03-08T13:17:38Z</time>
      </trkpt>
      <trkpt lat="47.61871" lon="4.91695">
        <ele>410.4</ele>
        <time>2020-03-08T13:18:00Z</time>
      </trkpt>
      <trkpt lat="47.61825" lon="4.91693">
        <ele>403.6</ele>
        <time>2020-03-08T13:19:42Z</time>
      </trkpt>
      <trkpt lat="47.61797" lon="4.91653">
        <ele>398.3</ele>
        <time>2020-03-08T13:20:00Z</time>
      </trkpt>
      <trkpt lat="47.61797" lon="4.91653">
        <ele>398.3</ele>
        <time>2020-03-08T13:20:21Z</time>
      </trkpt>
      <trkpt lat="47.61775" lon="4.91657">
        <ele>397.5</ele>
        <time>2020-03-08T13:20:55Z</time>
      </trkpt>
      <trkpt lat="47.61767" lon="4.91649">
        <ele>401</ele>
        <time>2020-03-08T13:21:07Z</time>
      </trkpt>
      <trkpt lat="47.61762" lon="4.91647">
        <ele>403.8</ele>
        <time>2020-03-08T13:21:54Z</time>
      </trkpt>
      <trkpt lat="47.61727" lon="4.91606">
        <ele>414</ele>
        <time>2020-03-08T13:21:59Z</time>
      </trkpt>
      <trkpt lat="47.61722" lon="4.91601">
        <ele>414.7</ele>
        <time>2020-03-08T13:22:07Z</time>
      </trkpt>
      <trkpt lat="47.61716" lon="4.91596">
        <ele>413.8</ele>
        <time>2020-03-08T13:22:13Z</time>
      </trkpt>
      <trkpt lat="47.61708" lon="4.9159">
        <ele>412.8</ele>
        <time>2020-03-08T13:22:19Z</time>
      </trkpt>
      <trkpt lat="47.61702" lon="4.91584">
        <ele>412.7</ele>
        <time>2020-03-08T13:22:31Z</time>
      </trkpt>
      <trkpt lat="47.61696" lon="4.91576">
        <ele>413.8</ele>
        <time>2020-03-08T13:23:00Z</time>
      </trkpt>
      <trkpt lat="47.61668" lon="4.91542">
        <ele>414.5</ele>
        <time>2020-03-08T13:23:08Z</time>
      </trkpt>
      <trkpt lat="47.61662" lon="4.91533">
        <ele>413.8</ele>
        <time>2020-03-08T13:23:21Z</time>
      </trkpt>
      <trkpt lat="47.61654" lon="4.91522">
        <ele>413.4</ele>
        <time>2020-03-08T13:23:25Z</time>
      </trkpt>
      <trkpt lat="47.6165" lon="4.91516">
        <ele>413.3</ele>
        <time>2020-03-08T13:23:30Z</time>
      </trkpt>
      <trkpt lat="47.61644" lon="4.91508">
        <ele>413.2</ele>
        <time>2020-03-08T13:23:36Z</time>
      </trkpt>
      <trkpt lat="47.61638" lon="4.91501">
        <ele>413.2</ele>
        <time>2020-03-08T13:23:46Z</time>
      </trkpt>
      <trkpt lat="47.61633" lon="4.91495">
        <ele>413.3</ele>
        <time>2020-03-08T13:23:49Z</time>
      </trkpt>
      <trkpt lat="47.61624" lon="4.91494">
        <ele>411.5</ele>
        <time>2020-03-08T13:24:00Z</time>
      </trkpt>
      <trkpt lat="47.61619" lon="4.91505">
        <ele>408.9</ele>
        <time>2020-03-08T13:24:11Z</time>
      </trkpt>
      <trkpt lat="47.61619" lon="4.91516">
        <ele>407.8</ele>
        <time>2020-03-08T13:24:21Z</time>
      </trkpt>
      <trkpt lat="47.6162" lon="4.91527">
        <ele>406.7</ele>
        <time>2020-03-08T13:24:36Z</time>
      </trkpt>
      <trkpt lat="47.61622" lon="4.91539">
        <ele>406</ele>
        <time>2020-03-08T13:24:45Z</time>
      </trkpt>
      <trkpt lat="47.61623" lon="4.91552">
        <ele>405.4</ele>
        <time>2020-03-08T13:24:53Z</time>
      </trkpt>
      <trkpt lat="47.61626" lon="4.91561">
        <ele>405.8</ele>
        <time>2020-03-08T13:25:00Z</time>
      </trkpt>
      <trkpt lat="47.61633" lon="4.91567">
        <ele>407.8</ele>
        <time>2020-03-08T13:25:07Z</time>
      </trkpt>
      <trkpt lat="47.61639" lon="4.91577">
        <ele>409.1</ele>
        <time>2020-03-08T13:25:16Z</time>
      </trkpt>
      <trkpt lat="47.61639" lon="4.9158">
        <ele>409.7</ele>
        <time>2020-03-08T13:25:28Z</time>
      </trkpt>
      <trkpt lat="47.61642" lon="4.91591">
        <ele>409.7</ele>
        <time>2020-03-08T13:25:32Z</time>
      </trkpt>
      <trkpt lat="47.61644" lon="4.91595">
        <ele>410</ele>
        <time>2020-03-08T13:25:41Z</time>
      </trkpt>
      <trkpt lat="47.61649" lon="4.91604">
        <ele>410.7</ele>
        <time>2020-03-08T13:25:47Z</time>
      </trkpt>
      <trkpt lat="47.6165" lon="4.91606">
        <ele>410.7</ele>
        <time>2020-03-08T13:25:50Z</time>
      </trkpt>
      <trkpt lat="47.61656" lon="4.91615">
        <ele>411</ele>
        <time>2020-03-08T13:26:00Z</time>
      </trkpt>
      <trkpt lat="47.61662" lon="4.91623">
        <ele>410.5</ele>
        <time>2020-03-08T13:26:12Z</time>
      </trkpt>
      <trkpt lat="47.61667" lon="4.91633">
        <ele>411.1</ele>
        <time>2020-03-08T13:26:20Z</time>
      </trkpt>
      <trkpt lat="47.61667" lon="4.91635">
        <ele>410.9</ele>
        <time>2020-03-08T13:27:00Z</time>
      </trkpt>
      <trkpt lat="47.61679" lon="4.91661">
        <ele>406.5</ele>
        <time>2020-03-08T13:27:05Z</time>
      </trkpt>
      <trkpt lat="47.61679" lon="4.91661">
        <ele>406.5</ele>
        <time>2020-03-08T13:27:08Z</time>
      </trkpt>
      <trkpt lat="47.61686" lon="4.91692">
        <ele>399</ele>
        <time>2020-03-08T13:28:00Z</time>
      </trkpt>
      <trkpt lat="47.61679" lon="4.917">
        <ele>397.5</ele>
        <time>2020-03-08T13:28:05Z</time>
      </trkpt>
      <trkpt lat="47.61673" lon="4.9171">
        <ele>399.7</ele>
        <time>2020-03-08T13:28:22Z</time>
      </trkpt>
      <trkpt lat="47.61668" lon="4.9172">
        <ele>402.1</ele>
        <time>2020-03-08T13:28:39Z</time>
      </trkpt>
      <trkpt lat="47.61671" lon="4.91732">
        <ele>401.4</ele>
        <time>2020-03-08T13:30:01Z</time>
      </trkpt>
      <trkpt lat="47.61696" lon="4.91734">
        <ele>398.4</ele>
        <time>2020-03-08T13:30:05Z</time>
      </trkpt>
      <trkpt lat="47.61701" lon="4.91743">
        <ele>400.2</ele>
        <time>2020-03-08T13:30:20Z</time>
      </trkpt>
      <trkpt lat="47.61701" lon="4.91754">
        <ele>401.2</ele>
        <time>2020-03-08T13:30:27Z</time>
      </trkpt>
      <trkpt lat="47.61694" lon="4.91761">
        <ele>404.4</ele>
        <time>2020-03-08T13:30:40Z</time>
      </trkpt>
      <trkpt lat="47.61687" lon="4.91758">
        <ele>401.3</ele>
        <time>2020-03-08T13:30:58Z</time>
      </trkpt>
      <trkpt lat="47.61679" lon="4.91754">
        <ele>400.5</ele>
        <time>2020-03-08T13:31:07Z</time>
      </trkpt>
      <trkpt lat="47.61671" lon="4.91751">
        <ele>399.6</ele>
        <time>2020-03-08T13:31:14Z</time>
      </trkpt>
      <trkpt lat="47.61664" lon="4.91751">
        <ele>398.5</ele>
        <time>2020-03-08T13:31:21Z</time>
      </trkpt>
      <trkpt lat="47.61656" lon="4.91757">
        <ele>395</ele>
        <time>2020-03-08T13:31:38Z</time>
      </trkpt>
      <trkpt lat="47.61655" lon="4.91759">
        <ele>395</ele>
        <time>2020-03-08T13:31:59Z</time>
      </trkpt>
      <trkpt lat="47.61657" lon="4.91746">
        <ele>395.3</ele>
        <time>2020-03-08T13:32:04Z</time>
      </trkpt>
      <trkpt lat="47.61649" lon="4.91742">
        <ele>385.5</ele>
        <time>2020-03-08T13:33:16Z</time>
      </trkpt>
      <trkpt lat="47.6164" lon="4.91738">
        <ele>384.5</ele>
        <time>2020-03-08T13:33:35Z</time>
      </trkpt>
      <trkpt lat="47.61632" lon="4.91743">
        <ele>386.1</ele>
        <time>2020-03-08T13:34:57Z</time>
      </trkpt>
      <trkpt lat="47.61585" lon="4.91719">
        <ele>395.1</ele>
        <time>2020-03-08T13:35:01Z</time>
      </trkpt>
      <trkpt lat="47.61579" lon="4.91717">
        <ele>395.9</ele>
        <time>2020-03-08T13:35:07Z</time>
      </trkpt>
      <trkpt lat="47.61533" lon="4.91693">
        <ele>404.2</ele>
        <time>2020-03-08T13:36:00Z</time>
      </trkpt>
      <trkpt lat="47.61518" lon="4.91699">
        <ele>410.7</ele>
        <time>2020-03-08T13:36:28Z</time>
      </trkpt>
      <trkpt lat="47.6151" lon="4.91699">
        <ele>412.9</ele>
        <time>2020-03-08T13:36:35Z</time>
      </trkpt>
      <trkpt lat="47.61507" lon="4.91698">
        <ele>413.6</ele>
        <time>2020-03-08T13:36:38Z</time>
      </trkpt>
      <trkpt lat="47.61494" lon="4.91699">
        <ele>415.7</ele>
        <time>2020-03-08T13:37:00Z</time>
      </trkpt>
      <trkpt lat="47.61479" lon="4.9171">
        <ele>410.2</ele>
        <time>2020-03-08T13:38:00Z</time>
      </trkpt>
      <trkpt lat="47.61475" lon="4.91737">
        <ele>405</ele>
        <time>2020-03-08T13:38:05Z</time>
      </trkpt>
      <trkpt lat="47.61479" lon="4.91761">
        <ele>404.6</ele>
        <time>2020-03-08T13:38:25Z</time>
      </trkpt>
      <trkpt lat="47.61479" lon="4.91761">
        <ele>404.5</ele>
        <time>2020-03-08T13:38:27Z</time>
      </trkpt>
      <trkpt lat="47.61482" lon="4.91777">
        <ele>405.6</ele>
        <time>2020-03-08T13:38:40Z</time>
      </trkpt>
      <trkpt lat="47.61483" lon="4.91788">
        <ele>406.4</ele>
        <time>2020-03-08T13:38:49Z</time>
      </trkpt>
      <trkpt lat="47.61483" lon="4.91791">
        <ele>406.3</ele>
        <time>2020-03-08T13:39:02Z</time>
      </trkpt>
      <trkpt lat="47.61488" lon="4.91818">
        <ele>405.6</ele>
        <time>2020-03-08T13:39:07Z</time>
      </trkpt>
      <trkpt lat="47.61491" lon="4.91822">
        <ele>405.8</ele>
        <time>2020-03-08T13:39:15Z</time>
      </trkpt>
      <trkpt lat="47.61498" lon="4.91831">
        <ele>405.8</ele>
        <time>2020-03-08T13:39:19Z</time>
      </trkpt>
      <trkpt lat="47.61502" lon="4.91836">
        <ele>405.9</ele>
        <time>2020-03-08T13:39:25Z</time>
      </trkpt>
      <trkpt lat="47.61505" lon="4.91841">
        <ele>406.1</ele>
        <time>2020-03-08T13:39:29Z</time>
      </trkpt>
      <trkpt lat="47.6151" lon="4.91851">
        <ele>406</ele>
        <time>2020-03-08T13:39:36Z</time>
      </trkpt>
      <trkpt lat="47.61515" lon="4.91858">
        <ele>405</ele>
        <time>2020-03-08T13:39:41Z</time>
      </trkpt>
      <trkpt lat="47.61522" lon="4.91864">
        <ele>403</ele>
        <time>2020-03-08T13:39:48Z</time>
      </trkpt>
      <trkpt lat="47.61528" lon="4.91871">
        <ele>400.8</ele>
        <time>2020-03-08T13:39:54Z</time>
      </trkpt>
      <trkpt lat="47.61534" lon="4.91878">
        <ele>399.2</ele>
        <time>2020-03-08T13:40:00Z</time>
      </trkpt>
      <trkpt lat="47.61536" lon="4.91882">
        <ele>398.7</ele>
        <time>2020-03-08T13:40:20Z</time>
      </trkpt>
      <trkpt lat="47.61551" lon="4.91897">
        <ele>397</ele>
        <time>2020-03-08T13:40:25Z</time>
      </trkpt>
      <trkpt lat="47.61559" lon="4.91904">
        <ele>395.9</ele>
        <time>2020-03-08T13:40:43Z</time>
      </trkpt>
      <trkpt lat="47.61571" lon="4.91928">
        <ele>394.3</ele>
        <time>2020-03-08T13:41:00Z</time>
      </trkpt>
      <trkpt lat="47.61597" lon="4.9197">
        <ele>397.4</ele>
        <time>2020-03-08T13:41:46Z</time>
      </trkpt>
      <trkpt lat="47.61616" lon="4.91997">
        <ele>398</ele>
        <time>2020-03-08T13:42:00Z</time>
      </trkpt>
      <trkpt lat="47.61621" lon="4.92003">
        <ele>398.8</ele>
        <time>2020-03-08T13:42:07Z</time>
      </trkpt>
      <trkpt lat="47.61628" lon="4.9201">
        <ele>399.8</ele>
        <time>2020-03-08T13:42:17Z</time>
      </trkpt>
      <trkpt lat="47.61634" lon="4.92016">
        <ele>400</ele>
        <time>2020-03-08T13:42:28Z</time>
      </trkpt>
      <trkpt lat="47.61648" lon="4.92037">
        <ele>403.2</ele>
        <time>2020-03-08T13:43:00Z</time>
      </trkpt>
      <trkpt lat="47.61646" lon="4.92049">
        <ele>405.6</ele>
        <time>2020-03-08T13:43:09Z</time>
      </trkpt>
      <trkpt lat="47.61646" lon="4.9205">
        <ele>405.7</ele>
        <time>2020-03-08T13:43:12Z</time>
      </trkpt>
      <trkpt lat="47.61617" lon="4.92105">
        <ele>399.1</ele>
        <time>2020-03-08T13:44:00Z</time>
      </trkpt>
      <trkpt lat="47.61611" lon="4.92112">
        <ele>397.9</ele>
        <time>2020-03-08T13:44:07Z</time>
      </trkpt>
      <trkpt lat="47.61607" lon="4.92119">
        <ele>397.1</ele>
        <time>2020-03-08T13:45:28Z</time>
      </trkpt>
      <trkpt lat="47.61598" lon="4.92122">
        <ele>396</ele>
        <time>2020-03-08T13:46:16Z</time>
      </trkpt>
      <trkpt lat="47.61591" lon="4.92137">
        <ele>395.1</ele>
        <time>2020-03-08T13:46:52Z</time>
      </trkpt>
      <trkpt lat="47.61586" lon="4.92142">
        <ele>395.6</ele>
        <time>2020-03-08T13:46:59Z</time>
      </trkpt>
      <trkpt lat="47.61394" lon="4.92365">
        <ele>413.3</ele>
        <time>2020-03-08T13:52:03Z</time>
      </trkpt>
      <trkpt lat="47.61391" lon="4.92374">
        <ele>415.4</ele>
        <time>2020-03-08T13:52:12Z</time>
      </trkpt>
      <trkpt lat="47.61389" lon="4.92379">
        <ele>415.8</ele>
        <time>2020-03-08T13:52:58Z</time>
      </trkpt>
      <trkpt lat="47.61384" lon="4.92391">
        <ele>414.3</ele>
        <time>2020-03-08T13:54:00Z</time>
      </trkpt>
      <trkpt lat="47.61379" lon="4.92402">
        <ele>405.7</ele>
        <time>2020-03-08T13:55:12Z</time>
      </trkpt>
      <trkpt lat="47.61372" lon="4.9241">
        <ele>406.7</ele>
        <time>2020-03-08T13:55:30Z</time>
      </trkpt>
      <trkpt lat="47.61372" lon="4.92413">
        <ele>406.7</ele>
        <time>2020-03-08T13:55:44Z</time>
      </trkpt>
      <trkpt lat="47.61365" lon="4.92424">
        <ele>406.5</ele>
        <time>2020-03-08T13:55:47Z</time>
      </trkpt>
      <trkpt lat="47.61362" lon="4.9243">
        <ele>406.8</ele>
        <time>2020-03-08T13:55:52Z</time>
      </trkpt>
      <trkpt lat="47.61358" lon="4.92438">
        <ele>407.7</ele>
        <time>2020-03-08T13:56:00Z</time>
      </trkpt>
      <trkpt lat="47.6135" lon="4.92461">
        <ele>410.8</ele>
        <time>2020-03-08T13:56:55Z</time>
      </trkpt>
      <trkpt lat="47.61317" lon="4.92583">
        <ele>435.8</ele>
        <time>2020-03-08T13:58:00Z</time>
      </trkpt>
      <trkpt lat="47.61312" lon="4.92593">
        <ele>436.7</ele>
        <time>2020-03-08T13:58:12Z</time>
      </trkpt>
      <trkpt lat="47.61308" lon="4.92603">
        <ele>439.1</ele>
        <time>2020-03-08T14:00:00Z</time>
      </trkpt>
      <trkpt lat="47.61278" lon="4.92667">
        <ele>434.7</ele>
        <time>2020-03-08T14:00:02Z</time>
      </trkpt>
      <trkpt lat="47.61276" lon="4.92679">
        <ele>437.4</ele>
        <time>2020-03-08T14:00:13Z</time>
      </trkpt>
      <trkpt lat="47.61258" lon="4.92737">
        <ele>448.2</ele>
        <time>2020-03-08T14:01:00Z</time>
      </trkpt>
      <trkpt lat="47.61213" lon="4.92818">
        <ele>454.8</ele>
        <time>2020-03-08T14:02:00Z</time>
      </trkpt>
      <trkpt lat="47.61211" lon="4.92824">
        <ele>454.6</ele>
        <time>2020-03-08T14:02:07Z</time>
      </trkpt>
      <trkpt lat="47.61207" lon="4.92834">
        <ele>454</ele>
        <time>2020-03-08T14:02:12Z</time>
      </trkpt>
      <trkpt lat="47.61204" lon="4.92839">
        <ele>453.9</ele>
        <time>2020-03-08T14:02:18Z</time>
      </trkpt>
      <trkpt lat="47.6116" lon="4.92877">
        <ele>451.5</ele>
        <time>2020-03-08T14:03:00Z</time>
      </trkpt>
      <trkpt lat="47.61104" lon="4.92918">
        <ele>452.6</ele>
        <time>2020-03-08T14:04:00Z</time>
      </trkpt>
      <trkpt lat="47.61097" lon="4.92923">
        <ele>451.8</ele>
        <time>2020-03-08T14:04:47Z</time>
      </trkpt>
      <trkpt lat="47.61059" lon="4.92974">
        <ele>460.5</ele>
        <time>2020-03-08T14:05:01Z</time>
      </trkpt>
      <trkpt lat="47.61055" lon="4.92984">
        <ele>463</ele>
        <time>2020-03-08T14:05:10Z</time>
      </trkpt>
      <trkpt lat="47.61052" lon="4.92991">
        <ele>465.3</ele>
        <time>2020-03-08T14:05:16Z</time>
      </trkpt>
      <trkpt lat="47.61031" lon="4.93044">
        <ele>471.9</ele>
        <time>2020-03-08T14:06:00Z</time>
      </trkpt>
      <trkpt lat="47.61026" lon="4.93052">
        <ele>472.5</ele>
        <time>2020-03-08T14:06:07Z</time>
      </trkpt>
      <trkpt lat="47.61022" lon="4.93059">
        <ele>473.2</ele>
        <time>2020-03-08T14:06:14Z</time>
      </trkpt>
      <trkpt lat="47.61016" lon="4.93068">
        <ele>472.7</ele>
        <time>2020-03-08T14:06:23Z</time>
      </trkpt>
      <trkpt lat="47.6101" lon="4.93076">
        <ele>472</ele>
        <time>2020-03-08T14:07:00Z</time>
      </trkpt>
      <trkpt lat="47.60985" lon="4.93112">
        <ele>469.5</ele>
        <time>2020-03-08T14:07:02Z</time>
      </trkpt>
      <trkpt lat="47.60979" lon="4.93121">
        <ele>469</ele>
        <time>2020-03-08T14:07:10Z</time>
      </trkpt>
      <trkpt lat="47.60973" lon="4.9313">
        <ele>468.3</ele>
        <time>2020-03-08T14:07:18Z</time>
      </trkpt>
      <trkpt lat="47.60967" lon="4.93139">
        <ele>467.5</ele>
        <time>2020-03-08T14:07:27Z</time>
      </trkpt>
      <trkpt lat="47.60962" lon="4.93148">
        <ele>467.7</ele>
        <time>2020-03-08T14:07:40Z</time>
      </trkpt>
      <trkpt lat="47.60956" lon="4.93158">
        <ele>467.2</ele>
        <time>2020-03-08T14:07:50Z</time>
      </trkpt>
      <trkpt lat="47.6095" lon="4.93167">
        <ele>466.3</ele>
        <time>2020-03-08T14:07:59Z</time>
      </trkpt>
      <trkpt lat="47.60944" lon="4.93175">
        <ele>465.8</ele>
        <time>2020-03-08T14:08:09Z</time>
      </trkpt>
      <trkpt lat="47.60904" lon="4.93227">
        <ele>465</ele>
        <time>2020-03-08T14:09:00Z</time>
      </trkpt>
      <trkpt lat="47.609" lon="4.93231">
        <ele>464.6</ele>
        <time>2020-03-08T14:09:05Z</time>
      </trkpt>
      <trkpt lat="47.60894" lon="4.93237">
        <ele>464.2</ele>
        <time>2020-03-08T14:09:14Z</time>
      </trkpt>
      <trkpt lat="47.60888" lon="4.93243">
        <ele>463.8</ele>
        <time>2020-03-08T14:09:17Z</time>
      </trkpt>
      <trkpt lat="47.60884" lon="4.93247">
        <ele>463.7</ele>
        <time>2020-03-08T14:09:25Z</time>
      </trkpt>
      <trkpt lat="47.6085" lon="4.93272">
        <ele>461</ele>
        <time>2020-03-08T14:10:00Z</time>
      </trkpt>
      <trkpt lat="47.60846" lon="4.93274">
        <ele>456.9</ele>
        <time>2020-03-08T14:10:49Z</time>
      </trkpt>
      <trkpt lat="47.60838" lon="4.93278">
        <ele>457.1</ele>
        <time>2020-03-08T14:10:55Z</time>
      </trkpt>
      <trkpt lat="47.60832" lon="4.93282">
        <ele>457.2</ele>
        <time>2020-03-08T14:11:04Z</time>
      </trkpt>
      <trkpt lat="47.60779" lon="4.93313">
        <ele>455.6</ele>
        <time>2020-03-08T14:11:53Z</time>
      </trkpt>
      <trkpt lat="47.60774" lon="4.93316">
        <ele>455.5</ele>
        <time>2020-03-08T14:11:58Z</time>
      </trkpt>
      <trkpt lat="47.60762" lon="4.93319">
        <ele>454.5</ele>
        <time>2020-03-08T14:12:08Z</time>
      </trkpt>
      <trkpt lat="47.60756" lon="4.93321">
        <ele>453.9</ele>
        <time>2020-03-08T14:12:14Z</time>
      </trkpt>
      <trkpt lat="47.60748" lon="4.93322">
        <ele>452.6</ele>
        <time>2020-03-08T14:12:19Z</time>
      </trkpt>
      <trkpt lat="47.60743" lon="4.93324">
        <ele>452.3</ele>
        <time>2020-03-08T14:12:25Z</time>
      </trkpt>
      <trkpt lat="47.6074" lon="4.93326">
        <ele>452.7</ele>
        <time>2020-03-08T14:12:33Z</time>
      </trkpt>
      <trkpt lat="47.60715" lon="4.93333">
        <ele>453.3</ele>
        <time>2020-03-08T14:12:51Z</time>
      </trkpt>
      <trkpt lat="47.60708" lon="4.93333">
        <ele>453.9</ele>
        <time>2020-03-08T14:12:57Z</time>
      </trkpt>
      <trkpt lat="47.60699" lon="4.93335">
        <ele>453.9</ele>
        <time>2020-03-08T14:13:08Z</time>
      </trkpt>
      <trkpt lat="47.60645" lon="4.93344">
        <ele>453.5</ele>
        <time>2020-03-08T14:14:00Z</time>
      </trkpt>
      <trkpt lat="47.60638" lon="4.93348">
        <ele>453.8</ele>
        <time>2020-03-08T14:14:07Z</time>
      </trkpt>
      <trkpt lat="47.60633" lon="4.93351">
        <ele>453.6</ele>
        <time>2020-03-08T14:14:11Z</time>
      </trkpt>
      <trkpt lat="47.60628" lon="4.93355">
        <ele>453.2</ele>
        <time>2020-03-08T14:15:00Z</time>
      </trkpt>
      <trkpt lat="47.60572" lon="4.93428">
        <ele>443.2</ele>
        <time>2020-03-08T14:15:51Z</time>
      </trkpt>
      <trkpt lat="47.60522" lon="4.93436">
        <ele>435.4</ele>
        <time>2020-03-08T14:16:04Z</time>
      </trkpt>
      <trkpt lat="47.60514" lon="4.93436">
        <ele>433.7</ele>
        <time>2020-03-08T14:17:00Z</time>
      </trkpt>
      <trkpt lat="47.60465" lon="4.93466">
        <ele>415.3</ele>
        <time>2020-03-08T14:17:01Z</time>
      </trkpt>
      <trkpt lat="47.60424" lon="4.93535">
        <ele>403.5</ele>
        <time>2020-03-08T14:18:00Z</time>
      </trkpt>
      <trkpt lat="47.60418" lon="4.9354">
        <ele>402.5</ele>
        <time>2020-03-08T14:18:04Z</time>
      </trkpt>
      <trkpt lat="47.60412" lon="4.93546">
        <ele>401.3</ele>
        <time>2020-03-08T14:18:11Z</time>
      </trkpt>
      <trkpt lat="47.60406" lon="4.93551">
        <ele>400</ele>
        <time>2020-03-08T14:18:16Z</time>
      </trkpt>
      <trkpt lat="47.60401" lon="4.93554">
        <ele>399.3</ele>
        <time>2020-03-08T14:18:21Z</time>
      </trkpt>
      <trkpt lat="47.60393" lon="4.93558">
        <ele>398.3</ele>
        <time>2020-03-08T14:18:27Z</time>
      </trkpt>
      <trkpt lat="47.60357" lon="4.93574">
        <ele>393.6</ele>
        <time>2020-03-08T14:19:00Z</time>
      </trkpt>
      <trkpt lat="47.60351" lon="4.93579">
        <ele>392.8</ele>
        <time>2020-03-08T14:19:07Z</time>
      </trkpt>
      <trkpt lat="47.60303" lon="4.93639">
        <ele>385.2</ele>
        <time>2020-03-08T14:20:00Z</time>
      </trkpt>
      <trkpt lat="47.60297" lon="4.93645">
        <ele>385.1</ele>
        <time>2020-03-08T14:20:05Z</time>
      </trkpt>
      <trkpt lat="47.60293" lon="4.93651">
        <ele>384.5</ele>
        <time>2020-03-08T14:20:12Z</time>
      </trkpt>
      <trkpt lat="47.60287" lon="4.93656">
        <ele>383.4</ele>
        <time>2020-03-08T14:20:16Z</time>
      </trkpt>
      <trkpt lat="47.6028" lon="4.93661">
        <ele>382.1</ele>
        <time>2020-03-08T14:20:22Z</time>
      </trkpt>
      <trkpt lat="47.60272" lon="4.93665">
        <ele>380.6</ele>
        <time>2020-03-08T14:20:29Z</time>
      </trkpt>
      <trkpt lat="47.60265" lon="4.93667">
        <ele>379.6</ele>
        <time>2020-03-08T14:20:35Z</time>
      </trkpt>
      <trkpt lat="47.60258" lon="4.93671">
        <ele>378.9</ele>
        <time>2020-03-08T14:20:41Z</time>
      </trkpt>
      <trkpt lat="47.60254" lon="4.93675">
        <ele>378.3</ele>
        <time>2020-03-08T14:20:51Z</time>
      </trkpt>
      <trkpt lat="47.6025" lon="4.93692">
        <ele>377.5</ele>
        <time>2020-03-08T14:20:56Z</time>
      </trkpt>
      <trkpt lat="47.60248" lon="4.93703">
        <ele>377.5</ele>
        <time>2020-03-08T14:21:09Z</time>
      </trkpt>
      <trkpt lat="47.60248" lon="4.9371">
        <ele>378.3</ele>
        <time>2020-03-08T14:21:18Z</time>
      </trkpt>
      <trkpt lat="47.60251" lon="4.93722">
        <ele>379</ele>
        <time>2020-03-08T14:21:23Z</time>
      </trkpt>
      <trkpt lat="47.60251" lon="4.93726">
        <ele>379.4</ele>
        <time>2020-03-08T14:21:32Z</time>
      </trkpt>
      <trkpt lat="47.6025" lon="4.9374">
        <ele>380.5</ele>
        <time>2020-03-08T14:21:36Z</time>
      </trkpt>
      <trkpt lat="47.60253" lon="4.93752">
        <ele>381.7</ele>
        <time>2020-03-08T14:21:45Z</time>
      </trkpt>
      <trkpt lat="47.60253" lon="4.93765">
        <ele>382.1</ele>
        <time>2020-03-08T14:21:54Z</time>
      </trkpt>
      <trkpt lat="47.60257" lon="4.93776">
        <ele>382.8</ele>
        <time>2020-03-08T14:22:06Z</time>
      </trkpt>
      <trkpt lat="47.60261" lon="4.93784">
        <ele>382.3</ele>
        <time>2020-03-08T14:22:10Z</time>
      </trkpt>
      <trkpt lat="47.60265" lon="4.93794">
        <ele>382.5</ele>
        <time>2020-03-08T14:22:19Z</time>
      </trkpt>
      <trkpt lat="47.60269" lon="4.93804">
        <ele>383.5</ele>
        <time>2020-03-08T14:22:28Z</time>
      </trkpt>
      <trkpt lat="47.6027" lon="4.93808">
        <ele>383.9</ele>
        <time>2020-03-08T14:22:30Z</time>
      </trkpt>
      <trkpt lat="47.60281" lon="4.93847">
        <ele>385.5</ele>
        <time>2020-03-08T14:23:00Z</time>
      </trkpt>
      <trkpt lat="47.60284" lon="4.93862">
        <ele>387.8</ele>
        <time>2020-03-08T14:23:05Z</time>
      </trkpt>
      <trkpt lat="47.60288" lon="4.93881">
        <ele>390.8</ele>
        <time>2020-03-08T14:23:09Z</time>
      </trkpt>
      <trkpt lat="47.60293" lon="4.93891">
        <ele>392.5</ele>
        <time>2020-03-08T14:23:14Z</time>
      </trkpt>
      <trkpt lat="47.60293" lon="4.93893">
        <ele>393</ele>
        <time>2020-03-08T14:23:15Z</time>
      </trkpt>
      <trkpt lat="47.60282" lon="4.93908">
        <ele>392</ele>
        <time>2020-03-08T14:23:24Z</time>
      </trkpt>
      <trkpt lat="47.60276" lon="4.93916">
        <ele>390</ele>
        <time>2020-03-08T14:23:31Z</time>
      </trkpt>
      <trkpt lat="47.60275" lon="4.93922">
        <ele>388.9</ele>
        <time>2020-03-08T14:23:34Z</time>
      </trkpt>
      <trkpt lat="47.6027" lon="4.93972">
        <ele>381.8</ele>
        <time>2020-03-08T14:24:00Z</time>
      </trkpt>
      <trkpt lat="47.60261" lon="4.93974">
        <ele>380.8</ele>
        <time>2020-03-08T14:24:06Z</time>
      </trkpt>
      <trkpt lat="47.60253" lon="4.93973">
        <ele>380.4</ele>
        <time>2020-03-08T14:24:14Z</time>
      </trkpt>
      <trkpt lat="47.60245" lon="4.93971">
        <ele>379.8</ele>
        <time>2020-03-08T14:24:43Z</time>
      </trkpt>
      <trkpt lat="47.60219" lon="4.93956">
        <ele>379.5</ele>
        <time>2020-03-08T14:25:00Z</time>
      </trkpt>
      <trkpt lat="47.60193" lon="4.93939">
        <ele>378.3</ele>
        <time>2020-03-08T14:25:11Z</time>
      </trkpt>
      <trkpt lat="47.60184" lon="4.93925">
        <ele>374.6</ele>
        <time>2020-03-08T14:25:28Z</time>
      </trkpt>
      <trkpt lat="47.60177" lon="4.93919">
        <ele>371</ele>
        <time>2020-03-08T14:26:06Z</time>
      </trkpt>
      <trkpt lat="47.60172" lon="4.9391">
        <ele>372.3</ele>
        <time>2020-03-08T14:26:19Z</time>
      </trkpt>
      <trkpt lat="47.60167" lon="4.939">
        <ele>373.8</ele>
        <time>2020-03-08T14:26:33Z</time>
      </trkpt>
      <trkpt lat="47.60165" lon="4.93893">
        <ele>375</ele>
        <time>2020-03-08T14:26:43Z</time>
      </trkpt>
      <trkpt lat="47.60124" lon="4.93916">
        <ele>388.4</ele>
        <time>2020-03-08T14:28:34Z</time>
      </trkpt>
      <trkpt lat="47.6012" lon="4.93926">
        <ele>391</ele>
        <time>2020-03-08T14:28:46Z</time>
      </trkpt>
      <trkpt lat="47.60118" lon="4.93934">
        <ele>393.2</ele>
        <time>2020-03-08T14:28:54Z</time>
      </trkpt>
      <trkpt lat="47.60113" lon="4.93945">
        <ele>395.4</ele>
        <time>2020-03-08T14:29:07Z</time>
      </trkpt>
      <trkpt lat="47.60113" lon="4.93954">
        <ele>397</ele>
        <time>2020-03-08T14:29:16Z</time>
      </trkpt>
      <trkpt lat="47.60115" lon="4.93962">
        <ele>398.5</ele>
        <time>2020-03-08T14:29:21Z</time>
      </trkpt>
      <trkpt lat="47.6012" lon="4.93988">
        <ele>405.2</ele>
        <time>2020-03-08T14:29:41Z</time>
      </trkpt>
      <trkpt lat="47.6012" lon="4.93997">
        <ele>407.8</ele>
        <time>2020-03-08T14:29:47Z</time>
      </trkpt>
      <trkpt lat="47.60119" lon="4.94002">
        <ele>408.2</ele>
        <time>2020-03-08T14:29:54Z</time>
      </trkpt>
      <trkpt lat="47.60122" lon="4.94016">
        <ele>411.3</ele>
        <time>2020-03-08T14:29:58Z</time>
      </trkpt>
      <trkpt lat="47.60124" lon="4.94027">
        <ele>413.4</ele>
        <time>2020-03-08T14:30:04Z</time>
      </trkpt>
      <trkpt lat="47.60125" lon="4.94036">
        <ele>415.3</ele>
        <time>2020-03-08T14:30:16Z</time>
      </trkpt>
      <trkpt lat="47.6012" lon="4.94074">
        <ele>413.9</ele>
        <time>2020-03-08T14:30:36Z</time>
      </trkpt>
      <trkpt lat="47.6012" lon="4.94087">
        <ele>413.6</ele>
        <time>2020-03-08T14:30:42Z</time>
      </trkpt>
      <trkpt lat="47.6012" lon="4.94097">
        <ele>414</ele>
        <time>2020-03-08T14:30:49Z</time>
      </trkpt>
      <trkpt lat="47.60109" lon="4.94113">
        <ele>414.8</ele>
        <time>2020-03-08T14:31:00Z</time>
      </trkpt>
      <trkpt lat="47.60102" lon="4.94121">
        <ele>414.7</ele>
        <time>2020-03-08T14:31:07Z</time>
      </trkpt>
      <trkpt lat="47.60097" lon="4.94126">
        <ele>414.1</ele>
        <time>2020-03-08T14:31:15Z</time>
      </trkpt>
      <trkpt lat="47.60091" lon="4.94135">
        <ele>413.8</ele>
        <time>2020-03-08T14:31:26Z</time>
      </trkpt>
      <trkpt lat="47.60079" lon="4.94145">
        <ele>410.5</ele>
        <time>2020-03-08T14:31:31Z</time>
      </trkpt>
      <trkpt lat="47.60078" lon="4.94147">
        <ele>410.2</ele>
        <time>2020-03-08T14:31:34Z</time>
      </trkpt>
      <trkpt lat="47.60065" lon="4.94173">
        <ele>405.6</ele>
        <time>2020-03-08T14:32:07Z</time>
      </trkpt>
      <trkpt lat="47.6006" lon="4.94167">
        <ele>403.8</ele>
        <time>2020-03-08T14:36:00Z</time>
      </trkpt>
      <trkpt lat="47.60068" lon="4.94196">
        <ele>399.6</ele>
        <time>2020-03-08T14:36:04Z</time>
      </trkpt>
      <trkpt lat="47.60069" lon="4.942">
        <ele>399.1</ele>
        <time>2020-03-08T14:36:54Z</time>
      </trkpt>
      <trkpt lat="47.60113" lon="4.94245">
        <ele>397.9</ele>
        <time>2020-03-08T14:37:00Z</time>
      </trkpt>
      <trkpt lat="47.60115" lon="4.94249">
        <ele>398.4</ele>
        <time>2020-03-08T14:37:04Z</time>
      </trkpt>
      <trkpt lat="47.60128" lon="4.94269">
        <ele>394.1</ele>
        <time>2020-03-08T14:37:58Z</time>
      </trkpt>
      <trkpt lat="47.60293" lon="4.94352">
        <ele>380.4</ele>
        <time>2020-03-08T14:40:29Z</time>
      </trkpt>
      <trkpt lat="47.60301" lon="4.94353">
        <ele>379.1</ele>
        <time>2020-03-08T14:40:34Z</time>
      </trkpt>
      <trkpt lat="47.60304" lon="4.94354">
        <ele>379</ele>
        <time>2020-03-08T14:40:36Z</time>
      </trkpt>
      <trkpt lat="47.60312" lon="4.94354">
        <ele>379.2</ele>
        <time>2020-03-08T14:41:00Z</time>
      </trkpt>
      <trkpt lat="47.60337" lon="4.94359">
        <ele>382.7</ele>
        <time>2020-03-08T14:41:16Z</time>
      </trkpt>
      <trkpt lat="47.60354" lon="4.94374">
        <ele>380.3</ele>
        <time>2020-03-08T14:41:21Z</time>
      </trkpt>
      <trkpt lat="47.60358" lon="4.94379">
        <ele>379.2</ele>
        <time>2020-03-08T14:41:29Z</time>
      </trkpt>
      <trkpt lat="47.60365" lon="4.94384">
        <ele>377.9</ele>
        <time>2020-03-08T14:41:33Z</time>
      </trkpt>
      <trkpt lat="47.60396" lon="4.94417">
        <ele>368.6</ele>
        <time>2020-03-08T14:42:00Z</time>
      </trkpt>
      <trkpt lat="47.60401" lon="4.94424">
        <ele>367.3</ele>
        <time>2020-03-08T14:42:03Z</time>
      </trkpt>
      <trkpt lat="47.60407" lon="4.94432">
        <ele>365.9</ele>
        <time>2020-03-08T14:42:08Z</time>
      </trkpt>
      <trkpt lat="47.60412" lon="4.9444">
        <ele>364.6</ele>
        <time>2020-03-08T14:42:17Z</time>
      </trkpt>
      <trkpt lat="47.60425" lon="4.94463">
        <ele>363.1</ele>
        <time>2020-03-08T14:42:38Z</time>
      </trkpt>
      <trkpt lat="47.60431" lon="4.94473">
        <ele>362.2</ele>
        <time>2020-03-08T14:42:42Z</time>
      </trkpt>
      <trkpt lat="47.60437" lon="4.94484">
        <ele>361.4</ele>
        <time>2020-03-08T14:42:53Z</time>
      </trkpt>
      <trkpt lat="47.60444" lon="4.94494">
        <ele>360.4</ele>
        <time>2020-03-08T14:42:57Z</time>
      </trkpt>
      <trkpt lat="47.60447" lon="4.945">
        <ele>359.9</ele>
        <time>2020-03-08T14:43:00Z</time>
      </trkpt>
      <trkpt lat="47.60476" lon="4.946">
        <ele>358.2</ele>
        <time>2020-03-08T14:44:03Z</time>
      </trkpt>
      <trkpt lat="47.60478" lon="4.9461">
        <ele>357.8</ele>
        <time>2020-03-08T14:44:06Z</time>
      </trkpt>
      <trkpt lat="47.60481" lon="4.94619">
        <ele>357.5</ele>
        <time>2020-03-08T14:44:13Z</time>
      </trkpt>
      <trkpt lat="47.60483" lon="4.94628">
        <ele>357.1</ele>
        <time>2020-03-08T14:44:17Z</time>
      </trkpt>
      <trkpt lat="47.60484" lon="4.94639">
        <ele>356.4</ele>
        <time>2020-03-08T14:44:22Z</time>
      </trkpt>
      <trkpt lat="47.60487" lon="4.9465">
        <ele>356.2</ele>
        <time>2020-03-08T14:44:29Z</time>
      </trkpt>
      <trkpt lat="47.60488" lon="4.94653">
        <ele>356.1</ele>
        <time>2020-03-08T14:44:33Z</time>
      </trkpt>
      <trkpt lat="47.60492" lon="4.94677">
        <ele>355.6</ele>
        <time>2020-03-08T14:44:59Z</time>
      </trkpt>
      <trkpt lat="47.60497" lon="4.94711">
        <ele>357.5</ele>
        <time>2020-03-08T14:45:04Z</time>
      </trkpt>
      <trkpt lat="47.60499" lon="4.9472">
        <ele>358.2</ele>
        <time>2020-03-08T14:45:12Z</time>
      </trkpt>
      <trkpt lat="47.60502" lon="4.94729">
        <ele>358.3</ele>
        <time>2020-03-08T14:45:14Z</time>
      </trkpt>
      <trkpt lat="47.60503" lon="4.94733">
        <ele>358.4</ele>
        <time>2020-03-08T14:46:00Z</time>
      </trkpt>
      <trkpt lat="47.60523" lon="4.94816">
        <ele>360</ele>
        <time>2020-03-08T14:46:05Z</time>
      </trkpt>
      <trkpt lat="47.60525" lon="4.94827">
        <ele>359.5</ele>
        <time>2020-03-08T14:46:12Z</time>
      </trkpt>
      <trkpt lat="47.60526" lon="4.94832">
        <ele>359.1</ele>
        <time>2020-03-08T14:46:14Z</time>
      </trkpt>
      <trkpt lat="47.60653" lon="4.95467">
        <ele>351.1</ele>
        <time>2020-03-08T14:52:07Z</time>
      </trkpt>
      <trkpt lat="47.60654" lon="4.95478">
        <ele>351.1</ele>
        <time>2020-03-08T14:52:13Z</time>
      </trkpt>
      <trkpt lat="47.60656" lon="4.95489">
        <ele>350.5</ele>
        <time>2020-03-08T14:52:19Z</time>
      </trkpt>
      <trkpt lat="47.60656" lon="4.95499">
        <ele>350.4</ele>
        <time>2020-03-08T14:52:24Z</time>
      </trkpt>
      <trkpt lat="47.60658" lon="4.95512">
        <ele>350.1</ele>
        <time>2020-03-08T14:52:31Z</time>
      </trkpt>
      <trkpt lat="47.60659" lon="4.95525">
        <ele>350.1</ele>
        <time>2020-03-08T14:52:38Z</time>
      </trkpt>
      <trkpt lat="47.60659" lon="4.95536">
        <ele>350.1</ele>
        <time>2020-03-08T14:52:44Z</time>
      </trkpt>
      <trkpt lat="47.60659" lon="4.95546">
        <ele>350.5</ele>
        <time>2020-03-08T14:52:50Z</time>
      </trkpt>
      <trkpt lat="47.60658" lon="4.95558">
        <ele>350.8</ele>
        <time>2020-03-08T14:52:57Z</time>
      </trkpt>
      <trkpt lat="47.60656" lon="4.95568">
        <ele>350.5</ele>
        <time>2020-03-08T14:53:04Z</time>
      </trkpt>
      <trkpt lat="47.60655" lon="4.95579">
        <ele>350.3</ele>
        <time>2020-03-08T14:53:09Z</time>
      </trkpt>
      <trkpt lat="47.60653" lon="4.95591">
        <ele>349.8</ele>
        <time>2020-03-08T14:53:16Z</time>
      </trkpt>
      <trkpt lat="47.60652" lon="4.95604">
        <ele>350.2</ele>
        <time>2020-03-08T14:53:24Z</time>
      </trkpt>
      <trkpt lat="47.60652" lon="4.95615">
        <ele>351</ele>
        <time>2020-03-08T14:53:31Z</time>
      </trkpt>
      <trkpt lat="47.60651" lon="4.95625">
        <ele>351.5</ele>
        <time>2020-03-08T14:53:36Z</time>
      </trkpt>
      <trkpt lat="47.60651" lon="4.95631">
        <ele>351.5</ele>
        <time>2020-03-08T14:53:39Z</time>
      </trkpt>
      <trkpt lat="47.60653" lon="4.9567">
        <ele>352.3</ele>
        <time>2020-03-08T14:54:00Z</time>
      </trkpt>
      <trkpt lat="47.60655" lon="4.95683">
        <ele>352.2</ele>
        <time>2020-03-08T14:54:07Z</time>
      </trkpt>
      <trkpt lat="47.60656" lon="4.95693">
        <ele>352.4</ele>
        <time>2020-03-08T14:54:13Z</time>
      </trkpt>
      <trkpt lat="47.60657" lon="4.957">
        <ele>352.8</ele>
        <time>2020-03-08T14:54:17Z</time>
      </trkpt>
      <trkpt lat="47.60658" lon="4.9571">
        <ele>353</ele>
        <time>2020-03-08T14:54:24Z</time>
      </trkpt>
      <trkpt lat="47.6066" lon="4.95722">
        <ele>353.4</ele>
        <time>2020-03-08T14:54:40Z</time>
      </trkpt>
      <trkpt lat="47.60665" lon="4.95747">
        <ele>354</ele>
        <time>2020-03-08T14:54:45Z</time>
      </trkpt>
      <trkpt lat="47.60665" lon="4.95753">
        <ele>354.2</ele>
        <time>2020-03-08T14:54:49Z</time>
      </trkpt>
      <trkpt lat="47.60666" lon="4.95768">
        <ele>356.2</ele>
        <time>2020-03-08T14:55:00Z</time>
      </trkpt>
      <trkpt lat="47.60669" lon="4.95817">
        <ele>360.8</ele>
        <time>2020-03-08T14:55:28Z</time>
      </trkpt>
      <trkpt lat="47.60671" lon="4.95827">
        <ele>361.4</ele>
        <time>2020-03-08T14:55:35Z</time>
      </trkpt>
      <trkpt lat="47.60673" lon="4.95839">
        <ele>361.2</ele>
        <time>2020-03-08T14:55:40Z</time>
      </trkpt>
      <trkpt lat="47.60674" lon="4.95852">
        <ele>360</ele>
        <time>2020-03-08T14:55:46Z</time>
      </trkpt>
      <trkpt lat="47.60676" lon="4.95864">
        <ele>359.4</ele>
        <time>2020-03-08T14:55:52Z</time>
      </trkpt>
      <trkpt lat="47.6068" lon="4.95875">
        <ele>359.5</ele>
        <time>2020-03-08T14:55:58Z</time>
      </trkpt>
      <trkpt lat="47.60683" lon="4.95883">
        <ele>360.2</ele>
        <time>2020-03-08T14:56:03Z</time>
      </trkpt>
      <trkpt lat="47.60685" lon="4.95894">
        <ele>360.7</ele>
        <time>2020-03-08T14:56:10Z</time>
      </trkpt>
      <trkpt lat="47.60689" lon="4.95904">
        <ele>361.6</ele>
        <time>2020-03-08T14:56:15Z</time>
      </trkpt>
      <trkpt lat="47.60692" lon="4.95916">
        <ele>361.8</ele>
        <time>2020-03-08T14:57:00Z</time>
      </trkpt>
      <trkpt lat="47.60707" lon="4.95989">
        <ele>365.2</ele>
        <time>2020-03-08T14:57:05Z</time>
      </trkpt>
      <trkpt lat="47.60709" lon="4.95998">
        <ele>365.6</ele>
        <time>2020-03-08T14:57:11Z</time>
      </trkpt>
      <trkpt lat="47.60719" lon="4.96075">
        <ele>368.5</ele>
        <time>2020-03-08T14:58:00Z</time>
      </trkpt>
      <trkpt lat="47.60727" lon="4.96124">
        <ele>374.6</ele>
        <time>2020-03-08T14:59:00Z</time>
      </trkpt>
      <trkpt lat="47.60724" lon="4.96199">
        <ele>371.5</ele>
        <time>2020-03-08T14:59:04Z</time>
      </trkpt>
      <trkpt lat="47.60729" lon="4.96257">
        <ele>364</ele>
        <time>2020-03-08T14:59:40Z</time>
      </trkpt>
      <trkpt lat="47.60732" lon="4.9628">
        <ele>363.8</ele>
        <time>2020-03-08T14:59:47Z</time>
      </trkpt>
      <trkpt lat="47.60733" lon="4.96293">
        <ele>363.1</ele>
        <time>2020-03-08T14:59:53Z</time>
      </trkpt>
      <trkpt lat="47.60733" lon="4.96306">
        <ele>362.3</ele>
        <time>2020-03-08T15:00:00Z</time>
      </trkpt>
      <trkpt lat="47.60733" lon="4.96315">
        <ele>362.6</ele>
        <time>2020-03-08T15:01:00Z</time>
      </trkpt>
      <trkpt lat="47.60763" lon="4.9653">
        <ele>350.3</ele>
        <time>2020-03-08T15:02:00Z</time>
      </trkpt>
      <trkpt lat="47.60764" lon="4.96534">
        <ele>350.1</ele>
        <time>2020-03-08T15:02:07Z</time>
      </trkpt>
      <trkpt lat="47.60766" lon="4.96554">
        <ele>347.8</ele>
        <time>2020-03-08T15:02:12Z</time>
      </trkpt>
      <trkpt lat="47.60768" lon="4.96562">
        <ele>347</ele>
        <time>2020-03-08T15:03:00Z</time>
      </trkpt>
      <trkpt lat="47.6078" lon="4.96652">
        <ele>339.4</ele>
        <time>2020-03-08T15:03:04Z</time>
      </trkpt>
      <trkpt lat="47.60782" lon="4.96661">
        <ele>338.2</ele>
        <time>2020-03-08T15:03:08Z</time>
      </trkpt>
      <trkpt lat="47.60797" lon="4.96727">
        <ele>338.1</ele>
        <time>2020-03-08T15:04:00Z</time>
      </trkpt>
      <trkpt lat="47.60797" lon="4.96727">
        <ele>338.3</ele>
        <time>2020-03-08T15:04:20Z</time>
      </trkpt>
      <trkpt lat="47.60788" lon="4.96733">
        <ele>340.8</ele>
        <time>2020-03-08T15:04:59Z</time>
      </trkpt>
      <trkpt lat="47.60788" lon="4.96733">
        <ele>340.8</ele>
        <time>2020-03-08T15:05:06Z</time>
      </trkpt>
      <trkpt lat="47.60797" lon="4.96731">
        <ele>340.1</ele>
        <time>2020-03-08T15:06:00Z</time>
      </trkpt>
      <trkpt lat="47.60797" lon="4.96731">
        <ele>340.1</ele>
        <time>2020-03-08T15:06:25Z</time>
      </trkpt>
      <trkpt lat="47.60805" lon="4.96754">
        <ele>336.7</ele>
        <time>2020-03-08T15:07:00Z</time>
      </trkpt>
      <trkpt lat="47.60815" lon="4.96813">
        <ele>346.9</ele>
        <time>2020-03-08T15:07:43Z</time>
      </trkpt>
      <trkpt lat="47.60818" lon="4.96839">
        <ele>352.2</ele>
        <time>2020-03-08T15:08:00Z</time>
      </trkpt>
      <trkpt lat="47.60842" lon="4.96945">
        <ele>363</ele>
        <time>2020-03-08T15:09:00Z</time>
      </trkpt>
      <trkpt lat="47.60844" lon="4.96956">
        <ele>364.1</ele>
        <time>2020-03-08T15:09:08Z</time>
      </trkpt>
      <trkpt lat="47.60845" lon="4.96982">
        <ele>364.4</ele>
        <time>2020-03-08T15:10:00Z</time>
      </trkpt>
      <trkpt lat="47.60856" lon="4.97054">
        <ele>366.8</ele>
        <time>2020-03-08T15:10:05Z</time>
      </trkpt>
      <trkpt lat="47.60857" lon="4.97058">
        <ele>367.2</ele>
        <time>2020-03-08T15:10:09Z</time>
      </trkpt>
      <trkpt lat="47.60858" lon="4.9707">
        <ele>368.7</ele>
        <time>2020-03-08T15:10:12Z</time>
      </trkpt>
      <trkpt lat="47.60857" lon="4.97083">
        <ele>369.4</ele>
        <time>2020-03-08T15:10:19Z</time>
      </trkpt>
      <trkpt lat="47.60857" lon="4.97092">
        <ele>370.1</ele>
        <time>2020-03-08T15:10:24Z</time>
      </trkpt>
      <trkpt lat="47.60857" lon="4.97104">
        <ele>370.6</ele>
        <time>2020-03-08T15:10:29Z</time>
      </trkpt>
      <trkpt lat="47.60857" lon="4.97116">
        <ele>371.3</ele>
        <time>2020-03-08T15:11:00Z</time>
      </trkpt>
      <trkpt lat="47.60853" lon="4.97153">
        <ele>371.7</ele>
        <time>2020-03-08T15:11:02Z</time>
      </trkpt>
      <trkpt lat="47.60821" lon="4.97242">
        <ele>371.3</ele>
        <time>2020-03-08T15:12:00Z</time>
      </trkpt>
      <trkpt lat="47.60818" lon="4.97251">
        <ele>372.8</ele>
        <time>2020-03-08T15:12:07Z</time>
      </trkpt>
      <trkpt lat="47.60815" lon="4.97261">
        <ele>373.5</ele>
        <time>2020-03-08T15:12:14Z</time>
      </trkpt>
      <trkpt lat="47.60812" lon="4.97271">
        <ele>373.5</ele>
        <time>2020-03-08T15:12:21Z</time>
      </trkpt>
      <trkpt lat="47.60811" lon="4.97276">
        <ele>373.6</ele>
        <time>2020-03-08T15:12:22Z</time>
      </trkpt>
      <trkpt lat="47.60802" lon="4.97315">
        <ele>376.5</ele>
        <time>2020-03-08T15:13:00Z</time>
      </trkpt>
      <trkpt lat="47.60783" lon="4.97432">
        <ele>384.5</ele>
        <time>2020-03-08T15:15:01Z</time>
      </trkpt>
      <trkpt lat="47.60771" lon="4.97536">
        <ele>383.2</ele>
        <time>2020-03-08T15:15:05Z</time>
      </trkpt>
      <trkpt lat="47.60768" lon="4.97549">
        <ele>383.7</ele>
        <time>2020-03-08T15:15:17Z</time>
      </trkpt>
      <trkpt lat="47.60767" lon="4.97561">
        <ele>385.2</ele>
        <time>2020-03-08T15:15:23Z</time>
      </trkpt>
      <trkpt lat="47.60766" lon="4.97574">
        <ele>387.2</ele>
        <time>2020-03-08T15:15:35Z</time>
      </trkpt>
      <trkpt lat="47.60766" lon="4.97585">
        <ele>388.5</ele>
        <time>2020-03-08T15:15:39Z</time>
      </trkpt>
      <trkpt lat="47.60765" lon="4.97593">
        <ele>388.8</ele>
        <time>2020-03-08T15:15:44Z</time>
      </trkpt>
      <trkpt lat="47.60764" lon="4.976">
        <ele>389.3</ele>
        <time>2020-03-08T15:15:45Z</time>
      </trkpt>
      <trkpt lat="47.60762" lon="4.9762">
        <ele>390.7</ele>
        <time>2020-03-08T15:15:53Z</time>
      </trkpt>
      <trkpt lat="47.60762" lon="4.97625">
        <ele>391.1</ele>
        <time>2020-03-08T15:15:58Z</time>
      </trkpt>
      <trkpt lat="47.60761" lon="4.97636">
        <ele>391.3</ele>
        <time>2020-03-08T15:16:00Z</time>
      </trkpt>
      <trkpt lat="47.6076" lon="4.97648">
        <ele>391.3</ele>
        <time>2020-03-08T15:16:08Z</time>
      </trkpt>
      <trkpt lat="47.60761" lon="4.97661">
        <ele>391.5</ele>
        <time>2020-03-08T15:16:11Z</time>
      </trkpt>
      <trkpt lat="47.6076" lon="4.97668">
        <ele>391</ele>
        <time>2020-03-08T15:16:18Z</time>
      </trkpt>
      <trkpt lat="47.6076" lon="4.97683">
        <ele>388.5</ele>
        <time>2020-03-08T15:16:22Z</time>
      </trkpt>
      <trkpt lat="47.60759" lon="4.97689">
        <ele>387.4</ele>
        <time>2020-03-08T15:16:31Z</time>
      </trkpt>
      <trkpt lat="47.60738" lon="4.97755">
        <ele>376.6</ele>
        <time>2020-03-08T15:17:00Z</time>
      </trkpt>
      <trkpt lat="47.60734" lon="4.97768">
        <ele>373.2</ele>
        <time>2020-03-08T15:17:05Z</time>
      </trkpt>
      <trkpt lat="47.60732" lon="4.97774">
        <ele>371.8</ele>
        <time>2020-03-08T15:17:08Z</time>
      </trkpt>
      <trkpt lat="47.60731" lon="4.97782">
        <ele>370.3</ele>
        <time>2020-03-08T15:17:12Z</time>
      </trkpt>
      <trkpt lat="47.60726" lon="4.97796">
        <ele>368</ele>
        <time>2020-03-08T15:17:55Z</time>
      </trkpt>
      <trkpt lat="47.60691" lon="4.97863">
        <ele>358.4</ele>
        <time>2020-03-08T15:18:00Z</time>
      </trkpt>
      <trkpt lat="47.60686" lon="4.97869">
        <ele>358.1</ele>
        <time>2020-03-08T15:18:06Z</time>
      </trkpt>
      <trkpt lat="47.60679" lon="4.97874">
        <ele>358</ele>
        <time>2020-03-08T15:18:12Z</time>
      </trkpt>
      <trkpt lat="47.60672" lon="4.97878">
        <ele>357.5</ele>
        <time>2020-03-08T15:18:16Z</time>
      </trkpt>
      <trkpt lat="47.60668" lon="4.9788">
        <ele>357.4</ele>
        <time>2020-03-08T15:18:19Z</time>
      </trkpt>
      <trkpt lat="47.60634" lon="4.97904">
        <ele>355.4</ele>
        <time>2020-03-08T15:19:00Z</time>
      </trkpt>
      <trkpt lat="47.60592" lon="4.97934">
        <ele>350.5</ele>
        <time>2020-03-08T15:19:56Z</time>
      </trkpt>
      <trkpt lat="47.60547" lon="4.97965">
        <ele>344.8</ele>
        <time>2020-03-08T15:20:00Z</time>
      </trkpt>
      <trkpt lat="47.60541" lon="4.97968">
        <ele>344</ele>
        <time>2020-03-08T15:20:05Z</time>
      </trkpt>
      <trkpt lat="47.60538" lon="4.97969">
        <ele>343.6</ele>
        <time>2020-03-08T15:20:07Z</time>
      </trkpt>
      <trkpt lat="47.60515" lon="4.97974">
        <ele>342.1</ele>
        <time>2020-03-08T15:20:32Z</time>
      </trkpt>
      <trkpt lat="47.60502" lon="4.97974">
        <ele>339.8</ele>
        <time>2020-03-08T15:20:35Z</time>
      </trkpt>
      <trkpt lat="47.60497" lon="4.97974">
        <ele>340.1</ele>
        <time>2020-03-08T15:20:40Z</time>
      </trkpt>
      <trkpt lat="47.60485" lon="4.97974">
        <ele>339.6</ele>
        <time>2020-03-08T15:21:00Z</time>
      </trkpt>
      <trkpt lat="47.60465" lon="4.97973">
        <ele>335.7</ele>
        <time>2020-03-08T15:21:04Z</time>
      </trkpt>
      <trkpt lat="47.60458" lon="4.97973">
        <ele>334.7</ele>
        <time>2020-03-08T15:21:08Z</time>
      </trkpt>
      <trkpt lat="47.60451" lon="4.97973">
        <ele>333.6</ele>
        <time>2020-03-08T15:21:13Z</time>
      </trkpt>
      <trkpt lat="47.60444" lon="4.97976">
        <ele>332.3</ele>
        <time>2020-03-08T15:21:20Z</time>
      </trkpt>
      <trkpt lat="47.60436" lon="4.97981">
        <ele>331.9</ele>
        <time>2020-03-08T15:21:28Z</time>
      </trkpt>
      <trkpt lat="47.6043" lon="4.97989">
        <ele>332.1</ele>
        <time>2020-03-08T15:21:38Z</time>
      </trkpt>
      <trkpt lat="47.60426" lon="4.97991">
        <ele>334.6</ele>
        <time>2020-03-08T15:22:00Z</time>
      </trkpt>
      <trkpt lat="47.60422" lon="4.98009">
        <ele>340.3</ele>
        <time>2020-03-08T15:22:05Z</time>
      </trkpt>
      <trkpt lat="47.60418" lon="4.98019">
        <ele>342.3</ele>
        <time>2020-03-08T15:22:11Z</time>
      </trkpt>
      <trkpt lat="47.60415" lon="4.98028">
        <ele>344</ele>
        <time>2020-03-08T15:22:25Z</time>
      </trkpt>
      <trkpt lat="47.60409" lon="4.98035">
        <ele>345.1</ele>
        <time>2020-03-08T15:22:28Z</time>
      </trkpt>
      <trkpt lat="47.60403" lon="4.98041">
        <ele>346.1</ele>
        <time>2020-03-08T15:22:36Z</time>
      </trkpt>
      <trkpt lat="47.6038" lon="4.98059">
        <ele>348.3</ele>
        <time>2020-03-08T15:22:56Z</time>
      </trkpt>
      <trkpt lat="47.60371" lon="4.98064">
        <ele>349</ele>
        <time>2020-03-08T15:23:00Z</time>
      </trkpt>
      <trkpt lat="47.60365" lon="4.98072">
        <ele>349.1</ele>
        <time>2020-03-08T15:23:08Z</time>
      </trkpt>
      <trkpt lat="47.6036" lon="4.98078">
        <ele>349.2</ele>
        <time>2020-03-08T15:23:13Z</time>
      </trkpt>
      <trkpt lat="47.60354" lon="4.98087">
        <ele>350</ele>
        <time>2020-03-08T15:23:21Z</time>
      </trkpt>
      <trkpt lat="47.60349" lon="4.98095">
        <ele>351.3</ele>
        <time>2020-03-08T15:23:26Z</time>
      </trkpt>
      <trkpt lat="47.60342" lon="4.98103">
        <ele>351.6</ele>
        <time>2020-03-08T15:23:31Z</time>
      </trkpt>
      <trkpt lat="47.6034" lon="4.98108">
        <ele>352.7</ele>
        <time>2020-03-08T15:23:36Z</time>
      </trkpt>
      <trkpt lat="47.60328" lon="4.98137">
        <ele>353.1</ele>
        <time>2020-03-08T15:24:00Z</time>
      </trkpt>
      <trkpt lat="47.60327" lon="4.98138">
        <ele>352.6</ele>
        <time>2020-03-08T15:24:35Z</time>
      </trkpt>
      <trkpt lat="47.60318" lon="4.98144">
        <ele>347.8</ele>
        <time>2020-03-08T15:24:39Z</time>
      </trkpt>
      <trkpt lat="47.60309" lon="4.98142">
        <ele>346.4</ele>
        <time>2020-03-08T15:25:34Z</time>
      </trkpt>
      <trkpt lat="47.60309" lon="4.9814">
        <ele>347.1</ele>
        <time>2020-03-08T15:26:43Z</time>
      </trkpt>
      <trkpt lat="47.60322" lon="4.98221">
        <ele>359.8</ele>
        <time>2020-03-08T15:28:00Z</time>
      </trkpt>
      <trkpt lat="47.60328" lon="4.98247">
        <ele>361.8</ele>
        <time>2020-03-08T15:28:05Z</time>
      </trkpt>
      <trkpt lat="47.60329" lon="4.98259">
        <ele>363.1</ele>
        <time>2020-03-08T15:28:12Z</time>
      </trkpt>
      <trkpt lat="47.60329" lon="4.98271">
        <ele>364</ele>
        <time>2020-03-08T15:28:20Z</time>
      </trkpt>
      <trkpt lat="47.60331" lon="4.98282">
        <ele>364.4</ele>
        <time>2020-03-08T15:28:26Z</time>
      </trkpt>
      <trkpt lat="47.60332" lon="4.98294">
        <ele>365.2</ele>
        <time>2020-03-08T15:28:32Z</time>
      </trkpt>
      <trkpt lat="47.60333" lon="4.98305">
        <ele>366.7</ele>
        <time>2020-03-08T15:28:38Z</time>
      </trkpt>
      <trkpt lat="47.6033" lon="4.98317">
        <ele>368.3</ele>
        <time>2020-03-08T15:28:48Z</time>
      </trkpt>
      <trkpt lat="47.60327" lon="4.98329">
        <ele>370.2</ele>
        <time>2020-03-08T15:29:00Z</time>
      </trkpt>
      <trkpt lat="47.60324" lon="4.98336">
        <ele>370.6</ele>
        <time>2020-03-08T15:29:05Z</time>
      </trkpt>
      <trkpt lat="47.60319" lon="4.98345">
        <ele>371.2</ele>
        <time>2020-03-08T15:29:09Z</time>
      </trkpt>
      <trkpt lat="47.60315" lon="4.98355">
        <ele>372</ele>
        <time>2020-03-08T15:29:15Z</time>
      </trkpt>
      <trkpt lat="47.60309" lon="4.98368">
        <ele>372.7</ele>
        <time>2020-03-08T15:29:25Z</time>
      </trkpt>
      <trkpt lat="47.60304" lon="4.98379">
        <ele>373.4</ele>
        <time>2020-03-08T15:29:32Z</time>
      </trkpt>
      <trkpt lat="47.60301" lon="4.98389">
        <ele>373.9</ele>
        <time>2020-03-08T15:29:39Z</time>
      </trkpt>
      <trkpt lat="47.603" lon="4.98392">
        <ele>374.4</ele>
        <time>2020-03-08T15:29:40Z</time>
      </trkpt>
      <trkpt lat="47.60298" lon="4.98403">
        <ele>375.2</ele>
        <time>2020-03-08T15:29:50Z</time>
      </trkpt>
      <trkpt lat="47.60292" lon="4.98419">
        <ele>375.8</ele>
        <time>2020-03-08T15:30:00Z</time>
      </trkpt>
      <trkpt lat="47.60288" lon="4.9843">
        <ele>375.7</ele>
        <time>2020-03-08T15:30:07Z</time>
      </trkpt>
      <trkpt lat="47.60281" lon="4.98439">
        <ele>376.5</ele>
        <time>2020-03-08T15:30:27Z</time>
      </trkpt>
      <trkpt lat="47.60256" lon="4.98475">
        <ele>378.2</ele>
        <time>2020-03-08T15:30:48Z</time>
      </trkpt>
      <trkpt lat="47.60246" lon="4.98492">
        <ele>377.7</ele>
        <time>2020-03-08T15:30:56Z</time>
      </trkpt>
      <trkpt lat="47.6024" lon="4.98499">
        <ele>378</ele>
        <time>2020-03-08T15:31:02Z</time>
      </trkpt>
      <trkpt lat="47.60238" lon="4.98502">
        <ele>378.2</ele>
        <time>2020-03-08T15:31:04Z</time>
      </trkpt>
      <trkpt lat="47.60226" lon="4.98518">
        <ele>379.2</ele>
        <time>2020-03-08T15:31:20Z</time>
      </trkpt>
      <trkpt lat="47.6022" lon="4.98525">
        <ele>379.5</ele>
        <time>2020-03-08T15:31:26Z</time>
      </trkpt>
      <trkpt lat="47.60206" lon="4.98548">
        <ele>382</ele>
        <time>2020-03-08T15:31:44Z</time>
      </trkpt>
      <trkpt lat="47.60198" lon="4.98564">
        <ele>383.2</ele>
        <time>2020-03-08T15:31:56Z</time>
      </trkpt>
      <trkpt lat="47.60191" lon="4.98572">
        <ele>383</ele>
        <time>2020-03-08T15:32:00Z</time>
      </trkpt>
      <trkpt lat="47.60186" lon="4.98578">
        <ele>383.5</ele>
        <time>2020-03-08T15:32:07Z</time>
      </trkpt>
      <trkpt lat="47.60181" lon="4.98585">
        <ele>384.6</ele>
        <time>2020-03-08T15:32:12Z</time>
      </trkpt>
      <trkpt lat="47.60177" lon="4.98593">
        <ele>384.8</ele>
        <time>2020-03-08T15:32:38Z</time>
      </trkpt>
      <trkpt lat="47.60154" lon="4.98632">
        <ele>386.2</ele>
        <time>2020-03-08T15:32:49Z</time>
      </trkpt>
      <trkpt lat="47.60149" lon="4.98648">
        <ele>386.2</ele>
        <time>2020-03-08T15:33:00Z</time>
      </trkpt>
      <trkpt lat="47.60145" lon="4.9866">
        <ele>387.7</ele>
        <time>2020-03-08T15:33:09Z</time>
      </trkpt>
      <trkpt lat="47.60142" lon="4.98668">
        <ele>388.3</ele>
        <time>2020-03-08T15:34:00Z</time>
      </trkpt>
      <trkpt lat="47.60121" lon="4.98748">
        <ele>394.1</ele>
        <time>2020-03-08T15:34:04Z</time>
      </trkpt>
      <trkpt lat="47.60118" lon="4.98759">
        <ele>394.4</ele>
        <time>2020-03-08T15:34:12Z</time>
      </trkpt>
      <trkpt lat="47.60115" lon="4.98771">
        <ele>393.9</ele>
        <time>2020-03-08T15:34:16Z</time>
      </trkpt>
      <trkpt lat="47.60113" lon="4.9878">
        <ele>393.6</ele>
        <time>2020-03-08T15:34:23Z</time>
      </trkpt>
      <trkpt lat="47.60109" lon="4.98791">
        <ele>393.4</ele>
        <time>2020-03-08T15:34:29Z</time>
      </trkpt>
      <trkpt lat="47.60107" lon="4.98799">
        <ele>393</ele>
        <time>2020-03-08T15:34:34Z</time>
      </trkpt>
      <trkpt lat="47.60098" lon="4.9882">
        <ele>391.4</ele>
        <time>2020-03-08T15:34:46Z</time>
      </trkpt>
      <trkpt lat="47.60091" lon="4.98836">
        <ele>391.2</ele>
        <time>2020-03-08T15:34:59Z</time>
      </trkpt>
      <trkpt lat="47.60089" lon="4.9884">
        <ele>390.4</ele>
        <time>2020-03-08T15:35:00Z</time>
      </trkpt>
      <trkpt lat="47.60071" lon="4.98867">
        <ele>387.3</ele>
        <time>2020-03-08T15:35:21Z</time>
      </trkpt>
      <trkpt lat="47.60062" lon="4.98879">
        <ele>384.8</ele>
        <time>2020-03-08T15:35:31Z</time>
      </trkpt>
      <trkpt lat="47.60047" lon="4.98894">
        <ele>384.6</ele>
        <time>2020-03-08T15:35:50Z</time>
      </trkpt>
      <trkpt lat="47.60033" lon="4.98904">
        <ele>384.5</ele>
        <time>2020-03-08T15:36:00Z</time>
      </trkpt>
      <trkpt lat="47.60026" lon="4.98909">
        <ele>385.5</ele>
        <time>2020-03-08T15:36:04Z</time>
      </trkpt>
      <trkpt lat="47.60019" lon="4.98916">
        <ele>386.7</ele>
        <time>2020-03-08T15:36:14Z</time>
      </trkpt>
      <trkpt lat="47.60012" lon="4.98922">
        <ele>387.5</ele>
        <time>2020-03-08T15:36:22Z</time>
      </trkpt>
      <trkpt lat="47.60007" lon="4.98925">
        <ele>388.2</ele>
        <time>2020-03-08T15:36:27Z</time>
      </trkpt>
      <trkpt lat="47.60002" lon="4.98929">
        <ele>388.4</ele>
        <time>2020-03-08T15:36:31Z</time>
      </trkpt>
      <trkpt lat="47.59996" lon="4.98937">
        <ele>389.5</ele>
        <time>2020-03-08T15:36:40Z</time>
      </trkpt>
      <trkpt lat="47.59989" lon="4.98943">
        <ele>389.7</ele>
        <time>2020-03-08T15:36:45Z</time>
      </trkpt>
      <trkpt lat="47.59984" lon="4.98946">
        <ele>389.6</ele>
        <time>2020-03-08T15:36:50Z</time>
      </trkpt>
      <trkpt lat="47.59973" lon="4.9896">
        <ele>389.6</ele>
        <time>2020-03-08T15:38:00Z</time>
      </trkpt>
      <trkpt lat="47.5993" lon="4.99047">
        <ele>391.7</ele>
        <time>2020-03-08T15:38:05Z</time>
      </trkpt>
      <trkpt lat="47.59926" lon="4.99054">
        <ele>391.8</ele>
        <time>2020-03-08T15:38:09Z</time>
      </trkpt>
      <trkpt lat="47.59921" lon="4.99062">
        <ele>391.5</ele>
        <time>2020-03-08T15:38:14Z</time>
      </trkpt>
      <trkpt lat="47.5992" lon="4.99065">
        <ele>391.7</ele>
        <time>2020-03-08T15:38:16Z</time>
      </trkpt>
      <trkpt lat="47.59886" lon="4.99124">
        <ele>394.2</ele>
        <time>2020-03-08T15:39:00Z</time>
      </trkpt>
      <trkpt lat="47.59848" lon="4.99202">
        <ele>400.5</ele>
        <time>2020-03-08T15:40:03Z</time>
      </trkpt>
      <trkpt lat="47.59842" lon="4.99214">
        <ele>400</ele>
        <time>2020-03-08T15:40:06Z</time>
      </trkpt>
      <trkpt lat="47.5984" lon="4.99219">
        <ele>399.9</ele>
        <time>2020-03-08T15:40:14Z</time>
      </trkpt>
      <trkpt lat="47.59836" lon="4.99226">
        <ele>399.1</ele>
        <time>2020-03-08T15:40:17Z</time>
      </trkpt>
      <trkpt lat="47.59827" lon="4.99243">
        <ele>398.5</ele>
        <time>2020-03-08T15:40:29Z</time>
      </trkpt>
      <trkpt lat="47.59825" lon="4.99249">
        <ele>399</ele>
        <time>2020-03-08T15:40:33Z</time>
      </trkpt>
      <trkpt lat="47.59818" lon="4.99265">
        <ele>400.2</ele>
        <time>2020-03-08T15:40:49Z</time>
      </trkpt>
      <trkpt lat="47.59814" lon="4.99277">
        <ele>400.8</ele>
        <time>2020-03-08T15:40:55Z</time>
      </trkpt>
      <trkpt lat="47.59809" lon="4.99287">
        <ele>401</ele>
        <time>2020-03-08T15:41:03Z</time>
      </trkpt>
      <trkpt lat="47.59807" lon="4.99299">
        <ele>401.8</ele>
        <time>2020-03-08T15:41:10Z</time>
      </trkpt>
      <trkpt lat="47.59802" lon="4.9931">
        <ele>401.4</ele>
        <time>2020-03-08T15:41:18Z</time>
      </trkpt>
      <trkpt lat="47.59802" lon="4.99313">
        <ele>401.3</ele>
        <time>2020-03-08T15:41:22Z</time>
      </trkpt>
      <trkpt lat="47.5979" lon="4.9934">
        <ele>402.7</ele>
        <time>2020-03-08T15:41:42Z</time>
      </trkpt>
      <trkpt lat="47.59785" lon="4.9935">
        <ele>403.6</ele>
        <time>2020-03-08T15:41:50Z</time>
      </trkpt>
      <trkpt lat="47.59782" lon="4.99357">
        <ele>405</ele>
        <time>2020-03-08T15:42:39Z</time>
      </trkpt>
      <trkpt lat="47.59772" lon="4.99365">
        <ele>401</ele>
        <time>2020-03-08T15:42:59Z</time>
      </trkpt>
      <trkpt lat="47.59772" lon="4.99365">
        <ele>401</ele>
        <time>2020-03-08T15:43:26Z</time>
      </trkpt>
      <trkpt lat="47.59767" lon="4.99376">
        <ele>397.6</ele>
        <time>2020-03-08T15:43:38Z</time>
      </trkpt>
      <trkpt lat="47.59775" lon="4.9938">
        <ele>395.7</ele>
        <time>2020-03-08T15:46:06Z</time>
      </trkpt>
      <trkpt lat="47.59781" lon="4.99388">
        <ele>396.9</ele>
        <time>2020-03-08T15:46:20Z</time>
      </trkpt>
      <trkpt lat="47.59789" lon="4.99394">
        <ele>399.7</ele>
        <time>2020-03-08T15:46:37Z</time>
      </trkpt>
      <trkpt lat="47.59797" lon="4.99397">
        <ele>401.4</ele>
        <time>2020-03-08T15:47:00Z</time>
      </trkpt>
      <trkpt lat="47.59798" lon="4.99398">
        <ele>402.1</ele>
        <time>2020-03-08T15:47:02Z</time>
      </trkpt>
      <trkpt lat="47.5981" lon="4.99399">
        <ele>405.8</ele>
        <time>2020-03-08T15:47:23Z</time>
      </trkpt>
      <trkpt lat="47.59826" lon="4.99398">
        <ele>413.2</ele>
        <time>2020-03-08T15:47:55Z</time>
      </trkpt>
      <trkpt lat="47.59835" lon="4.99399">
        <ele>414.9</ele>
        <time>2020-03-08T15:48:10Z</time>
      </trkpt>
      <trkpt lat="47.59848" lon="4.99397">
        <ele>418.4</ele>
        <time>2020-03-08T15:48:23Z</time>
      </trkpt>
      <trkpt lat="47.59857" lon="4.99396">
        <ele>419.9</ele>
        <time>2020-03-08T15:48:32Z</time>
      </trkpt>
      <trkpt lat="47.59863" lon="4.99396">
        <ele>421.4</ele>
        <time>2020-03-08T15:48:42Z</time>
      </trkpt>
      <trkpt lat="47.59867" lon="4.99396">
        <ele>422.4</ele>
        <time>2020-03-08T15:48:47Z</time>
      </trkpt>
      <trkpt lat="47.59874" lon="4.99396">
        <ele>424.2</ele>
        <time>2020-03-08T15:48:54Z</time>
      </trkpt>
      <trkpt lat="47.59883" lon="4.99397">
        <ele>425.9</ele>
        <time>2020-03-08T15:49:05Z</time>
      </trkpt>
      <trkpt lat="47.59888" lon="4.99397">
        <ele>426.5</ele>
        <time>2020-03-08T15:49:12Z</time>
      </trkpt>
      <trkpt lat="47.59931" lon="4.99399">
        <ele>429.4</ele>
        <time>2020-03-08T15:50:00Z</time>
      </trkpt>
      <trkpt lat="47.59938" lon="4.99399">
        <ele>429.7</ele>
        <time>2020-03-08T15:50:03Z</time>
      </trkpt>
      <trkpt lat="47.59944" lon="4.994">
        <ele>430</ele>
        <time>2020-03-08T15:50:08Z</time>
      </trkpt>
      <trkpt lat="47.59948" lon="4.99399">
        <ele>430.2</ele>
        <time>2020-03-08T15:50:17Z</time>
      </trkpt>
      <trkpt lat="47.59973" lon="4.99399">
        <ele>434.5</ele>
        <time>2020-03-08T15:50:42Z</time>
      </trkpt>
      <trkpt lat="47.59991" lon="4.99399">
        <ele>437.1</ele>
        <time>2020-03-08T15:51:00Z</time>
      </trkpt>
      <trkpt lat="47.6" lon="4.99399">
        <ele>437.5</ele>
        <time>2020-03-08T15:51:09Z</time>
      </trkpt>
      <trkpt lat="47.60027" lon="4.99402">
        <ele>439.1</ele>
        <time>2020-03-08T15:51:44Z</time>
      </trkpt>
      <trkpt lat="47.60051" lon="4.99405">
        <ele>437.8</ele>
        <time>2020-03-08T15:52:00Z</time>
      </trkpt>
      <trkpt lat="47.60059" lon="4.99407">
        <ele>438.5</ele>
        <time>2020-03-08T15:52:09Z</time>
      </trkpt>
      <trkpt lat="47.60067" lon="4.99406">
        <ele>438.6</ele>
        <time>2020-03-08T15:52:19Z</time>
      </trkpt>
      <trkpt lat="47.60091" lon="4.99404">
        <ele>440.2</ele>
        <time>2020-03-08T15:52:42Z</time>
      </trkpt>
      <trkpt lat="47.60097" lon="4.994">
        <ele>441.5</ele>
        <time>2020-03-08T15:52:55Z</time>
      </trkpt>
      <trkpt lat="47.60104" lon="4.99394">
        <ele>442.3</ele>
        <time>2020-03-08T15:53:05Z</time>
      </trkpt>
      <trkpt lat="47.60112" lon="4.99388">
        <ele>443.2</ele>
        <time>2020-03-08T15:53:16Z</time>
      </trkpt>
      <trkpt lat="47.60119" lon="4.99383">
        <ele>443.8</ele>
        <time>2020-03-08T15:53:24Z</time>
      </trkpt>
      <trkpt lat="47.60135" lon="4.99371">
        <ele>445.3</ele>
        <time>2020-03-08T15:53:40Z</time>
      </trkpt>
      <trkpt lat="47.60144" lon="4.99366">
        <ele>446.6</ele>
        <time>2020-03-08T15:53:48Z</time>
      </trkpt>
      <trkpt lat="47.60157" lon="4.9936">
        <ele>447.5</ele>
        <time>2020-03-08T15:54:00Z</time>
      </trkpt>
      <trkpt lat="47.60164" lon="4.99358">
        <ele>447.8</ele>
        <time>2020-03-08T15:54:07Z</time>
      </trkpt>
      <trkpt lat="47.60166" lon="4.99357">
        <ele>447.8</ele>
        <time>2020-03-08T15:54:12Z</time>
      </trkpt>
      <trkpt lat="47.60176" lon="4.99356">
        <ele>448.5</ele>
        <time>2020-03-08T15:54:17Z</time>
      </trkpt>
      <trkpt lat="47.60184" lon="4.99358">
        <ele>448.8</ele>
        <time>2020-03-08T15:54:23Z</time>
      </trkpt>
      <trkpt lat="47.6019" lon="4.99362">
        <ele>450.8</ele>
        <time>2020-03-08T15:54:30Z</time>
      </trkpt>
      <trkpt lat="47.60197" lon="4.99365">
        <ele>452.1</ele>
        <time>2020-03-08T15:54:37Z</time>
      </trkpt>
      <trkpt lat="47.60205" lon="4.99369">
        <ele>454.2</ele>
        <time>2020-03-08T15:54:47Z</time>
      </trkpt>
      <trkpt lat="47.60212" lon="4.99375">
        <ele>455.6</ele>
        <time>2020-03-08T15:54:54Z</time>
      </trkpt>
      <trkpt lat="47.60218" lon="4.99378">
        <ele>455.9</ele>
        <time>2020-03-08T15:54:59Z</time>
      </trkpt>
      <trkpt lat="47.60226" lon="4.99381">
        <ele>457.2</ele>
        <time>2020-03-08T15:55:05Z</time>
      </trkpt>
      <trkpt lat="47.60233" lon="4.99387">
        <ele>458.5</ele>
        <time>2020-03-08T15:55:14Z</time>
      </trkpt>
      <trkpt lat="47.60239" lon="4.99389">
        <ele>460.4</ele>
        <time>2020-03-08T15:55:20Z</time>
      </trkpt>
      <trkpt lat="47.60248" lon="4.99391">
        <ele>463</ele>
        <time>2020-03-08T15:55:29Z</time>
      </trkpt>
      <trkpt lat="47.60256" lon="4.99394">
        <ele>465.6</ele>
        <time>2020-03-08T15:55:38Z</time>
      </trkpt>
      <trkpt lat="47.60264" lon="4.99401">
        <ele>469.1</ele>
        <time>2020-03-08T15:55:46Z</time>
      </trkpt>
      <trkpt lat="47.60269" lon="4.99411">
        <ele>461.5</ele>
        <time>2020-03-08T15:56:05Z</time>
      </trkpt>
      <trkpt lat="47.60273" lon="4.99435">
        <ele>459</ele>
        <time>2020-03-08T15:56:23Z</time>
      </trkpt>
      <trkpt lat="47.60277" lon="4.9947">
        <ele>460.2</ele>
        <time>2020-03-08T15:57:00Z</time>
      </trkpt>
      <trkpt lat="47.60282" lon="4.9948">
        <ele>461.8</ele>
        <time>2020-03-08T15:57:09Z</time>
      </trkpt>
      <trkpt lat="47.60283" lon="4.99482">
        <ele>462.1</ele>
        <time>2020-03-08T15:57:10Z</time>
      </trkpt>
      <trkpt lat="47.60293" lon="4.99487">
        <ele>463.2</ele>
        <time>2020-03-08T15:58:00Z</time>
      </trkpt>
      <trkpt lat="47.60328" lon="4.99497">
        <ele>464.6</ele>
        <time>2020-03-08T15:58:05Z</time>
      </trkpt>
      <trkpt lat="47.60337" lon="4.99497">
        <ele>464.1</ele>
        <time>2020-03-08T15:58:15Z</time>
      </trkpt>
      <trkpt lat="47.60342" lon="4.99497">
        <ele>464.2</ele>
        <time>2020-03-08T15:58:25Z</time>
      </trkpt>
      <trkpt lat="47.60378" lon="4.99498">
        <ele>466.6</ele>
        <time>2020-03-08T15:59:00Z</time>
      </trkpt>
      <trkpt lat="47.60441" lon="4.99503">
        <ele>466.2</ele>
        <time>2020-03-08T16:00:00Z</time>
      </trkpt>
      <trkpt lat="47.60448" lon="4.99504">
        <ele>467</ele>
        <time>2020-03-08T16:00:09Z</time>
      </trkpt>
      <trkpt lat="47.60453" lon="4.99507">
        <ele>467.8</ele>
        <time>2020-03-08T16:00:15Z</time>
      </trkpt>
      <trkpt lat="47.60472" lon="4.99508">
        <ele>470</ele>
        <time>2020-03-08T16:00:32Z</time>
      </trkpt>
      <trkpt lat="47.6048" lon="4.99508">
        <ele>470.8</ele>
        <time>2020-03-08T16:00:40Z</time>
      </trkpt>
      <trkpt lat="47.60488" lon="4.9951">
        <ele>470.5</ele>
        <time>2020-03-08T16:00:50Z</time>
      </trkpt>
      <trkpt lat="47.60495" lon="4.9951">
        <ele>470.4</ele>
        <time>2020-03-08T16:00:52Z</time>
      </trkpt>
      <trkpt lat="47.60498" lon="4.99511">
        <ele>470.5</ele>
        <time>2020-03-08T16:00:55Z</time>
      </trkpt>
      <trkpt lat="47.60505" lon="4.99512">
        <ele>470.8</ele>
        <time>2020-03-08T16:01:00Z</time>
      </trkpt>
      <trkpt lat="47.60509" lon="4.99512">
        <ele>469.7</ele>
        <time>2020-03-08T16:01:10Z</time>
      </trkpt>
      <trkpt lat="47.60534" lon="4.99511">
        <ele>468.2</ele>
        <time>2020-03-08T16:01:26Z</time>
      </trkpt>
      <trkpt lat="47.60542" lon="4.9951">
        <ele>468.2</ele>
        <time>2020-03-08T16:01:36Z</time>
      </trkpt>
      <trkpt lat="47.60546" lon="4.99511">
        <ele>468.7</ele>
        <time>2020-03-08T16:01:39Z</time>
      </trkpt>
      <trkpt lat="47.60552" lon="4.99511">
        <ele>468.8</ele>
        <time>2020-03-08T16:02:00Z</time>
      </trkpt>
      <trkpt lat="47.60573" lon="4.99512">
        <ele>469</ele>
        <time>2020-03-08T16:02:04Z</time>
      </trkpt>
      <trkpt lat="47.60577" lon="4.99512">
        <ele>468.1</ele>
        <time>2020-03-08T16:02:21Z</time>
      </trkpt>
      <trkpt lat="47.60586" lon="4.99515">
        <ele>464.9</ele>
        <time>2020-03-08T16:02:24Z</time>
      </trkpt>
      <trkpt lat="47.60595" lon="4.99515">
        <ele>464.5</ele>
        <time>2020-03-08T16:02:33Z</time>
      </trkpt>
      <trkpt lat="47.606" lon="4.99514">
        <ele>465.4</ele>
        <time>2020-03-08T16:02:57Z</time>
      </trkpt>
      <trkpt lat="47.6063" lon="4.99511">
        <ele>467.4</ele>
        <time>2020-03-08T16:03:02Z</time>
      </trkpt>
      <trkpt lat="47.60639" lon="4.9951">
        <ele>466.1</ele>
        <time>2020-03-08T16:03:11Z</time>
      </trkpt>
      <trkpt lat="47.60648" lon="4.9951">
        <ele>466.6</ele>
        <time>2020-03-08T16:03:18Z</time>
      </trkpt>
      <trkpt lat="47.60656" lon="4.9951">
        <ele>466.9</ele>
        <time>2020-03-08T16:03:26Z</time>
      </trkpt>
      <trkpt lat="47.6069" lon="4.99512">
        <ele>462.6</ele>
        <time>2020-03-08T16:03:52Z</time>
      </trkpt>
      <trkpt lat="47.60698" lon="4.99513">
        <ele>462.9</ele>
        <time>2020-03-08T16:04:01Z</time>
      </trkpt>
      <trkpt lat="47.60706" lon="4.99515">
        <ele>463.2</ele>
        <time>2020-03-08T16:04:09Z</time>
      </trkpt>
      <trkpt lat="47.60715" lon="4.99514">
        <ele>462.5</ele>
        <time>2020-03-08T16:04:17Z</time>
      </trkpt>
      <trkpt lat="47.60721" lon="4.99513">
        <ele>461.6</ele>
        <time>2020-03-08T16:04:24Z</time>
      </trkpt>
      <trkpt lat="47.6076" lon="4.99511">
        <ele>453.3</ele>
        <time>2020-03-08T16:05:00Z</time>
      </trkpt>
      <trkpt lat="47.60823" lon="4.99508">
        <ele>447.8</ele>
        <time>2020-03-08T16:06:00Z</time>
      </trkpt>
      <trkpt lat="47.60884" lon="4.9955">
        <ele>459</ele>
        <time>2020-03-08T16:07:00Z</time>
      </trkpt>
      <trkpt lat="47.6089" lon="4.99559">
        <ele>460.6</ele>
        <time>2020-03-08T16:07:08Z</time>
      </trkpt>
      <trkpt lat="47.60895" lon="4.99564">
        <ele>461.4</ele>
        <time>2020-03-08T16:07:12Z</time>
      </trkpt>
      <trkpt lat="47.60898" lon="4.99568">
        <ele>462</ele>
        <time>2020-03-08T16:07:15Z</time>
      </trkpt>
      <trkpt lat="47.60928" lon="4.99625">
        <ele>466.3</ele>
        <time>2020-03-08T16:07:58Z</time>
      </trkpt>
      <trkpt lat="47.60931" lon="4.99636">
        <ele>466.5</ele>
        <time>2020-03-08T16:08:04Z</time>
      </trkpt>
      <trkpt lat="47.60933" lon="4.99643">
        <ele>466.1</ele>
        <time>2020-03-08T16:08:14Z</time>
      </trkpt>
      <trkpt lat="47.60938" lon="4.99657">
        <ele>463.2</ele>
        <time>2020-03-08T16:08:45Z</time>
      </trkpt>
      <trkpt lat="47.60954" lon="4.99697">
        <ele>462.9</ele>
        <time>2020-03-08T16:08:56Z</time>
      </trkpt>
      <trkpt lat="47.60955" lon="4.99701">
        <ele>463</ele>
        <time>2020-03-08T16:09:27Z</time>
      </trkpt>
      <trkpt lat="47.60988" lon="4.99786">
        <ele>464.4</ele>
        <time>2020-03-08T16:10:00Z</time>
      </trkpt>
      <trkpt lat="47.60998" lon="4.99817">
        <ele>465.4</ele>
        <time>2020-03-08T16:10:18Z</time>
      </trkpt>
      <trkpt lat="47.61002" lon="4.99829">
        <ele>466</ele>
        <time>2020-03-08T16:10:27Z</time>
      </trkpt>
      <trkpt lat="47.61005" lon="4.99838">
        <ele>466.6</ele>
        <time>2020-03-08T16:10:33Z</time>
      </trkpt>
      <trkpt lat="47.61006" lon="4.99841">
        <ele>466.8</ele>
        <time>2020-03-08T16:10:35Z</time>
      </trkpt>
      <trkpt lat="47.61015" lon="4.9986">
        <ele>468.7</ele>
        <time>2020-03-08T16:11:00Z</time>
      </trkpt>
      <trkpt lat="47.61024" lon="4.99883">
        <ele>470</ele>
        <time>2020-03-08T16:11:04Z</time>
      </trkpt>
      <trkpt lat="47.61026" lon="4.99887">
        <ele>469.7</ele>
        <time>2020-03-08T16:11:08Z</time>
      </trkpt>
      <trkpt lat="47.61041" lon="4.99936">
        <ele>471.5</ele>
        <time>2020-03-08T16:12:00Z</time>
      </trkpt>
      <trkpt lat="47.61054" lon="4.99985">
        <ele>470.8</ele>
        <time>2020-03-08T16:12:05Z</time>
      </trkpt>
      <trkpt lat="47.61059" lon="4.99992">
        <ele>471.2</ele>
        <time>2020-03-08T16:12:12Z</time>
      </trkpt>
      <trkpt lat="47.61064" lon="5.00002">
        <ele>469.5</ele>
        <time>2020-03-08T16:12:21Z</time>
      </trkpt>
      <trkpt lat="47.61074" lon="5.00016">
        <ele>467.5</ele>
        <time>2020-03-08T16:13:00Z</time>
      </trkpt>
      <trkpt lat="47.61099" lon="5.00054">
        <ele>460.9</ele>
        <time>2020-03-08T16:13:02Z</time>
      </trkpt>
      <trkpt lat="47.61133" lon="5.00101">
        <ele>453.2</ele>
        <time>2020-03-08T16:14:00Z</time>
      </trkpt>
      <trkpt lat="47.61144" lon="5.00106">
        <ele>453.7</ele>
        <time>2020-03-08T16:14:05Z</time>
      </trkpt>
      <trkpt lat="47.61147" lon="5.00108">
        <ele>454.2</ele>
        <time>2020-03-08T16:14:29Z</time>
      </trkpt>
      <trkpt lat="47.61192" lon="5.00148">
        <ele>434.5</ele>
        <time>2020-03-08T16:15:00Z</time>
      </trkpt>
      <trkpt lat="47.61192" lon="5.00148">
        <ele>434.5</ele>
        <time>2020-03-08T16:15:02Z</time>
      </trkpt>
      <trkpt lat="47.61257" lon="5.00174">
        <ele>419.3</ele>
        <time>2020-03-08T16:16:04Z</time>
      </trkpt>
      <trkpt lat="47.61263" lon="5.00176">
        <ele>419.1</ele>
        <time>2020-03-08T16:16:10Z</time>
      </trkpt>
      <trkpt lat="47.6127" lon="5.00177">
        <ele>419.1</ele>
        <time>2020-03-08T16:16:14Z</time>
      </trkpt>
      <trkpt lat="47.61276" lon="5.0018">
        <ele>419.5</ele>
        <time>2020-03-08T16:16:19Z</time>
      </trkpt>
      <trkpt lat="47.61282" lon="5.00181">
        <ele>419.1</ele>
        <time>2020-03-08T16:16:23Z</time>
      </trkpt>
      <trkpt lat="47.61317" lon="5.00209">
        <ele>416.2</ele>
        <time>2020-03-08T16:16:54Z</time>
      </trkpt>
      <trkpt lat="47.61324" lon="5.00215">
        <ele>415.2</ele>
        <time>2020-03-08T16:16:59Z</time>
      </trkpt>
      <trkpt lat="47.6133" lon="5.00222">
        <ele>415.4</ele>
        <time>2020-03-08T16:17:06Z</time>
      </trkpt>
      <trkpt lat="47.61332" lon="5.00224">
        <ele>415.7</ele>
        <time>2020-03-08T16:17:09Z</time>
      </trkpt>
      <trkpt lat="47.61349" lon="5.00244">
        <ele>416</ele>
        <time>2020-03-08T16:17:36Z</time>
      </trkpt>
      <trkpt lat="47.61366" lon="5.00255">
        <ele>417.7</ele>
        <time>2020-03-08T16:17:42Z</time>
      </trkpt>
      <trkpt lat="47.6137" lon="5.00259">
        <ele>418.4</ele>
        <time>2020-03-08T16:18:00Z</time>
      </trkpt>
      <trkpt lat="47.61388" lon="5.00287">
        <ele>415.1</ele>
        <time>2020-03-08T16:18:05Z</time>
      </trkpt>
      <trkpt lat="47.61395" lon="5.00295">
        <ele>410.1</ele>
        <time>2020-03-08T16:18:13Z</time>
      </trkpt>
      <trkpt lat="47.61399" lon="5.00299">
        <ele>408</ele>
        <time>2020-03-08T16:18:59Z</time>
      </trkpt>
      <trkpt lat="47.61436" lon="5.00348">
        <ele>396.9</ele>
        <time>2020-03-08T16:19:03Z</time>
      </trkpt>
      <trkpt lat="47.61439" lon="5.00355">
        <ele>396.7</ele>
        <time>2020-03-08T16:19:08Z</time>
      </trkpt>
      <trkpt lat="47.61443" lon="5.00361">
        <ele>396.3</ele>
        <time>2020-03-08T16:19:58Z</time>
      </trkpt>
      <trkpt lat="47.61483" lon="5.00406">
        <ele>393.2</ele>
        <time>2020-03-08T16:20:00Z</time>
      </trkpt>
      <trkpt lat="47.6152" lon="5.00454">
        <ele>394.1</ele>
        <time>2020-03-08T16:21:00Z</time>
      </trkpt>
      <trkpt lat="47.61535" lon="5.00473">
        <ele>392.4</ele>
        <time>2020-03-08T16:21:04Z</time>
      </trkpt>
      <trkpt lat="47.61542" lon="5.00481">
        <ele>392</ele>
        <time>2020-03-08T16:21:12Z</time>
      </trkpt>
      <trkpt lat="47.61547" lon="5.00486">
        <ele>391.3</ele>
        <time>2020-03-08T16:21:16Z</time>
      </trkpt>
      <trkpt lat="47.61573" lon="5.00529">
        <ele>390.5</ele>
        <time>2020-03-08T16:22:00Z</time>
      </trkpt>
      <trkpt lat="47.61585" lon="5.00553">
        <ele>389.1</ele>
        <time>2020-03-08T16:22:05Z</time>
      </trkpt>
      <trkpt lat="47.6159" lon="5.00559">
        <ele>389.4</ele>
        <time>2020-03-08T16:22:12Z</time>
      </trkpt>
      <trkpt lat="47.61592" lon="5.00563">
        <ele>389.8</ele>
        <time>2020-03-08T16:22:16Z</time>
      </trkpt>
      <trkpt lat="47.6162" lon="5.00607">
        <ele>383</ele>
        <time>2020-03-08T16:22:46Z</time>
      </trkpt>
      <trkpt lat="47.61624" lon="5.00621">
        <ele>383.6</ele>
        <time>2020-03-08T16:22:55Z</time>
      </trkpt>
      <trkpt lat="47.6163" lon="5.00631">
        <ele>382.1</ele>
        <time>2020-03-08T16:23:01Z</time>
      </trkpt>
      <trkpt lat="47.61635" lon="5.00638">
        <ele>379.1</ele>
        <time>2020-03-08T16:23:07Z</time>
      </trkpt>
      <trkpt lat="47.61641" lon="5.00647">
        <ele>375</ele>
        <time>2020-03-08T16:23:16Z</time>
      </trkpt>
      <trkpt lat="47.61644" lon="5.00657">
        <ele>372</ele>
        <time>2020-03-08T16:23:21Z</time>
      </trkpt>
      <trkpt lat="47.61646" lon="5.00667">
        <ele>369.5</ele>
        <time>2020-03-08T16:23:25Z</time>
      </trkpt>
      <trkpt lat="47.61646" lon="5.00674">
        <ele>368.3</ele>
        <time>2020-03-08T16:23:29Z</time>
      </trkpt>
      <trkpt lat="47.61652" lon="5.00705">
        <ele>362.3</ele>
        <time>2020-03-08T16:24:00Z</time>
      </trkpt>
      <trkpt lat="47.61657" lon="5.00732">
        <ele>358.6</ele>
        <time>2020-03-08T16:24:11Z</time>
      </trkpt>
      <trkpt lat="47.61659" lon="5.00744">
        <ele>358.1</ele>
        <time>2020-03-08T16:24:16Z</time>
      </trkpt>
      <trkpt lat="47.61662" lon="5.00756">
        <ele>356.8</ele>
        <time>2020-03-08T16:24:24Z</time>
      </trkpt>
      <trkpt lat="47.61666" lon="5.00766">
        <ele>354.9</ele>
        <time>2020-03-08T16:24:30Z</time>
      </trkpt>
      <trkpt lat="47.61668" lon="5.00776">
        <ele>354.5</ele>
        <time>2020-03-08T16:24:38Z</time>
      </trkpt>
      <trkpt lat="47.6167" lon="5.00781">
        <ele>353.6</ele>
        <time>2020-03-08T16:24:44Z</time>
      </trkpt>
      <trkpt lat="47.61674" lon="5.00793">
        <ele>352.7</ele>
        <time>2020-03-08T16:24:49Z</time>
      </trkpt>
      <trkpt lat="47.61676" lon="5.00804">
        <ele>351.7</ele>
        <time>2020-03-08T16:25:00Z</time>
      </trkpt>
      <trkpt lat="47.61683" lon="5.00812">
        <ele>348.5</ele>
        <time>2020-03-08T16:25:03Z</time>
      </trkpt>
      <trkpt lat="47.61686" lon="5.00814">
        <ele>345.9</ele>
        <time>2020-03-08T16:25:08Z</time>
      </trkpt>
      <trkpt lat="47.61696" lon="5.00825">
        <ele>338.5</ele>
        <time>2020-03-08T16:25:29Z</time>
      </trkpt>
      <trkpt lat="47.61703" lon="5.00831">
        <ele>337.3</ele>
        <time>2020-03-08T16:25:34Z</time>
      </trkpt>
      <trkpt lat="47.61706" lon="5.00836">
        <ele>336.8</ele>
        <time>2020-03-08T16:25:38Z</time>
      </trkpt>
      <trkpt lat="47.61711" lon="5.00842">
        <ele>336.6</ele>
        <time>2020-03-08T16:25:44Z</time>
      </trkpt>
      <trkpt lat="47.61717" lon="5.00851">
        <ele>336.3</ele>
        <time>2020-03-08T16:25:51Z</time>
      </trkpt>
      <trkpt lat="47.61721" lon="5.00859">
        <ele>337.1</ele>
        <time>2020-03-08T16:25:57Z</time>
      </trkpt>
      <trkpt lat="47.61725" lon="5.00868">
        <ele>337.7</ele>
        <time>2020-03-08T16:26:04Z</time>
      </trkpt>
      <trkpt lat="47.61728" lon="5.00877">
        <ele>338.2</ele>
        <time>2020-03-08T16:26:09Z</time>
      </trkpt>
      <trkpt lat="47.61731" lon="5.00889">
        <ele>340</ele>
        <time>2020-03-08T16:26:19Z</time>
      </trkpt>
      <trkpt lat="47.61732" lon="5.00896">
        <ele>340.3</ele>
        <time>2020-03-08T16:26:26Z</time>
      </trkpt>
      <trkpt lat="47.61747" lon="5.0092">
        <ele>337.8</ele>
        <time>2020-03-08T16:27:00Z</time>
      </trkpt>
      <trkpt lat="47.61752" lon="5.00929">
        <ele>339.8</ele>
        <time>2020-03-08T16:27:09Z</time>
      </trkpt>
      <trkpt lat="47.61756" lon="5.0094">
        <ele>341.7</ele>
        <time>2020-03-08T16:27:17Z</time>
      </trkpt>
      <trkpt lat="47.61758" lon="5.00952">
        <ele>343.3</ele>
        <time>2020-03-08T16:27:24Z</time>
      </trkpt>
      <trkpt lat="47.61758" lon="5.00954">
        <ele>343.4</ele>
        <time>2020-03-08T16:28:00Z</time>
      </trkpt>
      <trkpt lat="47.61763" lon="5.01021">
        <ele>348</ele>
        <time>2020-03-08T16:28:04Z</time>
      </trkpt>
      <trkpt lat="47.61763" lon="5.0103">
        <ele>348.7</ele>
        <time>2020-03-08T16:29:00Z</time>
      </trkpt>
      <trkpt lat="47.61776" lon="5.01088">
        <ele>342.3</ele>
        <time>2020-03-08T16:29:29Z</time>
      </trkpt>
      <trkpt lat="47.61802" lon="5.01171">
        <ele>338.1</ele>
        <time>2020-03-08T16:30:00Z</time>
      </trkpt>
      <trkpt lat="47.61803" lon="5.01174">
        <ele>338.2</ele>
        <time>2020-03-08T16:30:02Z</time>
      </trkpt>
      <trkpt lat="47.61829" lon="5.01242">
        <ele>346.6</ele>
        <time>2020-03-08T16:30:57Z</time>
      </trkpt>
      <trkpt lat="47.61832" lon="5.01252">
        <ele>346</ele>
        <time>2020-03-08T16:31:02Z</time>
      </trkpt>
      <trkpt lat="47.61834" lon="5.01261">
        <ele>346.2</ele>
        <time>2020-03-08T16:31:09Z</time>
      </trkpt>
      <trkpt lat="47.61837" lon="5.01269">
        <ele>346.9</ele>
        <time>2020-03-08T16:31:12Z</time>
      </trkpt>
      <trkpt lat="47.61839" lon="5.01282">
        <ele>347.1</ele>
        <time>2020-03-08T16:31:17Z</time>
      </trkpt>
      <trkpt lat="47.61841" lon="5.01294">
        <ele>346.2</ele>
        <time>2020-03-08T16:31:24Z</time>
      </trkpt>
      <trkpt lat="47.61842" lon="5.01306">
        <ele>346.2</ele>
        <time>2020-03-08T16:31:33Z</time>
      </trkpt>
      <trkpt lat="47.61843" lon="5.01309">
        <ele>346.4</ele>
        <time>2020-03-08T16:31:35Z</time>
      </trkpt>
      <trkpt lat="47.61849" lon="5.01325">
        <ele>347.8</ele>
        <time>2020-03-08T16:31:49Z</time>
      </trkpt>
      <trkpt lat="47.61853" lon="5.01341">
        <ele>348</ele>
        <time>2020-03-08T16:32:00Z</time>
      </trkpt>
      <trkpt lat="47.61857" lon="5.01352">
        <ele>349.5</ele>
        <time>2020-03-08T16:32:07Z</time>
      </trkpt>
      <trkpt lat="47.61863" lon="5.0136">
        <ele>348.7</ele>
        <time>2020-03-08T16:32:14Z</time>
      </trkpt>
      <trkpt lat="47.61863" lon="5.01367">
        <ele>348.2</ele>
        <time>2020-03-08T16:32:27Z</time>
      </trkpt>
      <trkpt lat="47.61872" lon="5.01373">
        <ele>347.5</ele>
        <time>2020-03-08T16:33:00Z</time>
      </trkpt>
      <trkpt lat="47.61909" lon="5.01395">
        <ele>344.6</ele>
        <time>2020-03-08T16:33:14Z</time>
      </trkpt>
      <trkpt lat="47.6192" lon="5.01417">
        <ele>340.3</ele>
        <time>2020-03-08T16:33:20Z</time>
      </trkpt>
      <trkpt lat="47.61924" lon="5.0142">
        <ele>340.1</ele>
        <time>2020-03-08T16:33:23Z</time>
      </trkpt>
      <trkpt lat="47.61949" lon="5.01433">
        <ele>336.3</ele>
        <time>2020-03-08T16:34:00Z</time>
      </trkpt>
      <trkpt lat="47.61962" lon="5.01443">
        <ele>331.9</ele>
        <time>2020-03-08T16:34:13Z</time>
      </trkpt>
      <trkpt lat="47.61963" lon="5.01443">
        <ele>331.8</ele>
        <time>2020-03-08T16:34:24Z</time>
      </trkpt>
      <trkpt lat="47.61963" lon="5.01443">
        <ele>331.8</ele>
        <time>2020-03-08T16:34:24Z</time>
      </trkpt>
    </trkseg>
  </trk>
</gpx>